Wetterdaten: aktuell Mittwoch, 06.05.2026 10:49
Datum Zeit Temp. A. Feuchte A. Luftdruck Regen Wind Richtung Richtung ET Taupunkt Windchill Windböen Empfang
06.05.2026 10:49 19,2 °C 55 % 1008,6 hPa 0,0 l/m² 6,4 km/h (2 Bft) S-SO 157 ° 0,000 mm 9,9 °C 19,2 °C 8,0 km/h (2 Bft) 100,00 %
06.05.2026 10:48 19,3 °C 55 % 1008,6 hPa 0,0 l/m² 6,4 km/h (2 Bft) S-SO 157 ° 0,000 mm 10,0 °C 19,3 °C 8,0 km/h (2 Bft) 100,00 %
06.05.2026 10:47 19,3 °C 56 % 1008,6 hPa 0,0 l/m² 3,2 km/h (1 Bft) S 180 ° 0,000 mm 10,3 °C 19,3 °C 6,4 km/h (2 Bft) 100,00 %
06.05.2026 10:46 19,3 °C 56 % 1008,7 hPa 0,0 l/m² 4,8 km/h (1 Bft) S 180 ° 0,000 mm 10,3 °C 19,3 °C 4,8 km/h (1 Bft) 100,00 %
06.05.2026 10:45 19,2 °C 57 % 1008,6 hPa 0,0 l/m² 1,6 km/h (1 Bft) O 90 ° 0,000 mm 10,5 °C 19,2 °C 1,6 km/h (1 Bft) 100,00 %
06.05.2026 10:44 19,1 °C 58 % 1008,5 hPa 0,0 l/m² 1,6 km/h (1 Bft) O 90 ° 0,000 mm 10,6 °C 19,1 °C 3,2 km/h (1 Bft) 95,65 %
06.05.2026 10:43 18,9 °C 58 % 1008,6 hPa 0,0 l/m² 3,2 km/h (1 Bft) SW 225 ° 0,000 mm 10,5 °C 18,9 °C 4,8 km/h (1 Bft) 100,00 %
06.05.2026 10:42 18,9 °C 58 % 1008,6 hPa 0,0 l/m² 1,6 km/h (1 Bft) W 270 ° 0,000 mm 10,5 °C 18,9 °C 3,2 km/h (1 Bft) 95,65 %
06.05.2026 10:41 18,8 °C 59 % 1008,6 hPa 0,0 l/m² 0,0 km/h (0 Bft) W-NW 292 ° 0,000 mm 10,6 °C 18,8 °C 1,6 km/h (1 Bft) 95,65 %
06.05.2026 10:40 18,8 °C 59 % 1008,6 hPa 0,0 l/m² 4,8 km/h (1 Bft) N 360 ° 0,000 mm 10,6 °C 18,8 °C 8,0 km/h (2 Bft) 100,00 %
06.05.2026 10:39 18,8 °C 58 % 1008,6 hPa 0,0 l/m² 1,6 km/h (1 Bft) W-SW 247 ° 0,000 mm 10,4 °C 18,8 °C 4,8 km/h (1 Bft) 100,00 %
06.05.2026 10:38 18,8 °C 58 % 1008,6 hPa 0,0 l/m² 3,2 km/h (1 Bft) NW 315 ° 0,000 mm 10,4 °C 18,8 °C 4,8 km/h (1 Bft) 100,00 %
06.05.2026 10:37 18,8 °C 58 % 1008,6 hPa 0,0 l/m² 1,6 km/h (1 Bft) W-SW 247 ° 0,000 mm 10,4 °C 18,8 °C 4,8 km/h (1 Bft) 100,00 %
06.05.2026 10:36 18,8 °C 57 % 1008,6 hPa 0,0 l/m² 3,2 km/h (1 Bft) O-NO 67 ° 0,000 mm 10,1 °C 18,8 °C 6,4 km/h (2 Bft) 100,00 %
06.05.2026 10:35 18,8 °C 57 % 1008,6 hPa 0,0 l/m² 1,6 km/h (1 Bft) S 180 ° 0,000 mm 10,1 °C 18,8 °C 4,8 km/h (1 Bft) 100,00 %
06.05.2026 10:34 18,7 °C 58 % 1008,7 hPa 0,0 l/m² 1,6 km/h (1 Bft) W-SW 247 ° 0,000 mm 10,3 °C 18,7 °C 3,2 km/h (1 Bft) 100,00 %
06.05.2026 10:33 18,6 °C 58 % 1008,6 hPa 0,0 l/m² 1,6 km/h (1 Bft) S-SW 202 ° 0,000 mm 10,2 °C 18,6 °C 3,2 km/h (1 Bft) 100,00 %
06.05.2026 10:32 18,6 °C 58 % 1008,7 hPa 0,0 l/m² 3,2 km/h (1 Bft) SO 135 ° 0,000 mm 10,2 °C 18,6 °C 4,8 km/h (1 Bft) 100,00 %
06.05.2026 10:31 18,4 °C 58 % 1008,8 hPa 0,0 l/m² 1,6 km/h (1 Bft) W-NW 292 ° 0,000 mm 10,0 °C 18,4 °C 4,8 km/h (1 Bft) 100,00 %
06.05.2026 10:30 18,4 °C 58 % 1008,7 hPa 0,0 l/m² 0,0 km/h (0 Bft) W-SW 247 ° 0,000 mm 10,0 °C 18,4 °C 1,6 km/h (1 Bft) 95,65 %
06.05.2026 10:29 18,5 °C 58 % 1008,7 hPa 0,0 l/m² 3,2 km/h (1 Bft) NW 315 ° 0,000 mm 10,1 °C 18,5 °C 4,8 km/h (1 Bft) 100,00 %
06.05.2026 10:28 18,6 °C 57 % 1008,7 hPa 0,0 l/m² 3,2 km/h (1 Bft) W 270 ° 0,000 mm 9,9 °C 18,6 °C 6,4 km/h (2 Bft) 100,00 %
06.05.2026 10:27 18,6 °C 58 % 1008,9 hPa 0,0 l/m² 3,2 km/h (1 Bft) N-NW 337 ° 0,000 mm 10,2 °C 18,6 °C 4,8 km/h (1 Bft) 95,65 %
06.05.2026 10:26 18,6 °C 59 % 1008,7 hPa 0,0 l/m² 1,6 km/h (1 Bft) SW 225 ° 0,000 mm 10,4 °C 18,6 °C 4,8 km/h (1 Bft) 100,00 %
06.05.2026 10:25 18,5 °C 58 % 1008,8 hPa 0,0 l/m² 0,0 km/h (0 Bft) W-NW 292 ° 0,000 mm 10,1 °C 18,5 °C 3,2 km/h (1 Bft) 100,00 %
06.05.2026 10:24 18,6 °C 58 % 1008,6 hPa 0,0 l/m² 3,2 km/h (1 Bft) W-NW 292 ° 0,000 mm 10,2 °C 18,6 °C 6,4 km/h (2 Bft) 100,00 %
06.05.2026 10:23 18,5 °C 58 % 1008,7 hPa 0,0 l/m² 3,2 km/h (1 Bft) W-NW 292 ° 0,000 mm 10,1 °C 18,5 °C 6,4 km/h (2 Bft) 100,00 %
06.05.2026 10:22 18,5 °C 58 % 1008,6 hPa 0,0 l/m² 1,6 km/h (1 Bft) W-NW 292 ° 0,000 mm 10,1 °C 18,5 °C 3,2 km/h (1 Bft) 100,00 %
06.05.2026 10:21 18,5 °C 58 % 1008,6 hPa 0,0 l/m² 1,6 km/h (1 Bft) NW 315 ° 0,000 mm 10,1 °C 18,5 °C 3,2 km/h (1 Bft) 100,00 %
06.05.2026 10:20 18,4 °C 58 % 1008,6 hPa 0,0 l/m² 3,2 km/h (1 Bft) SW 225 ° 0,000 mm 10,0 °C 18,4 °C 3,2 km/h (1 Bft) 100,00 %
06.05.2026 10:19 18,4 °C 58 % 1008,6 hPa 0,0 l/m² 1,6 km/h (1 Bft) W-NW 292 ° 0,000 mm 10,0 °C 18,4 °C 3,2 km/h (1 Bft) 100,00 %
06.05.2026 10:18 18,3 °C 58 % 1008,7 hPa 0,0 l/m² 1,6 km/h (1 Bft) W-NW 292 ° 0,000 mm 9,9 °C 18,3 °C 1,6 km/h (1 Bft) 100,00 %
06.05.2026 10:17 18,3 °C 57 % 1008,7 hPa 0,0 l/m² 1,6 km/h (1 Bft) W-NW 292 ° 0,000 mm 9,6 °C 18,3 °C 3,2 km/h (1 Bft) 100,00 %
06.05.2026 10:16 18,3 °C 58 % 1008,7 hPa 0,0 l/m² 3,2 km/h (1 Bft) W 270 ° 0,000 mm 9,9 °C 18,3 °C 4,8 km/h (1 Bft) 100,00 %
06.05.2026 10:15 18,3 °C 58 % 1008,7 hPa 0,0 l/m² 1,6 km/h (1 Bft) W 270 ° 0,000 mm 9,9 °C 18,3 °C 3,2 km/h (1 Bft) 95,65 %
06.05.2026 10:14 18,3 °C 58 % 1008,6 hPa 0,0 l/m² 4,8 km/h (1 Bft) N-NW 337 ° 0,000 mm 9,9 °C 18,3 °C 8,0 km/h (2 Bft) 100,00 %
06.05.2026 10:13 18,3 °C 58 % 1008,7 hPa 0,0 l/m² 1,6 km/h (1 Bft) NW 315 ° 0,000 mm 9,9 °C 18,3 °C 6,4 km/h (2 Bft) 100,00 %
06.05.2026 10:12 18,3 °C 58 % 1008,5 hPa 0,0 l/m² 4,8 km/h (1 Bft) NW 315 ° 0,000 mm 9,9 °C 18,3 °C 8,0 km/h (2 Bft) 95,65 %
06.05.2026 10:11 18,3 °C 59 % 1008,6 hPa 0,0 l/m² 3,2 km/h (1 Bft) W 270 ° 0,000 mm 10,1 °C 18,3 °C 8,0 km/h (2 Bft) 100,00 %
06.05.2026 10:10 18,2 °C 58 % 1008,6 hPa 0,0 l/m² 0,0 km/h (0 Bft) N 0 ° 0,000 mm 9,8 °C 18,2 °C 0,0 km/h (0 Bft) 100,00 %
06.05.2026 10:09 18,3 °C 58 % 1008,6 hPa 0,0 l/m² 3,2 km/h (1 Bft) N-NO 22 ° 0,000 mm 9,9 °C 18,3 °C 4,8 km/h (1 Bft) 100,00 %
06.05.2026 10:08 18,4 °C 59 % 1008,6 hPa 0,0 l/m² 3,2 km/h (1 Bft) W-NW 292 ° 0,000 mm 10,2 °C 18,4 °C 4,8 km/h (1 Bft) 100,00 %
06.05.2026 10:07 18,4 °C 59 % 1008,6 hPa 0,0 l/m² 1,6 km/h (1 Bft) W 270 ° 0,000 mm 10,2 °C 18,4 °C 3,2 km/h (1 Bft) 100,00 %
06.05.2026 10:06 18,4 °C 58 % 1008,6 hPa 0,0 l/m² 4,8 km/h (1 Bft) NO 45 ° 0,000 mm 10,0 °C 18,4 °C 8,0 km/h (2 Bft) 100,00 %
06.05.2026 10:05 18,5 °C 58 % 1008,7 hPa 0,0 l/m² 3,2 km/h (1 Bft) S-SW 202 ° 0,000 mm 10,1 °C 18,5 °C 6,4 km/h (2 Bft) 100,00 %
06.05.2026 10:04 18,5 °C 58 % 1008,7 hPa 0,0 l/m² 4,8 km/h (1 Bft) N-NW 337 ° 0,000 mm 10,1 °C 18,5 °C 8,0 km/h (2 Bft) 100,00 %
06.05.2026 10:03 18,4 °C 58 % 1008,6 hPa 0,0 l/m² 1,6 km/h (1 Bft) SW 225 ° 0,000 mm 10,0 °C 18,4 °C 1,6 km/h (1 Bft) 100,00 %
06.05.2026 10:02 18,3 °C 59 % 1008,7 hPa 0,0 l/m² 1,6 km/h (1 Bft) SW 225 ° 0,000 mm 10,1 °C 18,3 °C 4,8 km/h (1 Bft) 100,00 %
06.05.2026 10:01 18,2 °C 59 % 1008,6 hPa 0,0 l/m² 0,0 km/h (0 Bft) W 270 ° 0,000 mm 10,1 °C 18,2 °C 1,6 km/h (1 Bft) 95,65 %
06.05.2026 10:00 18,1 °C 59 % 1008,6 hPa 0,0 l/m² 0,0 km/h (0 Bft) W-NW 292 ° 0,000 mm 10,0 °C 18,1 °C 1,6 km/h (1 Bft) 100,00 %
06.05.2026 09:59 18,1 °C 59 % 1008,7 hPa 0,0 l/m² 1,6 km/h (1 Bft) W-NW 292 ° 0,000 mm 10,0 °C 18,1 °C 3,2 km/h (1 Bft) 100,00 %
06.05.2026 09:58 18,1 °C 59 % 1008,7 hPa 0,0 l/m² 1,6 km/h (1 Bft) W-NW 292 ° 0,000 mm 10,0 °C 18,1 °C 3,2 km/h (1 Bft) 100,00 %
06.05.2026 09:57 18,2 °C 59 % 1008,7 hPa 0,0 l/m² 1,6 km/h (1 Bft) W-NW 292 ° 0,000 mm 10,1 °C 18,2 °C 3,2 km/h (1 Bft) 100,00 %
06.05.2026 09:56 18,1 °C 59 % 1008,7 hPa 0,0 l/m² 1,6 km/h (1 Bft) W-NW 292 ° 0,000 mm 10,0 °C 18,1 °C 3,2 km/h (1 Bft) 100,00 %
06.05.2026 09:55 18,1 °C 59 % 1008,7 hPa 0,0 l/m² 1,6 km/h (1 Bft) NW 315 ° 0,000 mm 10,0 °C 18,1 °C 4,8 km/h (1 Bft) 95,65 %
06.05.2026 09:54 18,1 °C 59 % 1008,7 hPa 0,0 l/m² 3,2 km/h (1 Bft) NW 315 ° 0,000 mm 10,0 °C 18,1 °C 4,8 km/h (1 Bft) 100,00 %
06.05.2026 09:53 18,1 °C 59 % 1008,8 hPa 0,0 l/m² 0,0 km/h (0 Bft) NW 315 ° 0,000 mm 10,0 °C 18,1 °C 3,2 km/h (1 Bft) 100,00 %
06.05.2026 09:52 18,0 °C 59 % 1008,8 hPa 0,0 l/m² 1,6 km/h (1 Bft) W-NW 292 ° 0,000 mm 9,9 °C 18,0 °C 1,6 km/h (1 Bft) 100,00 %
06.05.2026 09:51 17,9 °C 60 % 1008,8 hPa 0,0 l/m² 1,6 km/h (1 Bft) W-NW 292 ° 0,000 mm 10,0 °C 17,9 °C 3,2 km/h (1 Bft) 100,00 %
06.05.2026 09:50 17,9 °C 60 % 1008,8 hPa 0,0 l/m² 0,0 km/h (0 Bft) W-SW 247 ° 0,000 mm 10,0 °C 17,9 °C 1,6 km/h (1 Bft) 100,00 %
06.05.2026 09:49 17,9 °C 60 % 1008,9 hPa 0,0 l/m² 1,6 km/h (1 Bft) W-SW 247 ° 0,000 mm 10,0 °C 17,9 °C 3,2 km/h (1 Bft) 100,00 %
06.05.2026 09:48 17,8 °C 60 % 1008,9 hPa 0,0 l/m² 1,6 km/h (1 Bft) W-NW 292 ° 0,000 mm 9,9 °C 17,8 °C 4,8 km/h (1 Bft) 100,00 %
06.05.2026 09:47 17,8 °C 60 % 1008,9 hPa 0,0 l/m² 3,2 km/h (1 Bft) NW 315 ° 0,000 mm 9,9 °C 17,8 °C 8,0 km/h (2 Bft) 100,00 %
06.05.2026 09:46 17,9 °C 60 % 1008,8 hPa 0,0 l/m² 3,2 km/h (1 Bft) NO 45 ° 0,000 mm 10,0 °C 17,9 °C 6,4 km/h (2 Bft) 100,00 %
06.05.2026 09:45 17,9 °C 60 % 1008,9 hPa 0,0 l/m² 0,0 km/h (0 Bft) W-NW 292 ° 0,000 mm 10,0 °C 17,9 °C 1,6 km/h (1 Bft) 100,00 %
06.05.2026 09:44 17,9 °C 60 % 1008,9 hPa 0,0 l/m² 3,2 km/h (1 Bft) W-NW 292 ° 0,000 mm 10,0 °C 17,9 °C 4,8 km/h (1 Bft) 100,00 %
06.05.2026 09:43 18,1 °C 60 % 1008,9 hPa 0,0 l/m² 1,6 km/h (1 Bft) W-NW 292 ° 0,000 mm 10,2 °C 18,1 °C 3,2 km/h (1 Bft) 100,00 %
06.05.2026 09:42 18,1 °C 60 % 1008,9 hPa 0,0 l/m² 1,6 km/h (1 Bft) W-NW 292 ° 0,000 mm 10,2 °C 18,1 °C 4,8 km/h (1 Bft) 100,00 %
06.05.2026 09:41 18,0 °C 60 % 1009,0 hPa 0,0 l/m² 0,0 km/h (0 Bft) W 270 ° 0,000 mm 10,1 °C 18,0 °C 1,6 km/h (1 Bft) 100,00 %
06.05.2026 09:40 17,9 °C 60 % 1009,0 hPa 0,0 l/m² 0,0 km/h (0 Bft) W 270 ° 0,000 mm 10,0 °C 17,9 °C 1,6 km/h (1 Bft) 100,00 %
06.05.2026 09:39 17,8 °C 61 % 1009,0 hPa 0,0 l/m² 0,0 km/h (0 Bft) N 0 ° 0,000 mm 10,2 °C 17,8 °C 0,0 km/h (0 Bft) 100,00 %
06.05.2026 09:38 17,6 °C 61 % 1009,0 hPa 0,0 l/m² 0,0 km/h (0 Bft) N 0 ° 0,000 mm 10,0 °C 17,6 °C 0,0 km/h (0 Bft) 100,00 %
06.05.2026 09:37 17,6 °C 61 % 1009,1 hPa 0,0 l/m² 0,0 km/h (0 Bft) N 0 ° 0,000 mm 10,0 °C 17,6 °C 0,0 km/h (0 Bft) 100,00 %
06.05.2026 09:36 17,4 °C 61 % 1008,9 hPa 0,0 l/m² 0,0 km/h (0 Bft) W 270 ° 0,000 mm 9,8 °C 17,4 °C 1,6 km/h (1 Bft) 100,00 %
06.05.2026 09:35 17,4 °C 61 % 1008,9 hPa 0,0 l/m² 1,6 km/h (1 Bft) W 270 ° 0,000 mm 9,8 °C 17,4 °C 3,2 km/h (1 Bft) 100,00 %
06.05.2026 09:34 17,3 °C 61 % 1008,9 hPa 0,0 l/m² 0,0 km/h (0 Bft) W 270 ° 0,000 mm 9,7 °C 17,3 °C 1,6 km/h (1 Bft) 100,00 %
06.05.2026 09:33 17,3 °C 61 % 1008,9 hPa 0,0 l/m² 0,0 km/h (0 Bft) N 0 ° 0,000 mm 9,7 °C 17,3 °C 0,0 km/h (0 Bft) 100,00 %
06.05.2026 09:32 17,2 °C 61 % 1009,0 hPa 0,0 l/m² 0,0 km/h (0 Bft) W 270 ° 0,000 mm 9,6 °C 17,2 °C 1,6 km/h (1 Bft) 100,00 %
06.05.2026 09:31 17,1 °C 61 % 1009,0 hPa 0,0 l/m² 0,0 km/h (0 Bft) N 0 ° 0,000 mm 9,5 °C 17,1 °C 0,0 km/h (0 Bft) 100,00 %
06.05.2026 09:30 17,1 °C 61 % 1009,0 hPa 0,0 l/m² 0,0 km/h (0 Bft) W-NW 292 ° 0,000 mm 9,5 °C 17,1 °C 1,6 km/h (1 Bft) 100,00 %
06.05.2026 09:29 17,1 °C 61 % 1008,9 hPa 0,0 l/m² 1,6 km/h (1 Bft) NW 315 ° 0,000 mm 9,5 °C 17,1 °C 3,2 km/h (1 Bft) 100,00 %
06.05.2026 09:28 17,1 °C 61 % 1008,9 hPa 0,0 l/m² 1,6 km/h (1 Bft) NW 315 ° 0,000 mm 9,5 °C 17,1 °C 3,2 km/h (1 Bft) 100,00 %
06.05.2026 09:27 17,1 °C 62 % 1008,9 hPa 0,0 l/m² 1,6 km/h (1 Bft) N-NW 337 ° 0,000 mm 9,8 °C 17,1 °C 3,2 km/h (1 Bft) 100,00 %
06.05.2026 09:26 17,0 °C 62 % 1008,9 hPa 0,0 l/m² 1,6 km/h (1 Bft) W-NW 292 ° 0,000 mm 9,7 °C 17,0 °C 3,2 km/h (1 Bft) 100,00 %
06.05.2026 09:25 17,1 °C 62 % 1008,9 hPa 0,0 l/m² 3,2 km/h (1 Bft) W-NW 292 ° 0,000 mm 9,8 °C 17,1 °C 6,4 km/h (2 Bft) 100,00 %
06.05.2026 09:24 17,1 °C 62 % 1008,9 hPa 0,0 l/m² 1,6 km/h (1 Bft) W-NW 292 ° 0,000 mm 9,8 °C 17,1 °C 4,8 km/h (1 Bft) 100,00 %
06.05.2026 09:23 17,1 °C 63 % 1008,9 hPa 0,0 l/m² 3,2 km/h (1 Bft) W-NW 292 ° 0,000 mm 10,0 °C 17,1 °C 4,8 km/h (1 Bft) 100,00 %
06.05.2026 09:22 16,9 °C 63 % 1008,8 hPa 0,0 l/m² 0,0 km/h (0 Bft) W 270 ° 0,000 mm 9,8 °C 16,9 °C 3,2 km/h (1 Bft) 95,65 %
06.05.2026 09:21 16,8 °C 62 % 1008,8 hPa 0,0 l/m² 1,6 km/h (1 Bft) W-NW 292 ° 0,000 mm 9,5 °C 16,8 °C 1,6 km/h (1 Bft) 100,00 %
06.05.2026 09:20 16,8 °C 63 % 1008,9 hPa 0,0 l/m² 1,6 km/h (1 Bft) W-NW 292 ° 0,000 mm 9,7 °C 16,8 °C 3,2 km/h (1 Bft) 100,00 %
06.05.2026 09:19 16,9 °C 62 % 1009,0 hPa 0,0 l/m² 3,2 km/h (1 Bft) N-NW 337 ° 0,000 mm 9,6 °C 16,9 °C 3,2 km/h (1 Bft) 100,00 %
06.05.2026 09:18 16,9 °C 63 % 1009,0 hPa 0,0 l/m² 3,2 km/h (1 Bft) NW 315 ° 0,000 mm 9,8 °C 16,9 °C 4,8 km/h (1 Bft) 100,00 %
06.05.2026 09:17 16,8 °C 64 % 1009,1 hPa 0,0 l/m² 0,0 km/h (0 Bft) W-NW 292 ° 0,000 mm 10,0 °C 16,8 °C 3,2 km/h (1 Bft) 100,00 %
06.05.2026 09:16 16,8 °C 64 % 1009,1 hPa 0,0 l/m² 0,0 km/h (0 Bft) W-NW 292 ° 0,000 mm 10,0 °C 16,8 °C 1,6 km/h (1 Bft) 100,00 %
06.05.2026 09:15 16,8 °C 64 % 1009,2 hPa 0,0 l/m² 1,6 km/h (1 Bft) NW 315 ° 0,000 mm 10,0 °C 16,8 °C 3,2 km/h (1 Bft) 95,65 %
06.05.2026 09:14 16,8 °C 64 % 1009,3 hPa 0,0 l/m² 1,6 km/h (1 Bft) W-NW 292 ° 0,000 mm 10,0 °C 16,8 °C 3,2 km/h (1 Bft) 100,00 %
06.05.2026 09:13 16,8 °C 66 % 1009,2 hPa 0,0 l/m² 3,2 km/h (1 Bft) NW 315 ° 0,000 mm 10,4 °C 16,8 °C 3,2 km/h (1 Bft) 100,00 %
06.05.2026 09:12 16,8 °C 66 % 1009,3 hPa 0,0 l/m² 1,6 km/h (1 Bft) W 270 ° 0,000 mm 10,4 °C 16,8 °C 1,6 km/h (1 Bft) 100,00 %
06.05.2026 09:11 16,8 °C 65 % 1009,2 hPa 0,0 l/m² 3,2 km/h (1 Bft) W-NW 292 ° 0,000 mm 10,2 °C 16,8 °C 4,8 km/h (1 Bft) 95,65 %
06.05.2026 09:10 16,8 °C 65 % 1009,2 hPa 0,0 l/m² 0,0 km/h (0 Bft) W-NW 292 ° 0,000 mm 10,2 °C 16,8 °C 1,6 km/h (1 Bft) 95,65 %
06.05.2026 09:09 16,9 °C 65 % 1009,3 hPa 0,0 l/m² 0,0 km/h (0 Bft) N 0 ° 0,000 mm 10,3 °C 16,9 °C 0,0 km/h (0 Bft) 100,00 %
06.05.2026 09:08 16,9 °C 64 % 1009,2 hPa 0,0 l/m² 1,6 km/h (1 Bft) NW 315 ° 0,000 mm 10,0 °C 16,9 °C 4,8 km/h (1 Bft) 100,00 %
06.05.2026 09:07 16,9 °C 67 % 1009,3 hPa 0,0 l/m² 1,6 km/h (1 Bft) W 270 ° 0,000 mm 10,7 °C 16,9 °C 3,2 km/h (1 Bft) 100,00 %
06.05.2026 09:06 16,9 °C 67 % 1009,3 hPa 0,0 l/m² 0,0 km/h (0 Bft) W 270 ° 0,000 mm 10,7 °C 16,9 °C 1,6 km/h (1 Bft) 100,00 %
06.05.2026 09:05 16,8 °C 67 % 1009,2 hPa 0,0 l/m² 0,0 km/h (0 Bft) W 270 ° 0,000 mm 10,6 °C 16,8 °C 1,6 km/h (1 Bft) 100,00 %
06.05.2026 09:04 16,7 °C 68 % 1009,3 hPa 0,0 l/m² 0,0 km/h (0 Bft) W 270 ° 0,000 mm 10,8 °C 16,7 °C 1,6 km/h (1 Bft) 100,00 %
06.05.2026 09:03 16,6 °C 68 % 1009,3 hPa 0,0 l/m² 0,0 km/h (0 Bft) N 0 ° 0,000 mm 10,7 °C 16,6 °C 0,0 km/h (0 Bft) 100,00 %
06.05.2026 09:02 16,5 °C 68 % 1009,3 hPa 0,0 l/m² 0,0 km/h (0 Bft) W 270 ° 0,000 mm 10,6 °C 16,5 °C 1,6 km/h (1 Bft) 95,65 %
06.05.2026 09:01 16,4 °C 68 % 1009,3 hPa 0,0 l/m² 0,0 km/h (0 Bft) W-SW 247 ° 0,000 mm 10,5 °C 16,4 °C 3,2 km/h (1 Bft) 100,00 %
06.05.2026 09:00 16,3 °C 69 % 1009,2 hPa 0,0 l/m² 0,0 km/h (0 Bft) W 270 ° 0,000 mm 10,6 °C 16,3 °C 1,6 km/h (1 Bft) 100,00 %
06.05.2026 08:59 16,2 °C 69 % 1009,3 hPa 0,0 l/m² 0,0 km/h (0 Bft) N 0 ° 0,000 mm 10,5 °C 16,2 °C 0,0 km/h (0 Bft) 100,00 %
06.05.2026 08:58 16,1 °C 69 % 1009,3 hPa 0,0 l/m² 0,0 km/h (0 Bft) W 270 ° 0,000 mm 10,4 °C 16,1 °C 1,6 km/h (1 Bft) 100,00 %
06.05.2026 08:57 16,0 °C 70 % 1009,3 hPa 0,0 l/m² 0,0 km/h (0 Bft) W 270 ° 0,000 mm 10,5 °C 16,0 °C 1,6 km/h (1 Bft) 100,00 %
06.05.2026 08:56 15,8 °C 71 % 1009,2 hPa 0,0 l/m² 0,0 km/h (0 Bft) W-NW 292 ° 0,000 mm 10,6 °C 15,8 °C 1,6 km/h (1 Bft) 100,00 %
06.05.2026 08:55 15,7 °C 70 % 1009,4 hPa 0,0 l/m² 1,6 km/h (1 Bft) W-NW 292 ° 0,000 mm 10,2 °C 15,7 °C 1,6 km/h (1 Bft) 100,00 %
06.05.2026 08:54 15,7 °C 71 % 1009,3 hPa 0,0 l/m² 0,0 km/h (0 Bft) N 0 ° 0,000 mm 10,5 °C 15,7 °C 0,0 km/h (0 Bft) 100,00 %
06.05.2026 08:53 15,6 °C 71 % 1009,4 hPa 0,0 l/m² 0,0 km/h (0 Bft) N 0 ° 0,000 mm 10,4 °C 15,6 °C 0,0 km/h (0 Bft) 100,00 %
06.05.2026 08:52 15,5 °C 71 % 1009,4 hPa 0,0 l/m² 0,0 km/h (0 Bft) N 0 ° 0,000 mm 10,3 °C 15,5 °C 0,0 km/h (0 Bft) 100,00 %
06.05.2026 08:51 15,5 °C 71 % 1009,4 hPa 0,0 l/m² 0,0 km/h (0 Bft) N 0 ° 0,000 mm 10,3 °C 15,5 °C 0,0 km/h (0 Bft) 95,65 %
06.05.2026 08:50 15,4 °C 71 % 1009,3 hPa 0,0 l/m² 0,0 km/h (0 Bft) N 0 ° 0,000 mm 10,2 °C 15,4 °C 0,0 km/h (0 Bft) 100,00 %
06.05.2026 08:49 15,4 °C 71 % 1009,3 hPa 0,0 l/m² 0,0 km/h (0 Bft) N 0 ° 0,000 mm 10,2 °C 15,4 °C 0,0 km/h (0 Bft) 100,00 %
06.05.2026 08:48 15,4 °C 71 % 1009,3 hPa 0,0 l/m² 0,0 km/h (0 Bft) N 0 ° 0,000 mm 10,2 °C 15,4 °C 0,0 km/h (0 Bft) 100,00 %
06.05.2026 08:47 15,4 °C 71 % 1009,2 hPa 0,0 l/m² 0,0 km/h (0 Bft) N 0 ° 0,000 mm 10,2 °C 15,4 °C 0,0 km/h (0 Bft) 100,00 %
06.05.2026 08:46 15,4 °C 71 % 1009,3 hPa 0,0 l/m² 0,0 km/h (0 Bft) N 360 ° 0,000 mm 10,2 °C 15,4 °C 1,6 km/h (1 Bft) 95,65 %
06.05.2026 08:45 15,5 °C 72 % 1009,2 hPa 0,0 l/m² 0,0 km/h (0 Bft) N 0 ° 0,000 mm 10,5 °C 15,5 °C 0,0 km/h (0 Bft) 100,00 %
06.05.2026 08:44 15,5 °C 72 % 1009,2 hPa 0,0 l/m² 0,0 km/h (0 Bft) N 0 ° 0,000 mm 10,5 °C 15,5 °C 0,0 km/h (0 Bft) 100,00 %
06.05.2026 08:43 15,5 °C 72 % 1009,2 hPa 0,0 l/m² 0,0 km/h (0 Bft) W 270 ° 0,000 mm 10,5 °C 15,5 °C 3,2 km/h (1 Bft) 100,00 %
06.05.2026 08:42 15,5 °C 72 % 1009,2 hPa 0,0 l/m² 1,6 km/h (1 Bft) W 270 ° 0,000 mm 10,5 °C 15,5 °C 1,6 km/h (1 Bft) 100,00 %
06.05.2026 08:41 15,4 °C 72 % 1009,2 hPa 0,0 l/m² 0,0 km/h (0 Bft) N 0 ° 0,000 mm 10,4 °C 15,4 °C 0,0 km/h (0 Bft) 100,00 %
06.05.2026 08:40 15,4 °C 72 % 1009,2 hPa 0,0 l/m² 0,0 km/h (0 Bft) N 0 ° 0,000 mm 10,4 °C 15,4 °C 0,0 km/h (0 Bft) 100,00 %
06.05.2026 08:39 15,3 °C 72 % 1009,3 hPa 0,0 l/m² 0,0 km/h (0 Bft) W 270 ° 0,000 mm 10,3 °C 15,3 °C 1,6 km/h (1 Bft) 100,00 %
06.05.2026 08:38 15,3 °C 71 % 1009,3 hPa 0,0 l/m² 0,0 km/h (0 Bft) W 270 ° 0,000 mm 10,1 °C 15,3 °C 1,6 km/h (1 Bft) 100,00 %
06.05.2026 08:37 15,3 °C 71 % 1009,2 hPa 0,0 l/m² 1,6 km/h (1 Bft) W 270 ° 0,000 mm 10,1 °C 15,3 °C 1,6 km/h (1 Bft) 100,00 %
06.05.2026 08:36 15,3 °C 71 % 1009,2 hPa 0,0 l/m² 1,6 km/h (1 Bft) W 270 ° 0,000 mm 10,1 °C 15,3 °C 3,2 km/h (1 Bft) 100,00 %
06.05.2026 08:35 15,3 °C 71 % 1009,3 hPa 0,0 l/m² 0,0 km/h (0 Bft) W-NW 292 ° 0,000 mm 10,1 °C 15,3 °C 1,6 km/h (1 Bft) 100,00 %
06.05.2026 08:34 15,3 °C 71 % 1009,3 hPa 0,0 l/m² 1,6 km/h (1 Bft) W-NW 292 ° 0,000 mm 10,1 °C 15,3 °C 1,6 km/h (1 Bft) 100,00 %
06.05.2026 08:33 15,3 °C 70 % 1009,5 hPa 0,0 l/m² 1,6 km/h (1 Bft) W-NW 292 ° 0,000 mm 9,9 °C 15,3 °C 3,2 km/h (1 Bft) 100,00 %
06.05.2026 08:32 15,3 °C 71 % 1009,4 hPa 0,0 l/m² 0,0 km/h (0 Bft) W 270 ° 0,000 mm 10,1 °C 15,3 °C 3,2 km/h (1 Bft) 100,00 %
06.05.2026 08:31 15,3 °C 71 % 1009,5 hPa 0,0 l/m² 0,0 km/h (0 Bft) W 270 ° 0,000 mm 10,1 °C 15,3 °C 1,6 km/h (1 Bft) 100,00 %
06.05.2026 08:30 15,3 °C 71 % 1009,4 hPa 0,0 l/m² 0,0 km/h (0 Bft) W 270 ° 0,000 mm 10,1 °C 15,3 °C 1,6 km/h (1 Bft) 100,00 %
06.05.2026 08:29 15,3 °C 71 % 1009,4 hPa 0,0 l/m² 0,0 km/h (0 Bft) W 270 ° 0,000 mm 10,1 °C 15,3 °C 1,6 km/h (1 Bft) 100,00 %
06.05.2026 08:28 15,3 °C 71 % 1009,4 hPa 0,0 l/m² 1,6 km/h (1 Bft) W 270 ° 0,000 mm 10,1 °C 15,3 °C 1,6 km/h (1 Bft) 100,00 %
06.05.2026 08:27 15,3 °C 71 % 1009,4 hPa 0,0 l/m² 1,6 km/h (1 Bft) W 270 ° 0,000 mm 10,1 °C 15,3 °C 1,6 km/h (1 Bft) 100,00 %
06.05.2026 08:26 15,4 °C 71 % 1009,4 hPa 0,0 l/m² 0,0 km/h (0 Bft) W 270 ° 0,000 mm 10,2 °C 15,4 °C 1,6 km/h (1 Bft) 95,65 %
06.05.2026 08:25 15,4 °C 71 % 1009,4 hPa 0,0 l/m² 0,0 km/h (0 Bft) W 270 ° 0,000 mm 10,2 °C 15,4 °C 1,6 km/h (1 Bft) 100,00 %
06.05.2026 08:24 15,3 °C 70 % 1009,4 hPa 0,0 l/m² 0,0 km/h (0 Bft) W 270 ° 0,000 mm 9,9 °C 15,3 °C 1,6 km/h (1 Bft) 95,65 %
06.05.2026 08:23 15,3 °C 70 % 1009,3 hPa 0,0 l/m² 0,0 km/h (0 Bft) N 0 ° 0,000 mm 9,9 °C 15,3 °C 0,0 km/h (0 Bft) 100,00 %
06.05.2026 08:22 15,3 °C 70 % 1009,4 hPa 0,0 l/m² 0,0 km/h (0 Bft) N 0 ° 0,000 mm 9,9 °C 15,3 °C 0,0 km/h (0 Bft) 100,00 %
06.05.2026 08:21 15,3 °C 70 % 1009,4 hPa 0,0 l/m² 1,6 km/h (1 Bft) W 270 ° 0,000 mm 9,9 °C 15,3 °C 1,6 km/h (1 Bft) 100,00 %
06.05.2026 08:20 15,3 °C 71 % 1009,4 hPa 0,0 l/m² 0,0 km/h (0 Bft) W 270 ° 0,000 mm 10,1 °C 15,3 °C 1,6 km/h (1 Bft) 100,00 %
06.05.2026 08:19 15,2 °C 70 % 1009,4 hPa 0,0 l/m² 0,0 km/h (0 Bft) W 270 ° 0,000 mm 9,8 °C 15,2 °C 1,6 km/h (1 Bft) 100,00 %
06.05.2026 08:18 15,2 °C 70 % 1009,4 hPa 0,0 l/m² 0,0 km/h (0 Bft) W 270 ° 0,000 mm 9,8 °C 15,2 °C 1,6 km/h (1 Bft) 100,00 %
06.05.2026 08:17 15,2 °C 70 % 1009,4 hPa 0,0 l/m² 0,0 km/h (0 Bft) W 270 ° 0,000 mm 9,8 °C 15,2 °C 1,6 km/h (1 Bft) 95,65 %
06.05.2026 08:16 15,2 °C 70 % 1009,4 hPa 0,0 l/m² 0,0 km/h (0 Bft) W 270 ° 0,000 mm 9,8 °C 15,2 °C 1,6 km/h (1 Bft) 100,00 %
06.05.2026 08:15 15,1 °C 71 % 1009,4 hPa 0,0 l/m² 0,0 km/h (0 Bft) N 0 ° 0,000 mm 9,9 °C 15,1 °C 0,0 km/h (0 Bft) 100,00 %
06.05.2026 08:14 15,1 °C 71 % 1009,5 hPa 0,0 l/m² 0,0 km/h (0 Bft) N 0 ° 0,000 mm 9,9 °C 15,1 °C 0,0 km/h (0 Bft) 100,00 %
06.05.2026 08:13 15,1 °C 71 % 1009,7 hPa 0,0 l/m² 0,0 km/h (0 Bft) N 0 ° 0,000 mm 9,9 °C 15,1 °C 0,0 km/h (0 Bft) 100,00 %
06.05.2026 08:12 15,0 °C 71 % 1009,6 hPa 0,0 l/m² 0,0 km/h (0 Bft) N 0 ° 0,000 mm 9,8 °C 15,0 °C 0,0 km/h (0 Bft) 100,00 %
06.05.2026 08:11 14,9 °C 71 % 1009,6 hPa 0,0 l/m² 0,0 km/h (0 Bft) W 270 ° 0,000 mm 9,7 °C 14,9 °C 1,6 km/h (1 Bft) 100,00 %
06.05.2026 08:10 14,9 °C 71 % 1009,5 hPa 0,0 l/m² 0,0 km/h (0 Bft) W 270 ° 0,000 mm 9,7 °C 14,9 °C 1,6 km/h (1 Bft) 100,00 %
06.05.2026 08:09 14,9 °C 72 % 1009,6 hPa 0,0 l/m² 0,0 km/h (0 Bft) N 0 ° 0,000 mm 9,9 °C 14,9 °C 0,0 km/h (0 Bft) 100,00 %
06.05.2026 08:08 14,9 °C 72 % 1009,7 hPa 0,0 l/m² 0,0 km/h (0 Bft) W 270 ° 0,000 mm 9,9 °C 14,9 °C 1,6 km/h (1 Bft) 100,00 %
06.05.2026 08:07 14,9 °C 71 % 1009,7 hPa 0,0 l/m² 1,6 km/h (1 Bft) W 270 ° 0,000 mm 9,7 °C 14,9 °C 1,6 km/h (1 Bft) 100,00 %
06.05.2026 08:06 14,9 °C 71 % 1009,6 hPa 0,0 l/m² 1,6 km/h (1 Bft) W 270 ° 0,000 mm 9,7 °C 14,9 °C 3,2 km/h (1 Bft) 100,00 %
06.05.2026 08:05 14,9 °C 72 % 1009,6 hPa 0,0 l/m² 1,6 km/h (1 Bft) W-NW 292 ° 0,000 mm 9,9 °C 14,9 °C 3,2 km/h (1 Bft) 100,00 %
06.05.2026 08:04 14,8 °C 72 % 1009,7 hPa 0,0 l/m² 1,6 km/h (1 Bft) W-NW 292 ° 0,000 mm 9,8 °C 14,8 °C 3,2 km/h (1 Bft) 95,65 %
06.05.2026 08:03 14,8 °C 72 % 1009,6 hPa 0,0 l/m² 1,6 km/h (1 Bft) W-NW 292 ° 0,000 mm 9,8 °C 14,8 °C 3,2 km/h (1 Bft) 100,00 %
06.05.2026 08:02 14,8 °C 72 % 1009,6 hPa 0,0 l/m² 0,0 km/h (0 Bft) W-NW 292 ° 0,000 mm 9,8 °C 14,8 °C 1,6 km/h (1 Bft) 95,65 %
06.05.2026 08:01 14,8 °C 72 % 1009,6 hPa 0,0 l/m² 1,6 km/h (1 Bft) W-SW 247 ° 0,000 mm 9,8 °C 14,8 °C 3,2 km/h (1 Bft) 100,00 %
06.05.2026 08:00 14,7 °C 72 % 1009,6 hPa 0,0 l/m² 0,0 km/h (0 Bft) W-SW 247 ° 0,000 mm 9,7 °C 14,7 °C 1,6 km/h (1 Bft) 100,00 %
06.05.2026 07:59 14,7 °C 72 % 1009,6 hPa 0,0 l/m² 0,0 km/h (0 Bft) W-SW 247 ° 0,000 mm 9,7 °C 14,7 °C 1,6 km/h (1 Bft) 100,00 %
06.05.2026 07:58 14,6 °C 72 % 1009,7 hPa 0,0 l/m² 1,6 km/h (1 Bft) W-SW 247 ° 0,000 mm 9,6 °C 14,6 °C 1,6 km/h (1 Bft) 95,65 %
06.05.2026 07:57 14,7 °C 72 % 1009,6 hPa 0,0 l/m² 0,0 km/h (0 Bft) W-SW 247 ° 0,000 mm 9,7 °C 14,7 °C 1,6 km/h (1 Bft) 95,65 %
06.05.2026 07:56 14,6 °C 71 % 1009,5 hPa 0,0 l/m² 0,0 km/h (0 Bft) W-SW 247 ° 0,000 mm 9,4 °C 14,6 °C 1,6 km/h (1 Bft) 100,00 %
06.05.2026 07:55 14,7 °C 71 % 1009,6 hPa 0,0 l/m² 1,6 km/h (1 Bft) W-SW 247 ° 0,000 mm 9,5 °C 14,7 °C 1,6 km/h (1 Bft) 100,00 %
06.05.2026 07:54 14,7 °C 71 % 1009,6 hPa 0,0 l/m² 1,6 km/h (1 Bft) W-SW 247 ° 0,000 mm 9,5 °C 14,7 °C 1,6 km/h (1 Bft) 100,00 %
06.05.2026 07:53 14,8 °C 71 % 1009,7 hPa 0,0 l/m² 1,6 km/h (1 Bft) W-SW 247 ° 0,000 mm 9,6 °C 14,8 °C 1,6 km/h (1 Bft) 100,00 %
06.05.2026 07:52 14,8 °C 71 % 1009,6 hPa 0,0 l/m² 1,6 km/h (1 Bft) W-SW 247 ° 0,000 mm 9,6 °C 14,8 °C 1,6 km/h (1 Bft) 100,00 %
06.05.2026 07:51 14,8 °C 70 % 1009,5 hPa 0,0 l/m² 0,0 km/h (0 Bft) W-SW 247 ° 0,000 mm 9,4 °C 14,8 °C 1,6 km/h (1 Bft) 95,65 %
06.05.2026 07:50 14,9 °C 70 % 1009,6 hPa 0,0 l/m² 1,6 km/h (1 Bft) W-SW 247 ° 0,000 mm 9,5 °C 14,9 °C 1,6 km/h (1 Bft) 100,00 %
06.05.2026 07:49 14,9 °C 70 % 1009,6 hPa 0,0 l/m² 0,0 km/h (0 Bft) N 0 ° 0,000 mm 9,5 °C 14,9 °C 0,0 km/h (0 Bft) 100,00 %
06.05.2026 07:48 15,0 °C 70 % 1009,6 hPa 0,0 l/m² 0,0 km/h (0 Bft) N 0 ° 0,000 mm 9,6 °C 15,0 °C 0,0 km/h (0 Bft) 95,65 %
06.05.2026 07:47 15,0 °C 70 % 1009,6 hPa 0,0 l/m² 0,0 km/h (0 Bft) N 0 ° 0,000 mm 9,6 °C 15,0 °C 0,0 km/h (0 Bft) 100,00 %
06.05.2026 07:46 15,1 °C 70 % 1009,6 hPa 0,0 l/m² 0,0 km/h (0 Bft) W-SW 247 ° 0,000 mm 9,7 °C 15,1 °C 1,6 km/h (1 Bft) 95,65 %
06.05.2026 07:45 15,1 °C 70 % 1009,6 hPa 0,0 l/m² 0,0 km/h (0 Bft) N 0 ° 0,000 mm 9,7 °C 15,1 °C 0,0 km/h (0 Bft) 100,00 %
06.05.2026 07:44 15,1 °C 70 % 1009,7 hPa 0,0 l/m² 0,0 km/h (0 Bft) N 0 ° 0,000 mm 9,7 °C 15,1 °C 0,0 km/h (0 Bft) 100,00 %
06.05.2026 07:43 15,1 °C 70 % 1009,6 hPa 0,0 l/m² 0,0 km/h (0 Bft) N 0 ° 0,000 mm 9,7 °C 15,1 °C 0,0 km/h (0 Bft) 100,00 %
06.05.2026 07:42 15,1 °C 70 % 1009,7 hPa 0,0 l/m² 0,0 km/h (0 Bft) N 0 ° 0,000 mm 9,7 °C 15,1 °C 0,0 km/h (0 Bft) 100,00 %
06.05.2026 07:41 15,1 °C 69 % 1009,7 hPa 0,0 l/m² 1,6 km/h (1 Bft) W-SW 247 ° 0,000 mm 9,5 °C 15,1 °C 1,6 km/h (1 Bft) 100,00 %
06.05.2026 07:40 15,2 °C 69 % 1009,6 hPa 0,0 l/m² 1,6 km/h (1 Bft) W-SW 247 ° 0,000 mm 9,6 °C 15,2 °C 1,6 km/h (1 Bft) 100,00 %
06.05.2026 07:39 15,2 °C 69 % 1009,7 hPa 0,0 l/m² 1,6 km/h (1 Bft) W-SW 247 ° 0,000 mm 9,6 °C 15,2 °C 3,2 km/h (1 Bft) 100,00 %
06.05.2026 07:38 15,2 °C 70 % 1009,7 hPa 0,0 l/m² 1,6 km/h (1 Bft) W-SW 247 ° 0,000 mm 9,8 °C 15,2 °C 3,2 km/h (1 Bft) 100,00 %
06.05.2026 07:37 15,3 °C 70 % 1009,6 hPa 0,0 l/m² 0,0 km/h (0 Bft) W-SW 247 ° 0,000 mm 9,9 °C 15,3 °C 1,6 km/h (1 Bft) 100,00 %
06.05.2026 07:36 15,3 °C 71 % 1009,7 hPa 0,0 l/m² 0,0 km/h (0 Bft) W-SW 247 ° 0,000 mm 10,1 °C 15,3 °C 1,6 km/h (1 Bft) 100,00 %
06.05.2026 07:35 15,3 °C 70 % 1009,7 hPa 0,0 l/m² 0,0 km/h (0 Bft) N 0 ° 0,000 mm 9,9 °C 15,3 °C 0,0 km/h (0 Bft) 100,00 %
06.05.2026 07:34 15,3 °C 70 % 1009,7 hPa 0,0 l/m² 0,0 km/h (0 Bft) W-SW 247 ° 0,000 mm 9,9 °C 15,3 °C 1,6 km/h (1 Bft) 100,00 %
06.05.2026 07:33 15,3 °C 70 % 1009,6 hPa 0,0 l/m² 0,0 km/h (0 Bft) W-SW 247 ° 0,000 mm 9,9 °C 15,3 °C 1,6 km/h (1 Bft) 95,65 %
06.05.2026 07:32 15,3 °C 71 % 1009,7 hPa 0,0 l/m² 0,0 km/h (0 Bft) W-SW 247 ° 0,000 mm 10,1 °C 15,3 °C 1,6 km/h (1 Bft) 100,00 %
06.05.2026 07:31 15,2 °C 71 % 1009,7 hPa 0,0 l/m² 0,0 km/h (0 Bft) W-SW 247 ° 0,000 mm 10,0 °C 15,2 °C 1,6 km/h (1 Bft) 95,65 %
06.05.2026 07:30 15,1 °C 72 % 1009,7 hPa 0,0 l/m² 0,0 km/h (0 Bft) W-SW 247 ° 0,000 mm 10,1 °C 15,1 °C 1,6 km/h (1 Bft) 100,00 %
06.05.2026 07:29 14,9 °C 73 % 1009,8 hPa 0,0 l/m² 0,0 km/h (0 Bft) W-SW 247 ° 0,000 mm 10,1 °C 14,9 °C 1,6 km/h (1 Bft) 100,00 %
06.05.2026 07:28 14,8 °C 73 % 1009,8 hPa 0,0 l/m² 0,0 km/h (0 Bft) N 0 ° 0,000 mm 10,0 °C 14,8 °C 0,0 km/h (0 Bft) 100,00 %
06.05.2026 07:27 14,7 °C 73 % 1009,7 hPa 0,0 l/m² 0,0 km/h (0 Bft) N 0 ° 0,000 mm 9,9 °C 14,7 °C 0,0 km/h (0 Bft) 100,00 %
06.05.2026 07:26 14,5 °C 74 % 1009,7 hPa 0,0 l/m² 0,0 km/h (0 Bft) N 0 ° 0,000 mm 9,9 °C 14,5 °C 0,0 km/h (0 Bft) 100,00 %
06.05.2026 07:25 14,4 °C 74 % 1009,7 hPa 0,0 l/m² 0,0 km/h (0 Bft) N 0 ° 0,000 mm 9,8 °C 14,4 °C 0,0 km/h (0 Bft) 100,00 %
06.05.2026 07:24 14,2 °C 75 % 1009,8 hPa 0,0 l/m² 0,0 km/h (0 Bft) N 0 ° 0,000 mm 9,8 °C 14,2 °C 0,0 km/h (0 Bft) 95,65 %
06.05.2026 07:23 14,1 °C 75 % 1009,8 hPa 0,0 l/m² 0,0 km/h (0 Bft) N 0 ° 0,000 mm 9,7 °C 14,1 °C 0,0 km/h (0 Bft) 100,00 %
06.05.2026 07:22 13,9 °C 75 % 1009,8 hPa 0,0 l/m² 0,0 km/h (0 Bft) N 0 ° 0,000 mm 9,5 °C 13,9 °C 0,0 km/h (0 Bft) 100,00 %
06.05.2026 07:21 13,8 °C 76 % 1009,8 hPa 0,0 l/m² 0,0 km/h (0 Bft) W-SW 247 ° 0,000 mm 9,6 °C 13,8 °C 1,6 km/h (1 Bft) 100,00 %
06.05.2026 07:20 13,7 °C 76 % 1009,8 hPa 0,0 l/m² 0,0 km/h (0 Bft) W-SW 247 ° 0,000 mm 9,5 °C 13,7 °C 1,6 km/h (1 Bft) 100,00 %
06.05.2026 07:19 13,6 °C 76 % 1009,7 hPa 0,0 l/m² 0,0 km/h (0 Bft) N 0 ° 0,000 mm 9,4 °C 13,6 °C 0,0 km/h (0 Bft) 100,00 %
06.05.2026 07:18 13,6 °C 76 % 1009,8 hPa 0,0 l/m² 0,0 km/h (0 Bft) W-SW 247 ° 0,000 mm 9,4 °C 13,6 °C 1,6 km/h (1 Bft) 100,00 %
06.05.2026 07:17 13,5 °C 76 % 1009,8 hPa 0,0 l/m² 0,0 km/h (0 Bft) N 0 ° 0,000 mm 9,4 °C 13,5 °C 0,0 km/h (0 Bft) 100,00 %
06.05.2026 07:16 13,4 °C 76 % 1009,7 hPa 0,0 l/m² 0,0 km/h (0 Bft) N 0 ° 0,000 mm 9,3 °C 13,4 °C 0,0 km/h (0 Bft) 95,65 %
06.05.2026 07:15 13,4 °C 76 % 1009,8 hPa 0,0 l/m² 0,0 km/h (0 Bft) W-SW 247 ° 0,000 mm 9,3 °C 13,4 °C 1,6 km/h (1 Bft) 100,00 %
06.05.2026 07:14 13,3 °C 76 % 1009,7 hPa 0,0 l/m² 0,0 km/h (0 Bft) W-SW 247 ° 0,000 mm 9,2 °C 13,3 °C 1,6 km/h (1 Bft) 100,00 %
06.05.2026 07:13 13,3 °C 76 % 1009,8 hPa 0,0 l/m² 1,6 km/h (1 Bft) W-SW 247 ° 0,000 mm 9,2 °C 13,3 °C 1,6 km/h (1 Bft) 100,00 %
06.05.2026 07:12 13,2 °C 75 % 1009,8 hPa 0,0 l/m² 0,0 km/h (0 Bft) W-SW 247 ° 0,000 mm 8,9 °C 13,2 °C 1,6 km/h (1 Bft) 100,00 %
06.05.2026 07:11 13,2 °C 76 % 1009,7 hPa 0,0 l/m² 0,0 km/h (0 Bft) N 0 ° 0,000 mm 9,1 °C 13,2 °C 0,0 km/h (0 Bft) 100,00 %
06.05.2026 07:10 13,2 °C 76 % 1009,8 hPa 0,0 l/m² 0,0 km/h (0 Bft) N 0 ° 0,000 mm 9,1 °C 13,2 °C 0,0 km/h (0 Bft) 100,00 %
06.05.2026 07:09 13,2 °C 76 % 1009,8 hPa 0,0 l/m² 1,6 km/h (1 Bft) W-SW 247 ° 0,000 mm 9,1 °C 13,2 °C 1,6 km/h (1 Bft) 100,00 %
06.05.2026 07:08 13,2 °C 76 % 1009,7 hPa 0,0 l/m² 1,6 km/h (1 Bft) W-SW 247 ° 0,000 mm 9,1 °C 13,2 °C 1,6 km/h (1 Bft) 100,00 %
06.05.2026 07:07 13,2 °C 75 % 1009,8 hPa 0,0 l/m² 1,6 km/h (1 Bft) W-SW 247 ° 0,000 mm 8,9 °C 13,2 °C 1,6 km/h (1 Bft) 100,00 %
06.05.2026 07:06 13,2 °C 75 % 1009,7 hPa 0,0 l/m² 1,6 km/h (1 Bft) W-SW 247 ° 0,000 mm 8,9 °C 13,2 °C 1,6 km/h (1 Bft) 100,00 %
06.05.2026 07:05 13,2 °C 75 % 1009,7 hPa 0,0 l/m² 0,0 km/h (0 Bft) W-SW 247 ° 0,000 mm 8,9 °C 13,2 °C 1,6 km/h (1 Bft) 95,65 %
06.05.2026 07:04 13,3 °C 75 % 1009,7 hPa 0,0 l/m² 0,0 km/h (0 Bft) N 0 ° 0,000 mm 9,0 °C 13,3 °C 0,0 km/h (0 Bft) 100,00 %
06.05.2026 07:03 13,3 °C 75 % 1009,7 hPa 0,0 l/m² 0,0 km/h (0 Bft) W-SW 247 ° 0,000 mm 9,0 °C 13,3 °C 1,6 km/h (1 Bft) 100,00 %
06.05.2026 07:02 13,4 °C 75 % 1009,8 hPa 0,0 l/m² 0,0 km/h (0 Bft) W-SW 247 ° 0,000 mm 9,1 °C 13,4 °C 1,6 km/h (1 Bft) 100,00 %
06.05.2026 07:01 13,4 °C 74 % 1009,8 hPa 0,0 l/m² 0,0 km/h (0 Bft) N 0 ° 0,000 mm 8,9 °C 13,4 °C 0,0 km/h (0 Bft) 100,00 %
06.05.2026 07:00 13,5 °C 74 % 1009,7 hPa 0,0 l/m² 0,0 km/h (0 Bft) N 0 ° 0,000 mm 9,0 °C 13,5 °C 0,0 km/h (0 Bft) 100,00 %
06.05.2026 06:59 13,5 °C 74 % 1009,6 hPa 0,0 l/m² 0,0 km/h (0 Bft) N 0 ° 0,000 mm 9,0 °C 13,5 °C 0,0 km/h (0 Bft) 100,00 %
06.05.2026 06:58 13,6 °C 74 % 1009,7 hPa 0,0 l/m² 0,0 km/h (0 Bft) N 0 ° 0,000 mm 9,1 °C 13,6 °C 0,0 km/h (0 Bft) 100,00 %
06.05.2026 06:57 13,6 °C 74 % 1009,7 hPa 0,0 l/m² 0,0 km/h (0 Bft) N 0 ° 0,000 mm 9,1 °C 13,6 °C 0,0 km/h (0 Bft) 100,00 %
06.05.2026 06:56 13,6 °C 73 % 1009,7 hPa 0,0 l/m² 0,0 km/h (0 Bft) N 0 ° 0,000 mm 8,9 °C 13,6 °C 0,0 km/h (0 Bft) 100,00 %
06.05.2026 06:55 13,7 °C 73 % 1009,7 hPa 0,0 l/m² 0,0 km/h (0 Bft) N 0 ° 0,000 mm 8,9 °C 13,7 °C 0,0 km/h (0 Bft) 100,00 %
06.05.2026 06:54 13,7 °C 73 % 1009,7 hPa 0,0 l/m² 0,0 km/h (0 Bft) N 0 ° 0,000 mm 8,9 °C 13,7 °C 0,0 km/h (0 Bft) 100,00 %
06.05.2026 06:53 13,7 °C 73 % 1009,7 hPa 0,0 l/m² 0,0 km/h (0 Bft) W-SW 247 ° 0,000 mm 8,9 °C 13,7 °C 1,6 km/h (1 Bft) 100,00 %
06.05.2026 06:52 13,8 °C 73 % 1009,7 hPa 0,0 l/m² 0,0 km/h (0 Bft) W-SW 247 ° 0,000 mm 9,0 °C 13,8 °C 1,6 km/h (1 Bft) 100,00 %
06.05.2026 06:51 13,9 °C 73 % 1009,7 hPa 0,0 l/m² 0,0 km/h (0 Bft) N 0 ° 0,000 mm 9,1 °C 13,9 °C 0,0 km/h (0 Bft) 100,00 %
06.05.2026 06:50 13,9 °C 73 % 1009,6 hPa 0,0 l/m² 0,0 km/h (0 Bft) N 0 ° 0,000 mm 9,1 °C 13,9 °C 0,0 km/h (0 Bft) 95,65 %
06.05.2026 06:49 13,9 °C 73 % 1009,7 hPa 0,0 l/m² 0,0 km/h (0 Bft) N 0 ° 0,000 mm 9,1 °C 13,9 °C 0,0 km/h (0 Bft) 100,00 %
06.05.2026 06:48 13,9 °C 74 % 1009,7 hPa 0,0 l/m² 0,0 km/h (0 Bft) N 0 ° 0,000 mm 9,3 °C 13,9 °C 0,0 km/h (0 Bft) 100,00 %
06.05.2026 06:47 13,8 °C 74 % 1009,7 hPa 0,0 l/m² 0,0 km/h (0 Bft) N 0 ° 0,000 mm 9,2 °C 13,8 °C 0,0 km/h (0 Bft) 100,00 %
06.05.2026 06:46 13,8 °C 74 % 1009,7 hPa 0,0 l/m² 0,0 km/h (0 Bft) N 0 ° 0,000 mm 9,2 °C 13,8 °C 0,0 km/h (0 Bft) 100,00 %
06.05.2026 06:45 13,7 °C 74 % 1009,8 hPa 0,0 l/m² 0,0 km/h (0 Bft) N 0 ° 0,000 mm 9,2 °C 13,7 °C 0,0 km/h (0 Bft) 95,65 %
06.05.2026 06:44 13,7 °C 75 % 1009,7 hPa 0,0 l/m² 0,0 km/h (0 Bft) N 0 ° 0,000 mm 9,3 °C 13,7 °C 0,0 km/h (0 Bft) 100,00 %
06.05.2026 06:43 13,6 °C 75 % 1009,9 hPa 0,0 l/m² 0,0 km/h (0 Bft) N 0 ° 0,000 mm 9,3 °C 13,6 °C 0,0 km/h (0 Bft) 95,65 %
06.05.2026 06:42 13,6 °C 75 % 1009,8 hPa 0,0 l/m² 0,0 km/h (0 Bft) W-SW 247 ° 0,000 mm 9,3 °C 13,6 °C 1,6 km/h (1 Bft) 100,00 %
06.05.2026 06:41 13,6 °C 75 % 1009,8 hPa 0,0 l/m² 0,0 km/h (0 Bft) W-SW 247 ° 0,000 mm 9,3 °C 13,6 °C 1,6 km/h (1 Bft) 100,00 %
06.05.2026 06:40 13,6 °C 76 % 1009,7 hPa 0,0 l/m² 0,0 km/h (0 Bft) W-SW 247 ° 0,000 mm 9,4 °C 13,6 °C 1,6 km/h (1 Bft) 100,00 %
06.05.2026 06:39 13,5 °C 76 % 1009,7 hPa 0,0 l/m² 0,0 km/h (0 Bft) N 0 ° 0,000 mm 9,4 °C 13,5 °C 0,0 km/h (0 Bft) 100,00 %
06.05.2026 06:38 13,5 °C 75 % 1009,7 hPa 0,0 l/m² 0,0 km/h (0 Bft) W-SW 247 ° 0,000 mm 9,2 °C 13,5 °C 1,6 km/h (1 Bft) 100,00 %
06.05.2026 06:37 13,5 °C 76 % 1009,7 hPa 0,0 l/m² 0,0 km/h (0 Bft) W-SW 247 ° 0,000 mm 9,4 °C 13,5 °C 1,6 km/h (1 Bft) 100,00 %
06.05.2026 06:36 13,5 °C 76 % 1009,8 hPa 0,0 l/m² 0,0 km/h (0 Bft) N 0 ° 0,000 mm 9,4 °C 13,5 °C 0,0 km/h (0 Bft) 95,65 %
06.05.2026 06:35 13,5 °C 77 % 1009,8 hPa 0,0 l/m² 0,0 km/h (0 Bft) W-SW 247 ° 0,000 mm 9,5 °C 13,5 °C 1,6 km/h (1 Bft) 95,65 %
06.05.2026 06:34 13,4 °C 77 % 1009,9 hPa 0,0 l/m² 0,0 km/h (0 Bft) W-SW 247 ° 0,000 mm 9,5 °C 13,4 °C 1,6 km/h (1 Bft) 100,00 %
06.05.2026 06:33 13,4 °C 78 % 1009,9 hPa 0,0 l/m² 0,0 km/h (0 Bft) W-SW 247 ° 0,000 mm 9,6 °C 13,4 °C 1,6 km/h (1 Bft) 100,00 %
06.05.2026 06:32 13,2 °C 78 % 1009,9 hPa 0,0 l/m² 0,0 km/h (0 Bft) N 0 ° 0,000 mm 9,4 °C 13,2 °C 0,0 km/h (0 Bft) 100,00 %
06.05.2026 06:31 13,0 °C 79 % 1009,9 hPa 0,0 l/m² 0,0 km/h (0 Bft) N 0 ° 0,000 mm 9,4 °C 13,0 °C 0,0 km/h (0 Bft) 100,00 %
06.05.2026 06:30 12,8 °C 79 % 1010,0 hPa 0,0 l/m² 0,0 km/h (0 Bft) N 0 ° 0,000 mm 9,2 °C 12,8 °C 0,0 km/h (0 Bft) 100,00 %
06.05.2026 06:29 12,7 °C 79 % 1009,9 hPa 0,0 l/m² 0,0 km/h (0 Bft) N 0 ° 0,000 mm 9,2 °C 12,7 °C 0,0 km/h (0 Bft) 100,00 %
06.05.2026 06:28 12,6 °C 79 % 1010,0 hPa 0,0 l/m² 0,0 km/h (0 Bft) N 0 ° 0,000 mm 9,1 °C 12,6 °C 0,0 km/h (0 Bft) 100,00 %
06.05.2026 06:27 12,5 °C 80 % 1010,0 hPa 0,0 l/m² 0,0 km/h (0 Bft) N 0 ° 0,000 mm 9,1 °C 12,5 °C 0,0 km/h (0 Bft) 100,00 %
06.05.2026 06:26 12,4 °C 80 % 1010,1 hPa 0,0 l/m² 0,0 km/h (0 Bft) N 0 ° 0,000 mm 9,0 °C 12,4 °C 0,0 km/h (0 Bft) 95,65 %
06.05.2026 06:25 12,4 °C 80 % 1010,0 hPa 0,0 l/m² 0,0 km/h (0 Bft) W-SW 247 ° 0,000 mm 9,0 °C 12,4 °C 1,6 km/h (1 Bft) 100,00 %
06.05.2026 06:24 12,4 °C 80 % 1010,0 hPa 0,0 l/m² 0,0 km/h (0 Bft) N 0 ° 0,000 mm 9,0 °C 12,4 °C 0,0 km/h (0 Bft) 100,00 %
06.05.2026 06:23 12,3 °C 80 % 1009,9 hPa 0,0 l/m² 0,0 km/h (0 Bft) N 0 ° 0,000 mm 8,9 °C 12,3 °C 0,0 km/h (0 Bft) 95,65 %
06.05.2026 06:22 12,3 °C 81 % 1009,9 hPa 0,0 l/m² 0,0 km/h (0 Bft) N 0 ° 0,000 mm 9,1 °C 12,3 °C 0,0 km/h (0 Bft) 100,00 %
06.05.2026 06:21 12,2 °C 81 % 1009,9 hPa 0,0 l/m² 0,0 km/h (0 Bft) N 0 ° 0,000 mm 9,0 °C 12,2 °C 0,0 km/h (0 Bft) 100,00 %
06.05.2026 06:20 12,2 °C 81 % 1009,9 hPa 0,0 l/m² 0,0 km/h (0 Bft) N 0 ° 0,000 mm 9,0 °C 12,2 °C 0,0 km/h (0 Bft) 100,00 %
06.05.2026 06:19 12,1 °C 81 % 1009,9 hPa 0,0 l/m² 0,0 km/h (0 Bft) N 0 ° 0,000 mm 8,9 °C 12,1 °C 0,0 km/h (0 Bft) 100,00 %
06.05.2026 06:18 12,1 °C 81 % 1010,0 hPa 0,0 l/m² 0,0 km/h (0 Bft) N 0 ° 0,000 mm 8,9 °C 12,1 °C 0,0 km/h (0 Bft) 100,00 %
06.05.2026 06:17 12,0 °C 82 % 1010,0 hPa 0,0 l/m² 0,0 km/h (0 Bft) N 0 ° 0,000 mm 9,0 °C 12,0 °C 0,0 km/h (0 Bft) 100,00 %
06.05.2026 06:16 11,9 °C 82 % 1010,1 hPa 0,0 l/m² 0,0 km/h (0 Bft) N 0 ° 0,000 mm 8,9 °C 11,9 °C 0,0 km/h (0 Bft) 100,00 %
06.05.2026 06:15 11,9 °C 82 % 1010,0 hPa 0,0 l/m² 0,0 km/h (0 Bft) N 0 ° 0,000 mm 8,9 °C 11,9 °C 0,0 km/h (0 Bft) 95,65 %
06.05.2026 06:14 11,8 °C 82 % 1010,0 hPa 0,0 l/m² 0,0 km/h (0 Bft) N 0 ° 0,000 mm 8,8 °C 11,8 °C 0,0 km/h (0 Bft) 100,00 %
06.05.2026 06:13 11,7 °C 82 % 1010,0 hPa 0,0 l/m² 0,0 km/h (0 Bft) N 0 ° 0,000 mm 8,7 °C 11,7 °C 0,0 km/h (0 Bft) 100,00 %
06.05.2026 06:12 11,7 °C 82 % 1010,0 hPa 0,0 l/m² 0,0 km/h (0 Bft) N 0 ° 0,000 mm 8,7 °C 11,7 °C 0,0 km/h (0 Bft) 95,65 %
06.05.2026 06:11 11,7 °C 82 % 1010,0 hPa 0,0 l/m² 0,0 km/h (0 Bft) W-SW 247 ° 0,000 mm 8,7 °C 11,7 °C 1,6 km/h (1 Bft) 100,00 %
06.05.2026 06:10 11,7 °C 82 % 1010,0 hPa 0,0 l/m² 1,6 km/h (1 Bft) W-SW 247 ° 0,000 mm 8,7 °C 11,7 °C 3,2 km/h (1 Bft) 100,00 %
06.05.2026 06:09 11,7 °C 82 % 1010,1 hPa 0,0 l/m² 1,6 km/h (1 Bft) W-SW 247 ° 0,000 mm 8,7 °C 11,7 °C 3,2 km/h (1 Bft) 100,00 %
06.05.2026 06:08 11,7 °C 81 % 1010,1 hPa 0,0 l/m² 1,6 km/h (1 Bft) W-SW 247 ° 0,000 mm 8,5 °C 11,7 °C 1,6 km/h (1 Bft) 100,00 %
06.05.2026 06:07 11,7 °C 81 % 1010,0 hPa 0,0 l/m² 1,6 km/h (1 Bft) W-SW 247 ° 0,000 mm 8,5 °C 11,7 °C 1,6 km/h (1 Bft) 100,00 %
06.05.2026 06:06 11,8 °C 81 % 1010,1 hPa 0,0 l/m² 0,0 km/h (0 Bft) W-SW 247 ° 0,000 mm 8,6 °C 11,8 °C 1,6 km/h (1 Bft) 100,00 %
06.05.2026 06:05 11,8 °C 81 % 1010,0 hPa 0,0 l/m² 1,6 km/h (1 Bft) W-SW 247 ° 0,000 mm 8,6 °C 11,8 °C 1,6 km/h (1 Bft) 100,00 %
06.05.2026 06:04 11,8 °C 81 % 1010,0 hPa 0,0 l/m² 0,0 km/h (0 Bft) W-SW 247 ° 0,000 mm 8,6 °C 11,8 °C 1,6 km/h (1 Bft) 95,65 %
06.05.2026 06:03 11,9 °C 81 % 1010,0 hPa 0,0 l/m² 0,0 km/h (0 Bft) W-SW 247 ° 0,000 mm 8,7 °C 11,9 °C 1,6 km/h (1 Bft) 100,00 %
06.05.2026 06:02 11,9 °C 81 % 1009,9 hPa 0,0 l/m² 1,6 km/h (1 Bft) W-SW 247 ° 0,000 mm 8,7 °C 11,9 °C 1,6 km/h (1 Bft) 95,65 %
06.05.2026 06:01 11,9 °C 81 % 1010,0 hPa 0,0 l/m² 0,0 km/h (0 Bft) W-SW 247 ° 0,000 mm 8,7 °C 11,9 °C 1,6 km/h (1 Bft) 100,00 %
06.05.2026 06:00 12,0 °C 80 % 1010,0 hPa 0,0 l/m² 0,0 km/h (0 Bft) W-SW 247 ° 0,000 mm 8,7 °C 12,0 °C 1,6 km/h (1 Bft) 100,00 %
06.05.2026 05:59 12,1 °C 80 % 1009,9 hPa 0,0 l/m² 0,0 km/h (0 Bft) W-SW 247 ° 0,000 mm 8,8 °C 12,1 °C 1,6 km/h (1 Bft) 100,00 %
06.05.2026 05:58 12,1 °C 79 % 1010,0 hPa 0,0 l/m² 0,0 km/h (0 Bft) W-SW 247 ° 0,000 mm 8,6 °C 12,1 °C 1,6 km/h (1 Bft) 100,00 %
06.05.2026 05:57 12,2 °C 79 % 1010,0 hPa 0,0 l/m² 1,6 km/h (1 Bft) W-SW 247 ° 0,000 mm 8,7 °C 12,2 °C 1,6 km/h (1 Bft) 95,65 %
06.05.2026 05:56 12,3 °C 79 % 1010,0 hPa 0,0 l/m² 3,2 km/h (1 Bft) W-SW 247 ° 0,000 mm 8,8 °C 12,3 °C 3,2 km/h (1 Bft) 100,00 %
06.05.2026 05:55 12,4 °C 79 % 1009,9 hPa 0,0 l/m² 1,6 km/h (1 Bft) W-SW 247 ° 0,000 mm 8,9 °C 12,4 °C 1,6 km/h (1 Bft) 100,00 %
06.05.2026 05:54 12,5 °C 78 % 1009,7 hPa 0,0 l/m² 0,0 km/h (0 Bft) N 0 ° 0,000 mm 8,8 °C 12,5 °C 0,0 km/h (0 Bft) 100,00 %
06.05.2026 05:53 12,6 °C 78 % 1009,7 hPa 0,0 l/m² 0,0 km/h (0 Bft) N 0 ° 0,000 mm 8,9 °C 12,6 °C 0,0 km/h (0 Bft) 100,00 %
06.05.2026 05:52 12,6 °C 78 % 1009,7 hPa 0,0 l/m² 0,0 km/h (0 Bft) W-SW 247 ° 0,000 mm 8,9 °C 12,6 °C 1,6 km/h (1 Bft) 95,65 %
06.05.2026 05:51 12,6 °C 78 % 1009,8 hPa 0,0 l/m² 0,0 km/h (0 Bft) W-SW 247 ° 0,000 mm 8,9 °C 12,6 °C 1,6 km/h (1 Bft) 100,00 %
06.05.2026 05:50 12,6 °C 79 % 1009,8 hPa 0,0 l/m² 0,0 km/h (0 Bft) N 0 ° 0,000 mm 9,1 °C 12,6 °C 0,0 km/h (0 Bft) 100,00 %
06.05.2026 05:49 12,7 °C 79 % 1009,7 hPa 0,0 l/m² 0,0 km/h (0 Bft) N 0 ° 0,000 mm 9,2 °C 12,7 °C 0,0 km/h (0 Bft) 100,00 %
06.05.2026 05:48 12,7 °C 78 % 1009,7 hPa 0,0 l/m² 0,0 km/h (0 Bft) N 0 ° 0,000 mm 9,0 °C 12,7 °C 0,0 km/h (0 Bft) 100,00 %
06.05.2026 05:47 12,7 °C 78 % 1009,6 hPa 0,0 l/m² 0,0 km/h (0 Bft) N 0 ° 0,000 mm 9,0 °C 12,7 °C 0,0 km/h (0 Bft) 100,00 %
06.05.2026 05:46 12,7 °C 78 % 1009,6 hPa 0,0 l/m² 0,0 km/h (0 Bft) N 0 ° 0,000 mm 9,0 °C 12,7 °C 0,0 km/h (0 Bft) 100,00 %
06.05.2026 05:45 12,7 °C 78 % 1009,7 hPa 0,0 l/m² 0,0 km/h (0 Bft) N 0 ° 0,000 mm 9,0 °C 12,7 °C 0,0 km/h (0 Bft) 100,00 %
06.05.2026 05:44 12,7 °C 78 % 1009,8 hPa 0,0 l/m² 0,0 km/h (0 Bft) N 0 ° 0,000 mm 9,0 °C 12,7 °C 0,0 km/h (0 Bft) 100,00 %
06.05.2026 05:43 12,7 °C 78 % 1009,9 hPa 0,0 l/m² 0,0 km/h (0 Bft) W-SW 247 ° 0,000 mm 9,0 °C 12,7 °C 1,6 km/h (1 Bft) 100,00 %
06.05.2026 05:42 12,7 °C 78 % 1010,0 hPa 0,0 l/m² 0,0 km/h (0 Bft) W-SW 247 ° 0,000 mm 9,0 °C 12,7 °C 1,6 km/h (1 Bft) 100,00 %
06.05.2026 05:41 12,7 °C 78 % 1010,0 hPa 0,0 l/m² 3,2 km/h (1 Bft) W-SW 247 ° 0,000 mm 9,0 °C 12,7 °C 3,2 km/h (1 Bft) 100,00 %
06.05.2026 05:40 12,7 °C 78 % 1010,1 hPa 0,0 l/m² 1,6 km/h (1 Bft) W-SW 247 ° 0,000 mm 9,0 °C 12,7 °C 3,2 km/h (1 Bft) 100,00 %
06.05.2026 05:39 12,7 °C 78 % 1010,0 hPa 0,0 l/m² 3,2 km/h (1 Bft) W-SW 247 ° 0,000 mm 9,0 °C 12,7 °C 3,2 km/h (1 Bft) 100,00 %
06.05.2026 05:38 12,7 °C 78 % 1009,9 hPa 0,0 l/m² 1,6 km/h (1 Bft) W-SW 247 ° 0,000 mm 9,0 °C 12,7 °C 1,6 km/h (1 Bft) 100,00 %
06.05.2026 05:37 12,7 °C 79 % 1009,9 hPa 0,0 l/m² 1,6 km/h (1 Bft) W-SW 247 ° 0,000 mm 9,2 °C 12,7 °C 1,6 km/h (1 Bft) 100,00 %
06.05.2026 05:36 12,6 °C 78 % 1009,9 hPa 0,0 l/m² 0,0 km/h (0 Bft) W-SW 247 ° 0,000 mm 8,9 °C 12,6 °C 1,6 km/h (1 Bft) 95,65 %
06.05.2026 05:35 12,6 °C 78 % 1009,9 hPa 0,0 l/m² 0,0 km/h (0 Bft) W-SW 247 ° 0,000 mm 8,9 °C 12,6 °C 1,6 km/h (1 Bft) 95,65 %
06.05.2026 05:34 12,6 °C 78 % 1009,9 hPa 0,0 l/m² 1,6 km/h (1 Bft) W-SW 247 ° 0,000 mm 8,9 °C 12,6 °C 1,6 km/h (1 Bft) 100,00 %
06.05.2026 05:33 12,6 °C 78 % 1009,9 hPa 0,0 l/m² 0,0 km/h (0 Bft) W-SW 247 ° 0,000 mm 8,9 °C 12,6 °C 1,6 km/h (1 Bft) 100,00 %
06.05.2026 05:32 12,6 °C 78 % 1009,9 hPa 0,0 l/m² 0,0 km/h (0 Bft) W-SW 247 ° 0,000 mm 8,9 °C 12,6 °C 1,6 km/h (1 Bft) 100,00 %
06.05.2026 05:31 12,6 °C 78 % 1010,0 hPa 0,0 l/m² 1,6 km/h (1 Bft) W-SW 247 ° 0,000 mm 8,9 °C 12,6 °C 1,6 km/h (1 Bft) 100,00 %
06.05.2026 05:30 12,6 °C 78 % 1009,9 hPa 0,0 l/m² 0,0 km/h (0 Bft) W-SW 247 ° 0,000 mm 8,9 °C 12,6 °C 1,6 km/h (1 Bft) 100,00 %
06.05.2026 05:29 12,6 °C 78 % 1010,0 hPa 0,0 l/m² 1,6 km/h (1 Bft) W-SW 247 ° 0,000 mm 8,9 °C 12,6 °C 1,6 km/h (1 Bft) 100,00 %
06.05.2026 05:28 12,6 °C 78 % 1010,0 hPa 0,0 l/m² 0,0 km/h (0 Bft) W-SW 247 ° 0,000 mm 8,9 °C 12,6 °C 1,6 km/h (1 Bft) 100,00 %
06.05.2026 05:27 12,6 °C 78 % 1010,0 hPa 0,0 l/m² 0,0 km/h (0 Bft) N 0 ° 0,000 mm 8,9 °C 12,6 °C 0,0 km/h (0 Bft) 100,00 %
06.05.2026 05:26 12,6 °C 78 % 1010,1 hPa 0,0 l/m² 0,0 km/h (0 Bft) N 0 ° 0,000 mm 8,9 °C 12,6 °C 0,0 km/h (0 Bft) 100,00 %
06.05.2026 05:25 12,5 °C 79 % 1010,0 hPa 0,0 l/m² 0,0 km/h (0 Bft) N 0 ° 0,000 mm 9,0 °C 12,5 °C 0,0 km/h (0 Bft) 100,00 %
06.05.2026 05:24 12,5 °C 79 % 1010,1 hPa 0,0 l/m² 0,0 km/h (0 Bft) N 0 ° 0,000 mm 9,0 °C 12,5 °C 0,0 km/h (0 Bft) 100,00 %
06.05.2026 05:23 12,4 °C 79 % 1010,1 hPa 0,0 l/m² 0,0 km/h (0 Bft) N 0 ° 0,000 mm 8,9 °C 12,4 °C 0,0 km/h (0 Bft) 100,00 %
06.05.2026 05:22 12,4 °C 79 % 1010,0 hPa 0,0 l/m² 0,0 km/h (0 Bft) N 0 ° 0,000 mm 8,9 °C 12,4 °C 0,0 km/h (0 Bft) 100,00 %
06.05.2026 05:21 12,4 °C 78 % 1010,0 hPa 0,0 l/m² 0,0 km/h (0 Bft) N 0 ° 0,000 mm 8,7 °C 12,4 °C 0,0 km/h (0 Bft) 95,65 %
06.05.2026 05:20 12,5 °C 78 % 1010,0 hPa 0,0 l/m² 0,0 km/h (0 Bft) N 0 ° 0,000 mm 8,8 °C 12,5 °C 0,0 km/h (0 Bft) 100,00 %
06.05.2026 05:19 12,5 °C 78 % 1010,0 hPa 0,0 l/m² 0,0 km/h (0 Bft) N 0 ° 0,000 mm 8,8 °C 12,5 °C 0,0 km/h (0 Bft) 100,00 %
06.05.2026 05:18 12,5 °C 78 % 1009,9 hPa 0,0 l/m² 0,0 km/h (0 Bft) N 0 ° 0,000 mm 8,8 °C 12,5 °C 0,0 km/h (0 Bft) 95,65 %
06.05.2026 05:17 12,6 °C 78 % 1009,9 hPa 0,0 l/m² 0,0 km/h (0 Bft) N 0 ° 0,000 mm 8,9 °C 12,6 °C 0,0 km/h (0 Bft) 100,00 %
06.05.2026 05:16 12,6 °C 77 % 1009,9 hPa 0,0 l/m² 0,0 km/h (0 Bft) SW 225 ° 0,000 mm 8,7 °C 12,6 °C 1,6 km/h (1 Bft) 95,65 %
06.05.2026 05:15 12,7 °C 77 % 1009,8 hPa 0,0 l/m² 1,6 km/h (1 Bft) SW 225 ° 0,000 mm 8,8 °C 12,7 °C 3,2 km/h (1 Bft) 100,00 %
06.05.2026 05:14 12,8 °C 77 % 1009,7 hPa 0,0 l/m² 3,2 km/h (1 Bft) SW 225 ° 0,000 mm 8,9 °C 12,8 °C 3,2 km/h (1 Bft) 100,00 %
06.05.2026 05:13 12,8 °C 76 % 1009,8 hPa 0,0 l/m² 1,6 km/h (1 Bft) SW 225 ° 0,000 mm 8,7 °C 12,8 °C 3,2 km/h (1 Bft) 95,65 %
06.05.2026 05:12 12,9 °C 76 % 1009,7 hPa 0,0 l/m² 0,0 km/h (0 Bft) SW 225 ° 0,000 mm 8,8 °C 12,9 °C 1,6 km/h (1 Bft) 100,00 %
06.05.2026 05:11 13,1 °C 75 % 1009,7 hPa 0,0 l/m² 3,2 km/h (1 Bft) SW 225 ° 0,000 mm 8,8 °C 13,1 °C 4,8 km/h (1 Bft) 100,00 %
06.05.2026 05:10 13,3 °C 75 % 1009,7 hPa 0,0 l/m² 3,2 km/h (1 Bft) SW 225 ° 0,000 mm 9,0 °C 13,3 °C 4,8 km/h (1 Bft) 100,00 %
06.05.2026 05:09 13,4 °C 75 % 1009,6 hPa 0,0 l/m² 1,6 km/h (1 Bft) W-SW 247 ° 0,000 mm 9,1 °C 13,4 °C 3,2 km/h (1 Bft) 100,00 %
06.05.2026 05:08 13,5 °C 75 % 1009,7 hPa 0,0 l/m² 0,0 km/h (0 Bft) W-SW 247 ° 0,000 mm 9,2 °C 13,5 °C 1,6 km/h (1 Bft) 100,00 %
06.05.2026 05:07 13,6 °C 75 % 1009,7 hPa 0,0 l/m² 0,0 km/h (0 Bft) N 0 ° 0,000 mm 9,3 °C 13,6 °C 0,0 km/h (0 Bft) 100,00 %
06.05.2026 05:06 13,6 °C 75 % 1009,7 hPa 0,0 l/m² 0,0 km/h (0 Bft) W-SW 247 ° 0,000 mm 9,3 °C 13,6 °C 1,6 km/h (1 Bft) 100,00 %
06.05.2026 05:05 13,6 °C 75 % 1009,7 hPa 0,0 l/m² 0,0 km/h (0 Bft) W-SW 247 ° 0,000 mm 9,3 °C 13,6 °C 1,6 km/h (1 Bft) 100,00 %
06.05.2026 05:04 13,7 °C 75 % 1009,7 hPa 0,0 l/m² 0,0 km/h (0 Bft) N 0 ° 0,000 mm 9,3 °C 13,7 °C 0,0 km/h (0 Bft) 100,00 %
06.05.2026 05:03 13,7 °C 74 % 1009,6 hPa 0,0 l/m² 0,0 km/h (0 Bft) N 0 ° 0,000 mm 9,2 °C 13,7 °C 0,0 km/h (0 Bft) 100,00 %
06.05.2026 05:02 13,7 °C 74 % 1009,7 hPa 0,0 l/m² 1,6 km/h (1 Bft) W-SW 247 ° 0,000 mm 9,2 °C 13,7 °C 3,2 km/h (1 Bft) 95,65 %
06.05.2026 05:01 13,8 °C 74 % 1009,6 hPa 0,0 l/m² 0,0 km/h (0 Bft) N 0 ° 0,000 mm 9,2 °C 13,8 °C 0,0 km/h (0 Bft) 100,00 %
06.05.2026 05:00 13,8 °C 74 % 1009,7 hPa 0,0 l/m² 1,6 km/h (1 Bft) W-SW 247 ° 0,000 mm 9,2 °C 13,8 °C 3,2 km/h (1 Bft) 100,00 %
06.05.2026 04:59 13,8 °C 74 % 1009,7 hPa 0,0 l/m² 0,0 km/h (0 Bft) W-SW 247 ° 0,000 mm 9,2 °C 13,8 °C 1,6 km/h (1 Bft) 100,00 %
06.05.2026 04:58 13,9 °C 74 % 1009,7 hPa 0,0 l/m² 1,6 km/h (1 Bft) W-SW 247 ° 0,000 mm 9,3 °C 13,9 °C 3,2 km/h (1 Bft) 100,00 %
06.05.2026 04:57 13,9 °C 74 % 1009,7 hPa 0,0 l/m² 0,0 km/h (0 Bft) W-SW 247 ° 0,000 mm 9,3 °C 13,9 °C 3,2 km/h (1 Bft) 95,65 %
06.05.2026 04:56 13,9 °C 73 % 1009,6 hPa 0,0 l/m² 0,0 km/h (0 Bft) W-SW 247 ° 0,000 mm 9,1 °C 13,9 °C 3,2 km/h (1 Bft) 100,00 %
06.05.2026 04:55 13,9 °C 73 % 1009,7 hPa 0,0 l/m² 0,0 km/h (0 Bft) W-SW 247 ° 0,000 mm 9,1 °C 13,9 °C 1,6 km/h (1 Bft) 100,00 %
06.05.2026 04:54 13,9 °C 73 % 1009,7 hPa 0,0 l/m² 0,0 km/h (0 Bft) N 0 ° 0,000 mm 9,1 °C 13,9 °C 0,0 km/h (0 Bft) 95,65 %
06.05.2026 04:53 14,0 °C 73 % 1009,7 hPa 0,0 l/m² 1,6 km/h (1 Bft) W-SW 247 ° 0,000 mm 9,2 °C 14,0 °C 3,2 km/h (1 Bft) 100,00 %
06.05.2026 04:52 13,9 °C 73 % 1009,7 hPa 0,0 l/m² 3,2 km/h (1 Bft) W-SW 247 ° 0,000 mm 9,1 °C 13,9 °C 4,8 km/h (1 Bft) 100,00 %
06.05.2026 04:51 13,9 °C 74 % 1009,7 hPa 0,0 l/m² 0,0 km/h (0 Bft) W-SW 247 ° 0,000 mm 9,3 °C 13,9 °C 3,2 km/h (1 Bft) 100,00 %
06.05.2026 04:50 13,9 °C 74 % 1009,7 hPa 0,0 l/m² 3,2 km/h (1 Bft) W-SW 247 ° 0,000 mm 9,3 °C 13,9 °C 3,2 km/h (1 Bft) 100,00 %
06.05.2026 04:49 13,9 °C 74 % 1009,8 hPa 0,0 l/m² 3,2 km/h (1 Bft) W-SW 247 ° 0,000 mm 9,3 °C 13,9 °C 4,8 km/h (1 Bft) 100,00 %
06.05.2026 04:48 13,8 °C 74 % 1009,8 hPa 0,0 l/m² 3,2 km/h (1 Bft) W-SW 247 ° 0,000 mm 9,2 °C 13,8 °C 4,8 km/h (1 Bft) 100,00 %
06.05.2026 04:47 13,8 °C 74 % 1009,8 hPa 0,0 l/m² 3,2 km/h (1 Bft) W-SW 247 ° 0,000 mm 9,2 °C 13,8 °C 4,8 km/h (1 Bft) 100,00 %
06.05.2026 04:46 13,7 °C 74 % 1009,8 hPa 0,0 l/m² 3,2 km/h (1 Bft) W-SW 247 ° 0,000 mm 9,2 °C 13,7 °C 3,2 km/h (1 Bft) 100,00 %
06.05.2026 04:45 13,7 °C 74 % 1009,8 hPa 0,0 l/m² 0,0 km/h (0 Bft) W-SW 247 ° 0,000 mm 9,2 °C 13,7 °C 3,2 km/h (1 Bft) 100,00 %
06.05.2026 04:44 13,7 °C 74 % 1009,8 hPa 0,0 l/m² 0,0 km/h (0 Bft) W-SW 247 ° 0,000 mm 9,2 °C 13,7 °C 1,6 km/h (1 Bft) 100,00 %
06.05.2026 04:43 13,7 °C 74 % 1009,8 hPa 0,0 l/m² 0,0 km/h (0 Bft) W-SW 247 ° 0,000 mm 9,2 °C 13,7 °C 1,6 km/h (1 Bft) 100,00 %
06.05.2026 04:42 13,7 °C 74 % 1009,9 hPa 0,0 l/m² 0,0 km/h (0 Bft) W-SW 247 ° 0,000 mm 9,2 °C 13,7 °C 1,6 km/h (1 Bft) 100,00 %
06.05.2026 04:41 13,7 °C 74 % 1009,9 hPa 0,0 l/m² 0,0 km/h (0 Bft) W-SW 247 ° 0,000 mm 9,2 °C 13,7 °C 1,6 km/h (1 Bft) 100,00 %
06.05.2026 04:40 13,7 °C 74 % 1009,8 hPa 0,0 l/m² 0,0 km/h (0 Bft) W-SW 247 ° 0,000 mm 9,2 °C 13,7 °C 1,6 km/h (1 Bft) 95,65 %
06.05.2026 04:39 13,7 °C 74 % 1009,8 hPa 0,0 l/m² 1,6 km/h (1 Bft) W-SW 247 ° 0,000 mm 9,2 °C 13,7 °C 3,2 km/h (1 Bft) 100,00 %
06.05.2026 04:38 13,7 °C 74 % 1009,9 hPa 0,0 l/m² 0,0 km/h (0 Bft) W-SW 247 ° 0,000 mm 9,2 °C 13,7 °C 1,6 km/h (1 Bft) 100,00 %
06.05.2026 04:37 13,7 °C 74 % 1009,9 hPa 0,0 l/m² 0,0 km/h (0 Bft) N 0 ° 0,000 mm 9,2 °C 13,7 °C 0,0 km/h (0 Bft) 95,65 %
06.05.2026 04:36 13,7 °C 74 % 1009,9 hPa 0,0 l/m² 0,0 km/h (0 Bft) W-SW 247 ° 0,000 mm 9,2 °C 13,7 °C 1,6 km/h (1 Bft) 100,00 %
06.05.2026 04:35 13,8 °C 74 % 1009,8 hPa 0,0 l/m² 0,0 km/h (0 Bft) W-SW 247 ° 0,000 mm 9,2 °C 13,8 °C 1,6 km/h (1 Bft) 100,00 %
06.05.2026 04:34 13,8 °C 74 % 1009,9 hPa 0,0 l/m² 0,0 km/h (0 Bft) N 0 ° 0,000 mm 9,2 °C 13,8 °C 0,0 km/h (0 Bft) 100,00 %
06.05.2026 04:33 13,8 °C 74 % 1009,9 hPa 0,0 l/m² 0,0 km/h (0 Bft) W-SW 247 ° 0,000 mm 9,2 °C 13,8 °C 1,6 km/h (1 Bft) 100,00 %
06.05.2026 04:32 13,8 °C 74 % 1009,9 hPa 0,0 l/m² 0,0 km/h (0 Bft) N 0 ° 0,000 mm 9,2 °C 13,8 °C 0,0 km/h (0 Bft) 100,00 %
06.05.2026 04:31 13,8 °C 74 % 1010,0 hPa 0,0 l/m² 0,0 km/h (0 Bft) W-SW 247 ° 0,000 mm 9,2 °C 13,8 °C 1,6 km/h (1 Bft) 100,00 %
06.05.2026 04:30 13,8 °C 74 % 1009,9 hPa 0,0 l/m² 0,0 km/h (0 Bft) N 0 ° 0,000 mm 9,2 °C 13,8 °C 0,0 km/h (0 Bft) 100,00 %
06.05.2026 04:29 13,8 °C 74 % 1009,9 hPa 0,0 l/m² 0,0 km/h (0 Bft) W-SW 247 ° 0,000 mm 9,2 °C 13,8 °C 1,6 km/h (1 Bft) 100,00 %
06.05.2026 04:28 13,7 °C 74 % 1009,9 hPa 0,0 l/m² 0,0 km/h (0 Bft) W-SW 247 ° 0,000 mm 9,2 °C 13,7 °C 1,6 km/h (1 Bft) 95,65 %
06.05.2026 04:27 13,7 °C 74 % 1009,9 hPa 0,0 l/m² 0,0 km/h (0 Bft) N 0 ° 0,000 mm 9,2 °C 13,7 °C 0,0 km/h (0 Bft) 100,00 %
06.05.2026 04:26 13,7 °C 74 % 1009,9 hPa 0,0 l/m² 1,6 km/h (1 Bft) W-SW 247 ° 0,000 mm 9,2 °C 13,7 °C 1,6 km/h (1 Bft) 100,00 %
06.05.2026 04:25 13,6 °C 74 % 1010,0 hPa 0,0 l/m² 0,0 km/h (0 Bft) W-SW 247 ° 0,000 mm 9,1 °C 13,6 °C 1,6 km/h (1 Bft) 100,00 %
06.05.2026 04:24 13,6 °C 74 % 1009,9 hPa 0,0 l/m² 0,0 km/h (0 Bft) W-SW 247 ° 0,000 mm 9,1 °C 13,6 °C 1,6 km/h (1 Bft) 100,00 %
06.05.2026 04:23 13,7 °C 74 % 1009,9 hPa 0,0 l/m² 0,0 km/h (0 Bft) N 0 ° 0,000 mm 9,2 °C 13,7 °C 0,0 km/h (0 Bft) 100,00 %
06.05.2026 04:22 13,7 °C 74 % 1009,9 hPa 0,0 l/m² 0,0 km/h (0 Bft) W-SW 247 ° 0,000 mm 9,2 °C 13,7 °C 1,6 km/h (1 Bft) 100,00 %
06.05.2026 04:21 13,7 °C 74 % 1009,9 hPa 0,0 l/m² 0,0 km/h (0 Bft) W-SW 247 ° 0,000 mm 9,2 °C 13,7 °C 1,6 km/h (1 Bft) 100,00 %
06.05.2026 04:20 13,7 °C 74 % 1009,9 hPa 0,0 l/m² 0,0 km/h (0 Bft) W-SW 247 ° 0,000 mm 9,2 °C 13,7 °C 1,6 km/h (1 Bft) 100,00 %
06.05.2026 04:19 13,7 °C 74 % 1009,9 hPa 0,0 l/m² 0,0 km/h (0 Bft) W-SW 247 ° 0,000 mm 9,2 °C 13,7 °C 1,6 km/h (1 Bft) 100,00 %
06.05.2026 04:18 13,7 °C 74 % 1009,8 hPa 0,0 l/m² 0,0 km/h (0 Bft) N 0 ° 0,000 mm 9,2 °C 13,7 °C 0,0 km/h (0 Bft) 100,00 %
06.05.2026 04:17 13,7 °C 74 % 1009,9 hPa 0,0 l/m² 0,0 km/h (0 Bft) N 0 ° 0,000 mm 9,2 °C 13,7 °C 0,0 km/h (0 Bft) 100,00 %
06.05.2026 04:16 13,7 °C 74 % 1009,8 hPa 0,0 l/m² 0,0 km/h (0 Bft) N 0 ° 0,000 mm 9,2 °C 13,7 °C 0,0 km/h (0 Bft) 100,00 %
06.05.2026 04:15 13,7 °C 74 % 1009,9 hPa 0,0 l/m² 0,0 km/h (0 Bft) N 0 ° 0,000 mm 9,2 °C 13,7 °C 0,0 km/h (0 Bft) 100,00 %
06.05.2026 04:14 13,8 °C 74 % 1009,9 hPa 0,0 l/m² 0,0 km/h (0 Bft) N 0 ° 0,000 mm 9,2 °C 13,8 °C 0,0 km/h (0 Bft) 95,65 %
06.05.2026 04:13 13,8 °C 74 % 1009,9 hPa 0,0 l/m² 0,0 km/h (0 Bft) N 0 ° 0,000 mm 9,2 °C 13,8 °C 0,0 km/h (0 Bft) 100,00 %
06.05.2026 04:12 13,8 °C 74 % 1009,9 hPa 0,0 l/m² 0,0 km/h (0 Bft) N 0 ° 0,000 mm 9,2 °C 13,8 °C 0,0 km/h (0 Bft) 100,00 %
06.05.2026 04:11 13,8 °C 74 % 1009,9 hPa 0,0 l/m² 0,0 km/h (0 Bft) N 0 ° 0,000 mm 9,2 °C 13,8 °C 0,0 km/h (0 Bft) 95,65 %
06.05.2026 04:10 13,8 °C 74 % 1009,8 hPa 0,0 l/m² 0,0 km/h (0 Bft) N 0 ° 0,000 mm 9,2 °C 13,8 °C 0,0 km/h (0 Bft) 100,00 %
06.05.2026 04:09 13,8 °C 73 % 1009,8 hPa 0,0 l/m² 0,0 km/h (0 Bft) N 0 ° 0,000 mm 9,0 °C 13,8 °C 0,0 km/h (0 Bft) 100,00 %
06.05.2026 04:08 13,8 °C 73 % 1009,8 hPa 0,0 l/m² 0,0 km/h (0 Bft) N 0 ° 0,000 mm 9,0 °C 13,8 °C 0,0 km/h (0 Bft) 100,00 %
06.05.2026 04:07 13,8 °C 73 % 1009,8 hPa 0,0 l/m² 0,0 km/h (0 Bft) N 0 ° 0,000 mm 9,0 °C 13,8 °C 0,0 km/h (0 Bft) 100,00 %
06.05.2026 04:06 13,9 °C 73 % 1009,9 hPa 0,0 l/m² 0,0 km/h (0 Bft) N 0 ° 0,000 mm 9,1 °C 13,9 °C 0,0 km/h (0 Bft) 100,00 %
06.05.2026 04:05 13,9 °C 73 % 1009,8 hPa 0,0 l/m² 0,0 km/h (0 Bft) N 0 ° 0,000 mm 9,1 °C 13,9 °C 0,0 km/h (0 Bft) 100,00 %
06.05.2026 04:04 13,9 °C 73 % 1009,9 hPa 0,0 l/m² 0,0 km/h (0 Bft) N 0 ° 0,000 mm 9,1 °C 13,9 °C 0,0 km/h (0 Bft) 100,00 %
06.05.2026 04:03 13,9 °C 73 % 1009,9 hPa 0,0 l/m² 0,0 km/h (0 Bft) N 0 ° 0,000 mm 9,1 °C 13,9 °C 0,0 km/h (0 Bft) 100,00 %
06.05.2026 04:02 13,9 °C 73 % 1009,8 hPa 0,0 l/m² 0,0 km/h (0 Bft) W-SW 247 ° 0,000 mm 9,1 °C 13,9 °C 1,6 km/h (1 Bft) 100,00 %
06.05.2026 04:01 13,9 °C 73 % 1009,8 hPa 0,0 l/m² 0,0 km/h (0 Bft) W-SW 247 ° 0,000 mm 9,1 °C 13,9 °C 1,6 km/h (1 Bft) 100,00 %
06.05.2026 04:00 14,1 °C 73 % 1009,8 hPa 0,0 l/m² 0,0 km/h (0 Bft) N 0 ° 0,000 mm 9,3 °C 14,1 °C 0,0 km/h (0 Bft) 100,00 %
06.05.2026 03:59 14,1 °C 73 % 1009,9 hPa 0,0 l/m² 1,6 km/h (1 Bft) W-SW 247 ° 0,000 mm 9,3 °C 14,1 °C 1,6 km/h (1 Bft) 100,00 %
06.05.2026 03:58 14,1 °C 73 % 1009,9 hPa 0,0 l/m² 0,0 km/h (0 Bft) W-SW 247 ° 0,000 mm 9,3 °C 14,1 °C 1,6 km/h (1 Bft) 100,00 %
06.05.2026 03:57 14,2 °C 73 % 1009,8 hPa 0,0 l/m² 1,6 km/h (1 Bft) W-SW 247 ° 0,000 mm 9,4 °C 14,2 °C 1,6 km/h (1 Bft) 100,00 %
06.05.2026 03:56 14,2 °C 72 % 1009,8 hPa 0,0 l/m² 0,0 km/h (0 Bft) W-SW 247 ° 0,000 mm 9,2 °C 14,2 °C 1,6 km/h (1 Bft) 100,00 %
06.05.2026 03:55 14,2 °C 72 % 1009,9 hPa 0,0 l/m² 0,0 km/h (0 Bft) N 0 ° 0,000 mm 9,2 °C 14,2 °C 0,0 km/h (0 Bft) 100,00 %
06.05.2026 03:54 14,3 °C 72 % 1009,8 hPa 0,0 l/m² 0,0 km/h (0 Bft) N 0 ° 0,000 mm 9,3 °C 14,3 °C 0,0 km/h (0 Bft) 100,00 %
06.05.2026 03:53 14,3 °C 72 % 1009,8 hPa 0,0 l/m² 0,0 km/h (0 Bft) N 0 ° 0,000 mm 9,3 °C 14,3 °C 0,0 km/h (0 Bft) 100,00 %
06.05.2026 03:52 14,3 °C 72 % 1009,8 hPa 0,0 l/m² 0,0 km/h (0 Bft) N 0 ° 0,000 mm 9,3 °C 14,3 °C 0,0 km/h (0 Bft) 100,00 %
06.05.2026 03:51 14,3 °C 72 % 1009,9 hPa 0,0 l/m² 0,0 km/h (0 Bft) N 0 ° 0,000 mm 9,3 °C 14,3 °C 0,0 km/h (0 Bft) 100,00 %
06.05.2026 03:50 14,3 °C 72 % 1009,8 hPa 0,0 l/m² 0,0 km/h (0 Bft) N 0 ° 0,000 mm 9,3 °C 14,3 °C 0,0 km/h (0 Bft) 100,00 %
06.05.2026 03:49 14,3 °C 72 % 1009,8 hPa 0,0 l/m² 0,0 km/h (0 Bft) N 0 ° 0,000 mm 9,3 °C 14,3 °C 0,0 km/h (0 Bft) 95,65 %
06.05.2026 03:48 14,4 °C 72 % 1009,8 hPa 0,0 l/m² 0,0 km/h (0 Bft) N 0 ° 0,000 mm 9,4 °C 14,4 °C 0,0 km/h (0 Bft) 100,00 %
06.05.2026 03:47 14,4 °C 72 % 1009,8 hPa 0,0 l/m² 0,0 km/h (0 Bft) SW 225 ° 0,000 mm 9,4 °C 14,4 °C 1,6 km/h (1 Bft) 95,65 %
06.05.2026 03:46 14,4 °C 72 % 1009,9 hPa 0,0 l/m² 0,0 km/h (0 Bft) N 0 ° 0,000 mm 9,4 °C 14,4 °C 0,0 km/h (0 Bft) 100,00 %
06.05.2026 03:45 14,4 °C 72 % 1009,9 hPa 0,0 l/m² 0,0 km/h (0 Bft) N 0 ° 0,000 mm 9,4 °C 14,4 °C 0,0 km/h (0 Bft) 95,65 %
06.05.2026 03:44 14,4 °C 72 % 1009,9 hPa 0,0 l/m² 0,0 km/h (0 Bft) N 0 ° 0,000 mm 9,4 °C 14,4 °C 0,0 km/h (0 Bft) 100,00 %
06.05.2026 03:43 14,4 °C 72 % 1009,9 hPa 0,0 l/m² 0,0 km/h (0 Bft) SW 225 ° 0,000 mm 9,4 °C 14,4 °C 1,6 km/h (1 Bft) 100,00 %
06.05.2026 03:42 14,5 °C 72 % 1009,9 hPa 0,0 l/m² 0,0 km/h (0 Bft) SW 225 ° 0,000 mm 9,5 °C 14,5 °C 1,6 km/h (1 Bft) 100,00 %
06.05.2026 03:41 14,5 °C 72 % 1010,0 hPa 0,0 l/m² 0,0 km/h (0 Bft) N 0 ° 0,000 mm 9,5 °C 14,5 °C 0,0 km/h (0 Bft) 100,00 %
06.05.2026 03:40 14,5 °C 72 % 1009,9 hPa 0,0 l/m² 0,0 km/h (0 Bft) SW 225 ° 0,000 mm 9,5 °C 14,5 °C 1,6 km/h (1 Bft) 100,00 %
06.05.2026 03:39 14,5 °C 72 % 1009,9 hPa 0,0 l/m² 0,0 km/h (0 Bft) SW 225 ° 0,000 mm 9,5 °C 14,5 °C 1,6 km/h (1 Bft) 100,00 %
06.05.2026 03:38 14,5 °C 72 % 1009,9 hPa 0,0 l/m² 1,6 km/h (1 Bft) SW 225 ° 0,000 mm 9,5 °C 14,5 °C 1,6 km/h (1 Bft) 100,00 %
06.05.2026 03:37 14,5 °C 72 % 1010,0 hPa 0,0 l/m² 1,6 km/h (1 Bft) SW 225 ° 0,000 mm 9,5 °C 14,5 °C 4,8 km/h (1 Bft) 100,00 %
06.05.2026 03:36 14,6 °C 72 % 1010,0 hPa 0,0 l/m² 1,6 km/h (1 Bft) SW 225 ° 0,000 mm 9,6 °C 14,6 °C 3,2 km/h (1 Bft) 100,00 %
06.05.2026 03:35 14,6 °C 71 % 1010,0 hPa 0,0 l/m² 1,6 km/h (1 Bft) SW 225 ° 0,000 mm 9,4 °C 14,6 °C 1,6 km/h (1 Bft) 100,00 %
06.05.2026 03:34 14,6 °C 71 % 1010,0 hPa 0,0 l/m² 1,6 km/h (1 Bft) SW 225 ° 0,000 mm 9,4 °C 14,6 °C 1,6 km/h (1 Bft) 100,00 %
06.05.2026 03:33 14,6 °C 71 % 1010,0 hPa 0,0 l/m² 1,6 km/h (1 Bft) SW 225 ° 0,000 mm 9,4 °C 14,6 °C 3,2 km/h (1 Bft) 100,00 %
06.05.2026 03:32 14,6 °C 71 % 1010,2 hPa 0,0 l/m² 1,6 km/h (1 Bft) SW 225 ° 0,000 mm 9,4 °C 14,6 °C 3,2 km/h (1 Bft) 100,00 %
06.05.2026 03:31 14,6 °C 71 % 1010,0 hPa 0,0 l/m² 1,6 km/h (1 Bft) SW 225 ° 0,000 mm 9,4 °C 14,6 °C 1,6 km/h (1 Bft) 100,00 %
06.05.2026 03:30 14,6 °C 71 % 1010,1 hPa 0,0 l/m² 1,6 km/h (1 Bft) SW 225 ° 0,000 mm 9,4 °C 14,6 °C 3,2 km/h (1 Bft) 95,65 %
06.05.2026 03:29 14,6 °C 71 % 1010,1 hPa 0,0 l/m² 3,2 km/h (1 Bft) SW 225 ° 0,000 mm 9,4 °C 14,6 °C 4,8 km/h (1 Bft) 100,00 %
06.05.2026 03:28 14,7 °C 71 % 1010,2 hPa 0,0 l/m² 1,6 km/h (1 Bft) SW 225 ° 0,000 mm 9,5 °C 14,7 °C 3,2 km/h (1 Bft) 100,00 %
06.05.2026 03:27 14,6 °C 71 % 1010,2 hPa 0,0 l/m² 3,2 km/h (1 Bft) SW 225 ° 0,000 mm 9,4 °C 14,6 °C 4,8 km/h (1 Bft) 95,65 %
06.05.2026 03:26 14,7 °C 71 % 1010,2 hPa 0,0 l/m² 3,2 km/h (1 Bft) SW 225 ° 0,000 mm 9,5 °C 14,7 °C 4,8 km/h (1 Bft) 100,00 %
06.05.2026 03:25 14,7 °C 71 % 1010,2 hPa 0,0 l/m² 4,8 km/h (1 Bft) SW 225 ° 0,000 mm 9,5 °C 14,7 °C 4,8 km/h (1 Bft) 100,00 %
06.05.2026 03:24 14,7 °C 71 % 1010,2 hPa 0,0 l/m² 3,2 km/h (1 Bft) SW 225 ° 0,000 mm 9,5 °C 14,7 °C 3,2 km/h (1 Bft) 100,00 %
06.05.2026 03:23 14,8 °C 71 % 1010,3 hPa 0,0 l/m² 3,2 km/h (1 Bft) SW 225 ° 0,000 mm 9,6 °C 14,8 °C 4,8 km/h (1 Bft) 100,00 %
06.05.2026 03:22 14,8 °C 71 % 1010,3 hPa 0,0 l/m² 3,2 km/h (1 Bft) SW 225 ° 0,000 mm 9,6 °C 14,8 °C 4,8 km/h (1 Bft) 100,00 %
06.05.2026 03:21 14,8 °C 71 % 1010,2 hPa 0,0 l/m² 3,2 km/h (1 Bft) SW 225 ° 0,000 mm 9,6 °C 14,8 °C 4,8 km/h (1 Bft) 100,00 %
06.05.2026 03:20 14,8 °C 70 % 1010,3 hPa 0,0 l/m² 4,8 km/h (1 Bft) SW 225 ° 0,000 mm 9,4 °C 14,8 °C 8,0 km/h (2 Bft) 100,00 %
06.05.2026 03:19 14,9 °C 70 % 1010,3 hPa 0,0 l/m² 3,2 km/h (1 Bft) SW 225 ° 0,000 mm 9,5 °C 14,9 °C 4,8 km/h (1 Bft) 100,00 %
06.05.2026 03:18 14,9 °C 70 % 1010,3 hPa 0,0 l/m² 4,8 km/h (1 Bft) SW 225 ° 0,000 mm 9,5 °C 14,9 °C 6,4 km/h (2 Bft) 100,00 %
06.05.2026 03:17 14,9 °C 70 % 1010,3 hPa 0,0 l/m² 4,8 km/h (1 Bft) SW 225 ° 0,000 mm 9,5 °C 14,9 °C 6,4 km/h (2 Bft) 100,00 %
06.05.2026 03:16 14,9 °C 70 % 1010,2 hPa 0,0 l/m² 6,4 km/h (2 Bft) SW 225 ° 0,000 mm 9,5 °C 14,9 °C 8,0 km/h (2 Bft) 100,00 %
06.05.2026 03:15 14,9 °C 70 % 1010,3 hPa 0,0 l/m² 4,8 km/h (1 Bft) W-SW 247 ° 0,000 mm 9,5 °C 14,9 °C 9,7 km/h (2 Bft) 100,00 %
06.05.2026 03:14 14,9 °C 70 % 1010,4 hPa 0,0 l/m² 3,2 km/h (1 Bft) W-SW 247 ° 0,000 mm 9,5 °C 14,9 °C 6,4 km/h (2 Bft) 100,00 %
06.05.2026 03:13 15,0 °C 70 % 1010,3 hPa 0,0 l/m² 3,2 km/h (1 Bft) W-SW 247 ° 0,000 mm 9,6 °C 15,0 °C 6,4 km/h (2 Bft) 100,00 %
06.05.2026 03:12 15,1 °C 70 % 1010,4 hPa 0,0 l/m² 4,8 km/h (1 Bft) SW 225 ° 0,000 mm 9,7 °C 15,1 °C 6,4 km/h (2 Bft) 100,00 %
06.05.2026 03:11 15,1 °C 70 % 1010,3 hPa 0,0 l/m² 6,4 km/h (2 Bft) SW 225 ° 0,000 mm 9,7 °C 15,1 °C 11,3 km/h (2 Bft) 100,00 %
06.05.2026 03:10 15,1 °C 70 % 1010,3 hPa 0,0 l/m² 4,8 km/h (1 Bft) W-SW 247 ° 0,000 mm 9,7 °C 15,1 °C 9,7 km/h (2 Bft) 100,00 %
06.05.2026 03:09 15,1 °C 70 % 1010,3 hPa 0,0 l/m² 6,4 km/h (2 Bft) W-SW 247 ° 0,000 mm 9,7 °C 15,1 °C 11,3 km/h (2 Bft) 100,00 %
06.05.2026 03:08 15,1 °C 69 % 1010,3 hPa 0,0 l/m² 3,2 km/h (1 Bft) SW 225 ° 0,000 mm 9,5 °C 15,1 °C 4,8 km/h (1 Bft) 95,65 %
06.05.2026 03:07 15,1 °C 69 % 1010,3 hPa 0,0 l/m² 3,2 km/h (1 Bft) SW 225 ° 0,000 mm 9,5 °C 15,1 °C 4,8 km/h (1 Bft) 100,00 %
06.05.2026 03:06 15,2 °C 69 % 1010,4 hPa 0,0 l/m² 3,2 km/h (1 Bft) W-SW 247 ° 0,000 mm 9,6 °C 15,2 °C 6,4 km/h (2 Bft) 100,00 %
06.05.2026 03:05 15,2 °C 69 % 1010,4 hPa 0,0 l/m² 4,8 km/h (1 Bft) SW 225 ° 0,000 mm 9,6 °C 15,2 °C 6,4 km/h (2 Bft) 100,00 %
06.05.2026 03:04 15,2 °C 69 % 1010,4 hPa 0,0 l/m² 4,8 km/h (1 Bft) SW 225 ° 0,000 mm 9,6 °C 15,2 °C 8,0 km/h (2 Bft) 100,00 %
06.05.2026 03:03 15,3 °C 69 % 1010,3 hPa 0,0 l/m² 6,4 km/h (2 Bft) SW 225 ° 0,000 mm 9,6 °C 15,3 °C 9,7 km/h (2 Bft) 95,65 %
06.05.2026 03:02 15,3 °C 69 % 1010,3 hPa 0,0 l/m² 4,8 km/h (1 Bft) SW 225 ° 0,000 mm 9,6 °C 15,3 °C 6,4 km/h (2 Bft) 100,00 %
06.05.2026 03:01 15,3 °C 69 % 1010,3 hPa 0,0 l/m² 6,4 km/h (2 Bft) W-SW 247 ° 0,000 mm 9,6 °C 15,3 °C 9,7 km/h (2 Bft) 100,00 %
06.05.2026 03:00 15,3 °C 69 % 1010,4 hPa 0,0 l/m² 9,7 km/h (2 Bft) W-SW 247 ° 0,000 mm 9,6 °C 13,6 °C 14,5 km/h (3 Bft) 100,00 %
06.05.2026 02:59 15,3 °C 69 % 1010,4 hPa 0,0 l/m² 6,4 km/h (2 Bft) SW 225 ° 0,000 mm 9,6 °C 15,3 °C 14,5 km/h (3 Bft) 100,00 %
06.05.2026 02:58 15,4 °C 68 % 1010,3 hPa 0,0 l/m² 4,8 km/h (1 Bft) W-SW 247 ° 0,000 mm 9,5 °C 15,4 °C 12,9 km/h (3 Bft) 100,00 %
06.05.2026 02:57 15,4 °C 68 % 1010,3 hPa 0,0 l/m² 9,7 km/h (2 Bft) W-SW 247 ° 0,000 mm 9,5 °C 13,7 °C 11,3 km/h (2 Bft) 100,00 %
06.05.2026 02:56 15,4 °C 68 % 1010,4 hPa 0,0 l/m² 8,0 km/h (2 Bft) SW 225 ° 0,000 mm 9,5 °C 14,5 °C 12,9 km/h (3 Bft) 100,00 %
06.05.2026 02:55 15,5 °C 68 % 1010,3 hPa 0,0 l/m² 9,7 km/h (2 Bft) W-SW 247 ° 0,000 mm 9,6 °C 13,8 °C 14,5 km/h (3 Bft) 100,00 %
06.05.2026 02:54 15,5 °C 68 % 1010,3 hPa 0,0 l/m² 9,7 km/h (2 Bft) W-SW 247 ° 0,000 mm 9,6 °C 13,8 °C 16,1 km/h (3 Bft) 95,65 %
06.05.2026 02:53 15,6 °C 68 % 1010,3 hPa 0,0 l/m² 8,0 km/h (2 Bft) S-SW 202 ° 0,000 mm 9,7 °C 14,7 °C 12,9 km/h (3 Bft) 100,00 %
06.05.2026 02:52 15,6 °C 68 % 1010,3 hPa 0,0 l/m² 9,7 km/h (2 Bft) SW 225 ° 0,000 mm 9,7 °C 13,9 °C 16,1 km/h (3 Bft) 100,00 %
06.05.2026 02:51 15,6 °C 68 % 1010,3 hPa 0,0 l/m² 6,4 km/h (2 Bft) W-SW 247 ° 0,000 mm 9,7 °C 15,6 °C 16,1 km/h (3 Bft) 95,65 %
06.05.2026 02:50 15,6 °C 68 % 1010,2 hPa 0,0 l/m² 6,4 km/h (2 Bft) W-SW 247 ° 0,000 mm 9,7 °C 15,6 °C 8,0 km/h (2 Bft) 100,00 %
06.05.2026 02:49 15,6 °C 68 % 1010,2 hPa 0,0 l/m² 8,0 km/h (2 Bft) W-SW 247 ° 0,000 mm 9,7 °C 14,7 °C 16,1 km/h (3 Bft) 95,65 %
06.05.2026 02:48 15,7 °C 68 % 1010,3 hPa 0,0 l/m² 12,9 km/h (3 Bft) W-SW 247 ° 0,000 mm 9,8 °C 12,7 °C 19,3 km/h (3 Bft) 100,00 %
06.05.2026 02:47 15,7 °C 68 % 1010,3 hPa 0,0 l/m² 11,3 km/h (2 Bft) W-SW 247 ° 0,000 mm 9,8 °C 13,3 °C 17,7 km/h (3 Bft) 100,00 %
06.05.2026 02:46 15,7 °C 68 % 1010,2 hPa 0,0 l/m² 11,3 km/h (2 Bft) W-SW 247 ° 0,000 mm 9,8 °C 13,3 °C 12,9 km/h (3 Bft) 100,00 %
06.05.2026 02:45 15,7 °C 68 % 1010,3 hPa 0,0 l/m² 11,3 km/h (2 Bft) SW 225 ° 0,000 mm 9,8 °C 13,3 °C 19,3 km/h (3 Bft) 100,00 %
06.05.2026 02:44 15,7 °C 68 % 1010,3 hPa 0,0 l/m² 11,3 km/h (2 Bft) W-SW 247 ° 0,000 mm 9,8 °C 13,3 °C 16,1 km/h (3 Bft) 100,00 %
06.05.2026 02:43 15,7 °C 68 % 1010,3 hPa 0,0 l/m² 11,3 km/h (2 Bft) W-SW 247 ° 0,000 mm 9,8 °C 13,3 °C 17,7 km/h (3 Bft) 100,00 %
06.05.2026 02:42 15,7 °C 68 % 1010,3 hPa 0,0 l/m² 11,3 km/h (2 Bft) SW 225 ° 0,000 mm 9,8 °C 13,3 °C 17,7 km/h (3 Bft) 100,00 %
06.05.2026 02:41 15,7 °C 68 % 1010,3 hPa 0,0 l/m² 8,0 km/h (2 Bft) SW 225 ° 0,000 mm 9,8 °C 14,8 °C 12,9 km/h (3 Bft) 95,65 %
06.05.2026 02:40 15,7 °C 68 % 1010,3 hPa 0,0 l/m² 12,9 km/h (3 Bft) SW 225 ° 0,000 mm 9,8 °C 12,7 °C 17,7 km/h (3 Bft) 100,00 %
06.05.2026 02:39 15,7 °C 68 % 1010,3 hPa 0,0 l/m² 8,0 km/h (2 Bft) SW 225 ° 0,000 mm 9,8 °C 14,8 °C 16,1 km/h (3 Bft) 100,00 %
06.05.2026 02:38 15,7 °C 68 % 1010,2 hPa 0,0 l/m² 8,0 km/h (2 Bft) S-SW 202 ° 0,000 mm 9,8 °C 14,8 °C 19,3 km/h (3 Bft) 100,00 %
06.05.2026 02:37 15,7 °C 68 % 1010,3 hPa 0,0 l/m² 9,7 km/h (2 Bft) W-SW 247 ° 0,000 mm 9,8 °C 14,0 °C 17,7 km/h (3 Bft) 100,00 %
06.05.2026 02:36 15,7 °C 68 % 1010,3 hPa 0,0 l/m² 11,3 km/h (2 Bft) SW 225 ° 0,000 mm 9,8 °C 13,3 °C 22,5 km/h (4 Bft) 100,00 %
06.05.2026 02:35 15,7 °C 68 % 1010,3 hPa 0,0 l/m² 14,5 km/h (3 Bft) W-SW 247 ° 0,000 mm 9,8 °C 12,2 °C 20,9 km/h (4 Bft) 95,65 %
06.05.2026 02:34 15,6 °C 68 % 1010,3 hPa 0,0 l/m² 9,7 km/h (2 Bft) W-SW 247 ° 0,000 mm 9,7 °C 13,9 °C 19,3 km/h (3 Bft) 100,00 %
06.05.2026 02:33 15,7 °C 68 % 1010,3 hPa 0,0 l/m² 9,7 km/h (2 Bft) W-SW 247 ° 0,000 mm 9,8 °C 14,0 °C 16,1 km/h (3 Bft) 100,00 %
06.05.2026 02:32 15,7 °C 68 % 1010,3 hPa 0,0 l/m² 8,0 km/h (2 Bft) SW 225 ° 0,000 mm 9,8 °C 14,8 °C 12,9 km/h (3 Bft) 100,00 %
06.05.2026 02:31 15,7 °C 68 % 1010,2 hPa 0,0 l/m² 11,3 km/h (2 Bft) SW 225 ° 0,000 mm 9,8 °C 13,3 °C 19,3 km/h (3 Bft) 100,00 %
06.05.2026 02:30 15,7 °C 68 % 1010,3 hPa 0,0 l/m² 12,9 km/h (3 Bft) W-SW 247 ° 0,000 mm 9,8 °C 12,7 °C 16,1 km/h (3 Bft) 100,00 %
06.05.2026 02:29 15,7 °C 69 % 1010,3 hPa 0,0 l/m² 11,3 km/h (2 Bft) W-SW 247 ° 0,000 mm 10,0 °C 13,3 °C 17,7 km/h (3 Bft) 100,00 %
06.05.2026 02:28 15,7 °C 69 % 1010,3 hPa 0,0 l/m² 8,0 km/h (2 Bft) SW 225 ° 0,000 mm 10,0 °C 14,8 °C 11,3 km/h (2 Bft) 100,00 %
06.05.2026 02:27 15,7 °C 69 % 1010,3 hPa 0,0 l/m² 9,7 km/h (2 Bft) SW 225 ° 0,000 mm 10,0 °C 14,0 °C 16,1 km/h (3 Bft) 100,00 %
06.05.2026 02:26 15,6 °C 69 % 1010,1 hPa 0,0 l/m² 14,5 km/h (3 Bft) W-SW 247 ° 0,000 mm 9,9 °C 12,1 °C 25,7 km/h (4 Bft) 100,00 %
06.05.2026 02:25 15,6 °C 69 % 1010,2 hPa 0,0 l/m² 16,1 km/h (3 Bft) W-SW 247 ° 0,000 mm 9,9 °C 11,6 °C 25,7 km/h (4 Bft) 100,00 %
06.05.2026 02:24 15,6 °C 69 % 1010,2 hPa 0,0 l/m² 12,9 km/h (3 Bft) SW 225 ° 0,000 mm 9,9 °C 12,6 °C 20,9 km/h (4 Bft) 100,00 %
06.05.2026 02:23 15,6 °C 69 % 1010,2 hPa 0,0 l/m² 11,3 km/h (2 Bft) SW 225 ° 0,000 mm 9,9 °C 13,2 °C 17,7 km/h (3 Bft) 100,00 %
06.05.2026 02:22 15,6 °C 69 % 1010,1 hPa 0,0 l/m² 12,9 km/h (3 Bft) SW 225 ° 0,000 mm 9,9 °C 12,6 °C 17,7 km/h (3 Bft) 100,00 %
06.05.2026 02:21 15,6 °C 70 % 1010,2 hPa 0,0 l/m² 11,3 km/h (2 Bft) SW 225 ° 0,000 mm 10,1 °C 13,2 °C 19,3 km/h (3 Bft) 100,00 %
06.05.2026 02:20 15,6 °C 70 % 1010,2 hPa 0,0 l/m² 11,3 km/h (2 Bft) W-SW 247 ° 0,000 mm 10,1 °C 13,2 °C 17,7 km/h (3 Bft) 100,00 %
06.05.2026 02:19 15,6 °C 70 % 1010,2 hPa 0,0 l/m² 8,0 km/h (2 Bft) W-SW 247 ° 0,000 mm 10,1 °C 14,7 °C 17,7 km/h (3 Bft) 100,00 %
06.05.2026 02:18 15,5 °C 70 % 1010,2 hPa 0,0 l/m² 11,3 km/h (2 Bft) W-SW 247 ° 0,000 mm 10,1 °C 13,1 °C 16,1 km/h (3 Bft) 100,00 %
06.05.2026 02:17 15,4 °C 70 % 1010,2 hPa 0,0 l/m² 11,3 km/h (2 Bft) W-SW 247 ° 0,000 mm 10,0 °C 13,0 °C 19,3 km/h (3 Bft) 95,65 %
06.05.2026 02:16 15,4 °C 70 % 1010,2 hPa 0,0 l/m² 12,9 km/h (3 Bft) W-SW 247 ° 0,000 mm 10,0 °C 12,4 °C 20,9 km/h (4 Bft) 100,00 %
06.05.2026 02:15 15,4 °C 70 % 1010,2 hPa 0,0 l/m² 8,0 km/h (2 Bft) W-SW 247 ° 0,000 mm 10,0 °C 14,5 °C 12,9 km/h (3 Bft) 95,65 %
06.05.2026 02:14 15,4 °C 70 % 1010,3 hPa 0,0 l/m² 8,0 km/h (2 Bft) SW 225 ° 0,000 mm 10,0 °C 14,5 °C 11,3 km/h (2 Bft) 100,00 %
06.05.2026 02:13 15,4 °C 70 % 1010,3 hPa 0,0 l/m² 8,0 km/h (2 Bft) SW 225 ° 0,000 mm 10,0 °C 14,5 °C 16,1 km/h (3 Bft) 100,00 %
06.05.2026 02:12 15,3 °C 70 % 1010,3 hPa 0,0 l/m² 12,9 km/h (3 Bft) SW 225 ° 0,000 mm 9,9 °C 12,3 °C 24,1 km/h (4 Bft) 100,00 %
06.05.2026 02:11 15,3 °C 71 % 1010,2 hPa 0,0 l/m² 9,7 km/h (2 Bft) SW 225 ° 0,000 mm 10,1 °C 13,6 °C 17,7 km/h (3 Bft) 100,00 %
06.05.2026 02:10 15,3 °C 71 % 1010,2 hPa 0,0 l/m² 8,0 km/h (2 Bft) W-SW 247 ° 0,000 mm 10,1 °C 14,4 °C 17,7 km/h (3 Bft) 95,65 %
06.05.2026 02:09 15,3 °C 71 % 1010,2 hPa 0,0 l/m² 11,3 km/h (2 Bft) W-SW 247 ° 0,000 mm 10,1 °C 12,9 °C 19,3 km/h (3 Bft) 100,00 %
06.05.2026 02:08 15,3 °C 71 % 1010,2 hPa 0,0 l/m² 11,3 km/h (2 Bft) W-SW 247 ° 0,000 mm 10,1 °C 12,9 °C 19,3 km/h (3 Bft) 100,00 %
06.05.2026 02:07 15,3 °C 71 % 1010,2 hPa 0,0 l/m² 8,0 km/h (2 Bft) SW 225 ° 0,000 mm 10,1 °C 14,4 °C 12,9 km/h (3 Bft) 100,00 %
06.05.2026 02:06 15,3 °C 71 % 1010,2 hPa 0,0 l/m² 8,0 km/h (2 Bft) SW 225 ° 0,000 mm 10,1 °C 14,4 °C 16,1 km/h (3 Bft) 95,65 %
06.05.2026 02:05 15,3 °C 71 % 1010,2 hPa 0,0 l/m² 12,9 km/h (3 Bft) SW 225 ° 0,000 mm 10,1 °C 12,3 °C 20,9 km/h (4 Bft) 100,00 %
06.05.2026 02:04 15,2 °C 71 % 1010,2 hPa 0,0 l/m² 11,3 km/h (2 Bft) SW 225 ° 0,000 mm 10,0 °C 12,8 °C 19,3 km/h (3 Bft) 100,00 %
06.05.2026 02:03 15,2 °C 71 % 1010,3 hPa 0,0 l/m² 11,3 km/h (2 Bft) SW 225 ° 0,000 mm 10,0 °C 12,8 °C 17,7 km/h (3 Bft) 100,00 %
06.05.2026 02:02 15,2 °C 71 % 1010,3 hPa 0,0 l/m² 8,0 km/h (2 Bft) W-SW 247 ° 0,000 mm 10,0 °C 14,3 °C 14,5 km/h (3 Bft) 100,00 %
06.05.2026 02:01 15,2 °C 71 % 1010,3 hPa 0,0 l/m² 11,3 km/h (2 Bft) W-SW 247 ° 0,000 mm 10,0 °C 12,8 °C 17,7 km/h (3 Bft) 100,00 %
06.05.2026 02:00 15,2 °C 71 % 1010,2 hPa 0,0 l/m² 12,9 km/h (3 Bft) W-SW 247 ° 0,000 mm 10,0 °C 12,2 °C 19,3 km/h (3 Bft) 100,00 %
06.05.2026 01:59 15,2 °C 71 % 1010,2 hPa 0,0 l/m² 8,0 km/h (2 Bft) W-SW 247 ° 0,000 mm 10,0 °C 14,3 °C 14,5 km/h (3 Bft) 100,00 %
06.05.2026 01:58 15,2 °C 71 % 1010,2 hPa 0,0 l/m² 9,7 km/h (2 Bft) SW 225 ° 0,000 mm 10,0 °C 13,5 °C 17,7 km/h (3 Bft) 95,65 %
06.05.2026 01:57 15,2 °C 71 % 1010,1 hPa 0,0 l/m² 11,3 km/h (2 Bft) W-SW 247 ° 0,000 mm 10,0 °C 12,8 °C 17,7 km/h (3 Bft) 100,00 %
06.05.2026 01:56 15,2 °C 71 % 1010,3 hPa 0,0 l/m² 14,5 km/h (3 Bft) S-SW 202 ° 0,000 mm 10,0 °C 11,6 °C 20,9 km/h (4 Bft) 100,00 %
06.05.2026 01:55 15,2 °C 71 % 1010,2 hPa 0,0 l/m² 9,7 km/h (2 Bft) W-SW 247 ° 0,000 mm 10,0 °C 13,5 °C 17,7 km/h (3 Bft) 100,00 %
06.05.2026 01:54 15,1 °C 71 % 1010,1 hPa 0,0 l/m² 11,3 km/h (2 Bft) SW 225 ° 0,000 mm 9,9 °C 12,7 °C 19,3 km/h (3 Bft) 100,00 %
06.05.2026 01:53 15,1 °C 72 % 1010,3 hPa 0,0 l/m² 9,7 km/h (2 Bft) W-SW 247 ° 0,000 mm 10,1 °C 13,4 °C 14,5 km/h (3 Bft) 95,65 %
06.05.2026 01:52 15,1 °C 72 % 1010,1 hPa 0,0 l/m² 11,3 km/h (2 Bft) W-SW 247 ° 0,000 mm 10,1 °C 12,7 °C 19,3 km/h (3 Bft) 100,00 %
06.05.2026 01:51 15,1 °C 72 % 1010,2 hPa 0,0 l/m² 8,0 km/h (2 Bft) W-SW 247 ° 0,000 mm 10,1 °C 14,2 °C 12,9 km/h (3 Bft) 100,00 %
06.05.2026 01:50 15,1 °C 72 % 1010,1 hPa 0,0 l/m² 11,3 km/h (2 Bft) W-SW 247 ° 0,000 mm 10,1 °C 12,7 °C 16,1 km/h (3 Bft) 100,00 %
06.05.2026 01:49 15,1 °C 72 % 1010,2 hPa 0,0 l/m² 11,3 km/h (2 Bft) SW 225 ° 0,000 mm 10,1 °C 12,7 °C 17,7 km/h (3 Bft) 100,00 %
06.05.2026 01:48 15,1 °C 72 % 1010,2 hPa 0,0 l/m² 8,0 km/h (2 Bft) W-SW 247 ° 0,000 mm 10,1 °C 14,2 °C 12,9 km/h (3 Bft) 100,00 %
06.05.2026 01:47 15,1 °C 72 % 1010,1 hPa 0,0 l/m² 9,7 km/h (2 Bft) W-SW 247 ° 0,000 mm 10,1 °C 13,4 °C 14,5 km/h (3 Bft) 100,00 %
06.05.2026 01:46 15,1 °C 72 % 1010,2 hPa 0,0 l/m² 12,9 km/h (3 Bft) W-SW 247 ° 0,000 mm 10,1 °C 12,0 °C 19,3 km/h (3 Bft) 100,00 %
06.05.2026 01:45 15,1 °C 72 % 1010,1 hPa 0,0 l/m² 9,7 km/h (2 Bft) SW 225 ° 0,000 mm 10,1 °C 13,4 °C 16,1 km/h (3 Bft) 100,00 %
06.05.2026 01:44 15,1 °C 72 % 1010,1 hPa 0,0 l/m² 9,7 km/h (2 Bft) W-SW 247 ° 0,000 mm 10,1 °C 13,4 °C 16,1 km/h (3 Bft) 100,00 %
06.05.2026 01:43 15,1 °C 72 % 1010,1 hPa 0,0 l/m² 8,0 km/h (2 Bft) W-SW 247 ° 0,000 mm 10,1 °C 14,2 °C 14,5 km/h (3 Bft) 100,00 %
06.05.2026 01:42 15,1 °C 72 % 1010,1 hPa 0,0 l/m² 11,3 km/h (2 Bft) SW 225 ° 0,000 mm 10,1 °C 12,7 °C 17,7 km/h (3 Bft) 100,00 %
06.05.2026 01:41 15,1 °C 72 % 1010,2 hPa 0,0 l/m² 11,3 km/h (2 Bft) W-SW 247 ° 0,000 mm 10,1 °C 12,7 °C 19,3 km/h (3 Bft) 100,00 %
06.05.2026 01:40 15,1 °C 72 % 1010,1 hPa 0,0 l/m² 12,9 km/h (3 Bft) W-SW 247 ° 0,000 mm 10,1 °C 12,0 °C 16,1 km/h (3 Bft) 100,00 %
06.05.2026 01:39 15,2 °C 72 % 1010,2 hPa 0,0 l/m² 11,3 km/h (2 Bft) W-SW 247 ° 0,000 mm 10,2 °C 12,8 °C 20,9 km/h (4 Bft) 95,65 %
06.05.2026 01:38 15,2 °C 73 % 1010,1 hPa 0,0 l/m² 9,7 km/h (2 Bft) W-SW 247 ° 0,000 mm 10,4 °C 13,5 °C 20,9 km/h (4 Bft) 100,00 %
06.05.2026 01:37 15,2 °C 73 % 1010,1 hPa 0,0 l/m² 8,0 km/h (2 Bft) W-SW 247 ° 0,000 mm 10,4 °C 14,3 °C 16,1 km/h (3 Bft) 100,00 %
06.05.2026 01:36 15,2 °C 73 % 1010,1 hPa 0,0 l/m² 9,7 km/h (2 Bft) SW 225 ° 0,000 mm 10,4 °C 13,5 °C 14,5 km/h (3 Bft) 95,65 %
06.05.2026 01:35 15,2 °C 73 % 1010,0 hPa 0,0 l/m² 11,3 km/h (2 Bft) W-SW 247 ° 0,000 mm 10,4 °C 12,8 °C 17,7 km/h (3 Bft) 100,00 %
06.05.2026 01:34 15,2 °C 73 % 1010,1 hPa 0,0 l/m² 12,9 km/h (3 Bft) W-SW 247 ° 0,000 mm 10,4 °C 12,2 °C 17,7 km/h (3 Bft) 100,00 %
06.05.2026 01:33 15,2 °C 73 % 1010,0 hPa 0,0 l/m² 12,9 km/h (3 Bft) SW 225 ° 0,000 mm 10,4 °C 12,2 °C 24,1 km/h (4 Bft) 100,00 %
06.05.2026 01:32 15,2 °C 73 % 1010,0 hPa 0,0 l/m² 14,5 km/h (3 Bft) W-SW 247 ° 0,000 mm 10,4 °C 11,6 °C 24,1 km/h (4 Bft) 100,00 %
06.05.2026 01:31 15,2 °C 73 % 1010,0 hPa 0,0 l/m² 9,7 km/h (2 Bft) W-SW 247 ° 0,000 mm 10,4 °C 13,5 °C 16,1 km/h (3 Bft) 100,00 %
06.05.2026 01:30 15,2 °C 73 % 1009,9 hPa 0,0 l/m² 8,0 km/h (2 Bft) W-SW 247 ° 0,000 mm 10,4 °C 14,3 °C 19,3 km/h (3 Bft) 100,00 %
06.05.2026 01:29 15,2 °C 73 % 1010,0 hPa 0,0 l/m² 12,9 km/h (3 Bft) W-SW 247 ° 0,000 mm 10,4 °C 12,2 °C 22,5 km/h (4 Bft) 100,00 %
06.05.2026 01:28 15,2 °C 73 % 1010,0 hPa 0,0 l/m² 9,7 km/h (2 Bft) W-SW 247 ° 0,000 mm 10,4 °C 13,5 °C 20,9 km/h (4 Bft) 100,00 %
06.05.2026 01:27 15,2 °C 73 % 1010,0 hPa 0,0 l/m² 14,5 km/h (3 Bft) W-SW 247 ° 0,000 mm 10,4 °C 11,6 °C 22,5 km/h (4 Bft) 100,00 %
06.05.2026 01:26 15,2 °C 73 % 1009,9 hPa 0,0 l/m² 9,7 km/h (2 Bft) W-SW 247 ° 0,000 mm 10,4 °C 13,5 °C 16,1 km/h (3 Bft) 100,00 %
06.05.2026 01:25 15,2 °C 73 % 1009,9 hPa 0,0 l/m² 4,8 km/h (1 Bft) W-SW 247 ° 0,000 mm 10,4 °C 15,2 °C 11,3 km/h (2 Bft) 95,65 %
06.05.2026 01:24 15,2 °C 73 % 1010,0 hPa 0,0 l/m² 9,7 km/h (2 Bft) W-SW 247 ° 0,000 mm 10,4 °C 13,5 °C 14,5 km/h (3 Bft) 100,00 %
06.05.2026 01:23 15,2 °C 73 % 1009,9 hPa 0,0 l/m² 9,7 km/h (2 Bft) W-SW 247 ° 0,000 mm 10,4 °C 13,5 °C 17,7 km/h (3 Bft) 100,00 %
06.05.2026 01:22 15,1 °C 73 % 1009,9 hPa 0,0 l/m² 8,0 km/h (2 Bft) SW 225 ° 0,000 mm 10,3 °C 14,2 °C 11,3 km/h (2 Bft) 100,00 %
06.05.2026 01:21 15,1 °C 73 % 1009,9 hPa 0,0 l/m² 8,0 km/h (2 Bft) W-SW 247 ° 0,000 mm 10,3 °C 14,2 °C 12,9 km/h (3 Bft) 100,00 %
06.05.2026 01:20 15,1 °C 73 % 1010,0 hPa 0,0 l/m² 11,3 km/h (2 Bft) SW 225 ° 0,000 mm 10,3 °C 12,7 °C 16,1 km/h (3 Bft) 100,00 %
06.05.2026 01:19 15,1 °C 73 % 1009,9 hPa 0,0 l/m² 9,7 km/h (2 Bft) SW 225 ° 0,000 mm 10,3 °C 13,4 °C 19,3 km/h (3 Bft) 100,00 %
06.05.2026 01:18 15,1 °C 74 % 1009,9 hPa 0,0 l/m² 8,0 km/h (2 Bft) SW 225 ° 0,000 mm 10,5 °C 14,2 °C 14,5 km/h (3 Bft) 100,00 %
06.05.2026 01:17 15,1 °C 74 % 1009,9 hPa 0,0 l/m² 9,7 km/h (2 Bft) W-SW 247 ° 0,000 mm 10,5 °C 13,4 °C 14,5 km/h (3 Bft) 95,65 %
06.05.2026 01:16 15,0 °C 74 % 1009,9 hPa 0,0 l/m² 11,3 km/h (2 Bft) SW 225 ° 0,000 mm 10,4 °C 12,6 °C 17,7 km/h (3 Bft) 100,00 %
06.05.2026 01:15 15,0 °C 74 % 1009,9 hPa 0,0 l/m² 8,0 km/h (2 Bft) W-SW 247 ° 0,000 mm 10,4 °C 14,1 °C 19,3 km/h (3 Bft) 95,65 %
06.05.2026 01:14 15,0 °C 74 % 1010,0 hPa 0,0 l/m² 6,4 km/h (2 Bft) W 270 ° 0,000 mm 10,4 °C 15,0 °C 16,1 km/h (3 Bft) 100,00 %
06.05.2026 01:13 14,9 °C 74 % 1009,8 hPa 0,0 l/m² 8,0 km/h (2 Bft) W-SW 247 ° 0,000 mm 10,3 °C 14,0 °C 14,5 km/h (3 Bft) 100,00 %
06.05.2026 01:12 14,9 °C 74 % 1009,8 hPa 0,0 l/m² 11,3 km/h (2 Bft) W-SW 247 ° 0,000 mm 10,3 °C 12,4 °C 17,7 km/h (3 Bft) 100,00 %
06.05.2026 01:11 14,9 °C 74 % 1009,9 hPa 0,0 l/m² 4,8 km/h (1 Bft) SW 225 ° 0,000 mm 10,3 °C 14,9 °C 11,3 km/h (2 Bft) 100,00 %
06.05.2026 01:10 14,9 °C 75 % 1009,9 hPa 0,0 l/m² 6,4 km/h (2 Bft) W-SW 247 ° 0,000 mm 10,5 °C 14,9 °C 12,9 km/h (3 Bft) 95,65 %
06.05.2026 01:09 14,9 °C 75 % 1009,9 hPa 0,0 l/m² 8,0 km/h (2 Bft) W-SW 247 ° 0,000 mm 10,5 °C 14,0 °C 12,9 km/h (3 Bft) 100,00 %
06.05.2026 01:08 14,9 °C 75 % 1009,9 hPa 0,0 l/m² 6,4 km/h (2 Bft) SW 225 ° 0,000 mm 10,5 °C 14,9 °C 9,7 km/h (2 Bft) 100,00 %
06.05.2026 01:07 14,9 °C 75 % 1009,8 hPa 0,0 l/m² 8,0 km/h (2 Bft) SW 225 ° 0,000 mm 10,5 °C 14,0 °C 9,7 km/h (2 Bft) 100,00 %
06.05.2026 01:06 14,8 °C 75 % 1009,8 hPa 0,0 l/m² 12,9 km/h (3 Bft) SW 225 ° 0,000 mm 10,4 °C 11,7 °C 19,3 km/h (3 Bft) 100,00 %
06.05.2026 01:05 14,8 °C 75 % 1009,9 hPa 0,0 l/m² 4,8 km/h (1 Bft) W-SW 247 ° 0,000 mm 10,4 °C 14,8 °C 11,3 km/h (2 Bft) 100,00 %
06.05.2026 01:04 14,8 °C 75 % 1009,8 hPa 0,0 l/m² 4,8 km/h (1 Bft) W-SW 247 ° 0,000 mm 10,4 °C 14,8 °C 6,4 km/h (2 Bft) 100,00 %
06.05.2026 01:03 14,8 °C 75 % 1009,8 hPa 0,0 l/m² 6,4 km/h (2 Bft) W-SW 247 ° 0,000 mm 10,4 °C 14,8 °C 11,3 km/h (2 Bft) 95,65 %
06.05.2026 01:02 14,8 °C 75 % 1009,8 hPa 0,0 l/m² 11,3 km/h (2 Bft) W-SW 247 ° 0,000 mm 10,4 °C 12,3 °C 17,7 km/h (3 Bft) 100,00 %
06.05.2026 01:01 14,8 °C 75 % 1009,6 hPa 0,0 l/m² 9,7 km/h (2 Bft) W-SW 247 ° 0,000 mm 10,4 °C 13,0 °C 17,7 km/h (3 Bft) 95,65 %
06.05.2026 01:00 14,8 °C 75 % 1009,6 hPa 0,0 l/m² 9,7 km/h (2 Bft) W-SW 247 ° 0,000 mm 10,4 °C 13,0 °C 17,7 km/h (3 Bft) 100,00 %
06.05.2026 00:59 14,8 °C 76 % 1009,6 hPa 0,0 l/m² 8,0 km/h (2 Bft) SW 225 ° 0,000 mm 10,6 °C 13,9 °C 14,5 km/h (3 Bft) 100,00 %
06.05.2026 00:58 14,8 °C 76 % 1009,7 hPa 0,0 l/m² 9,7 km/h (2 Bft) W-SW 247 ° 0,000 mm 10,6 °C 13,0 °C 14,5 km/h (3 Bft) 91,30 %
06.05.2026 00:57 14,8 °C 75 % 1009,5 hPa 0,0 l/m² 6,4 km/h (2 Bft) W-SW 247 ° 0,000 mm 10,4 °C 14,8 °C 12,9 km/h (3 Bft) 100,00 %
06.05.2026 00:56 14,7 °C 76 % 1009,5 hPa 0,0 l/m² 6,4 km/h (2 Bft) W-SW 247 ° 0,000 mm 10,5 °C 14,7 °C 11,3 km/h (2 Bft) 100,00 %
06.05.2026 00:55 14,7 °C 76 % 1009,6 hPa 0,0 l/m² 9,7 km/h (2 Bft) SW 225 ° 0,000 mm 10,5 °C 12,9 °C 14,5 km/h (3 Bft) 95,65 %
06.05.2026 00:54 14,7 °C 76 % 1009,7 hPa 0,0 l/m² 8,0 km/h (2 Bft) W-SW 247 ° 0,000 mm 10,5 °C 13,8 °C 14,5 km/h (3 Bft) 100,00 %
06.05.2026 00:53 14,7 °C 76 % 1009,6 hPa 0,0 l/m² 9,7 km/h (2 Bft) W 270 ° 0,000 mm 10,5 °C 12,9 °C 17,7 km/h (3 Bft) 100,00 %
06.05.2026 00:52 14,7 °C 76 % 1009,6 hPa 0,0 l/m² 11,3 km/h (2 Bft) W-SW 247 ° 0,000 mm 10,5 °C 12,2 °C 19,3 km/h (3 Bft) 100,00 %
06.05.2026 00:51 14,6 °C 76 % 1009,6 hPa 0,0 l/m² 6,4 km/h (2 Bft) SW 225 ° 0,000 mm 10,4 °C 14,6 °C 11,3 km/h (2 Bft) 100,00 %
06.05.2026 00:50 14,6 °C 76 % 1009,5 hPa 0,0 l/m² 9,7 km/h (2 Bft) S-SW 202 ° 0,000 mm 10,4 °C 12,8 °C 14,5 km/h (3 Bft) 100,00 %
06.05.2026 00:49 14,5 °C 76 % 1009,6 hPa 0,0 l/m² 9,7 km/h (2 Bft) SW 225 ° 0,000 mm 10,3 °C 12,7 °C 19,3 km/h (3 Bft) 100,00 %
06.05.2026 00:48 14,5 °C 76 % 1009,7 hPa 0,0 l/m² 11,3 km/h (2 Bft) W-SW 247 ° 0,000 mm 10,3 °C 12,0 °C 17,7 km/h (3 Bft) 100,00 %
06.05.2026 00:47 14,4 °C 76 % 1009,5 hPa 0,0 l/m² 8,0 km/h (2 Bft) W-SW 247 ° 0,000 mm 10,2 °C 13,5 °C 19,3 km/h (3 Bft) 100,00 %
06.05.2026 00:46 14,4 °C 77 % 1009,6 hPa 0,0 l/m² 8,0 km/h (2 Bft) SW 225 ° 0,000 mm 10,4 °C 13,5 °C 14,5 km/h (3 Bft) 100,00 %
06.05.2026 00:45 14,3 °C 77 % 1009,7 hPa 0,0 l/m² 8,0 km/h (2 Bft) SW 225 ° 0,000 mm 10,3 °C 13,4 °C 12,9 km/h (3 Bft) 100,00 %
06.05.2026 00:44 14,3 °C 77 % 1009,7 hPa 0,0 l/m² 11,3 km/h (2 Bft) SW 225 ° 0,000 mm 10,3 °C 11,8 °C 17,7 km/h (3 Bft) 100,00 %
06.05.2026 00:43 14,3 °C 77 % 1009,5 hPa 0,0 l/m² 11,3 km/h (2 Bft) W-SW 247 ° 0,000 mm 10,3 °C 11,8 °C 17,7 km/h (3 Bft) 95,65 %
06.05.2026 00:42 14,3 °C 77 % 1009,4 hPa 0,0 l/m² 6,4 km/h (2 Bft) W-SW 247 ° 0,000 mm 10,3 °C 14,3 °C 9,7 km/h (2 Bft) 100,00 %
06.05.2026 00:41 14,2 °C 77 % 1009,5 hPa 0,0 l/m² 9,7 km/h (2 Bft) SW 225 ° 0,000 mm 10,2 °C 12,4 °C 12,9 km/h (3 Bft) 100,00 %
06.05.2026 00:40 14,2 °C 77 % 1009,5 hPa 0,0 l/m² 6,4 km/h (2 Bft) W-SW 247 ° 0,000 mm 10,2 °C 14,2 °C 9,7 km/h (2 Bft) 100,00 %
06.05.2026 00:39 14,2 °C 77 % 1009,5 hPa 0,0 l/m² 8,0 km/h (2 Bft) W-SW 247 ° 0,000 mm 10,2 °C 13,3 °C 12,9 km/h (3 Bft) 95,65 %
06.05.2026 00:38 14,2 °C 77 % 1009,4 hPa 0,0 l/m² 8,0 km/h (2 Bft) SW 225 ° 0,000 mm 10,2 °C 13,3 °C 16,1 km/h (3 Bft) 100,00 %
06.05.2026 00:37 14,2 °C 77 % 1009,4 hPa 0,0 l/m² 6,4 km/h (2 Bft) SW 225 ° 0,000 mm 10,2 °C 14,2 °C 12,9 km/h (3 Bft) 100,00 %
06.05.2026 00:36 14,2 °C 77 % 1009,3 hPa 0,0 l/m² 3,2 km/h (1 Bft) W-SW 247 ° 0,000 mm 10,2 °C 14,2 °C 6,4 km/h (2 Bft) 100,00 %
06.05.2026 00:35 14,2 °C 77 % 1009,4 hPa 0,0 l/m² 3,2 km/h (1 Bft) W-SW 247 ° 0,000 mm 10,2 °C 14,2 °C 8,0 km/h (2 Bft) 100,00 %
06.05.2026 00:34 14,2 °C 77 % 1009,3 hPa 0,0 l/m² 3,2 km/h (1 Bft) W-SW 247 ° 0,000 mm 10,2 °C 14,2 °C 8,0 km/h (2 Bft) 100,00 %
06.05.2026 00:33 14,3 °C 77 % 1009,3 hPa 0,0 l/m² 4,8 km/h (1 Bft) W-SW 247 ° 0,000 mm 10,3 °C 14,3 °C 9,7 km/h (2 Bft) 100,00 %
06.05.2026 00:32 14,3 °C 77 % 1009,4 hPa 0,0 l/m² 4,8 km/h (1 Bft) W-SW 247 ° 0,000 mm 10,3 °C 14,3 °C 6,4 km/h (2 Bft) 100,00 %
06.05.2026 00:31 14,3 °C 77 % 1009,3 hPa 0,0 l/m² 4,8 km/h (1 Bft) W-SW 247 ° 0,000 mm 10,3 °C 14,3 °C 6,4 km/h (2 Bft) 95,65 %
06.05.2026 00:30 14,3 °C 77 % 1009,3 hPa 0,0 l/m² 4,8 km/h (1 Bft) SW 225 ° 0,000 mm 10,3 °C 14,3 °C 8,0 km/h (2 Bft) 100,00 %
06.05.2026 00:29 14,3 °C 77 % 1009,3 hPa 0,0 l/m² 6,4 km/h (2 Bft) SW 225 ° 0,000 mm 10,3 °C 14,3 °C 8,0 km/h (2 Bft) 95,65 %
06.05.2026 00:28 14,3 °C 77 % 1009,3 hPa 0,0 l/m² 4,8 km/h (1 Bft) W-SW 247 ° 0,000 mm 10,3 °C 14,3 °C 9,7 km/h (2 Bft) 100,00 %
06.05.2026 00:27 14,3 °C 77 % 1009,3 hPa 0,0 l/m² 6,4 km/h (2 Bft) W-SW 247 ° 0,000 mm 10,3 °C 14,3 °C 11,3 km/h (2 Bft) 95,65 %
06.05.2026 00:26 14,3 °C 76 % 1009,2 hPa 0,0 l/m² 4,8 km/h (1 Bft) W-SW 247 ° 0,000 mm 10,1 °C 14,3 °C 9,7 km/h (2 Bft) 100,00 %
06.05.2026 00:25 14,3 °C 76 % 1009,2 hPa 0,0 l/m² 4,8 km/h (1 Bft) W-SW 247 ° 0,000 mm 10,1 °C 14,3 °C 9,7 km/h (2 Bft) 100,00 %
06.05.2026 00:24 14,4 °C 76 % 1009,2 hPa 0,0 l/m² 3,2 km/h (1 Bft) SW 225 ° 0,000 mm 10,2 °C 14,4 °C 4,8 km/h (1 Bft) 100,00 %
06.05.2026 00:23 14,4 °C 76 % 1009,2 hPa 0,0 l/m² 3,2 km/h (1 Bft) SW 225 ° 0,000 mm 10,2 °C 14,4 °C 6,4 km/h (2 Bft) 100,00 %
06.05.2026 00:22 14,4 °C 76 % 1009,2 hPa 0,0 l/m² 4,8 km/h (1 Bft) W-SW 247 ° 0,000 mm 10,2 °C 14,4 °C 8,0 km/h (2 Bft) 100,00 %
06.05.2026 00:21 14,4 °C 76 % 1009,1 hPa 0,0 l/m² 4,8 km/h (1 Bft) SW 225 ° 0,000 mm 10,2 °C 14,4 °C 8,0 km/h (2 Bft) 100,00 %
06.05.2026 00:20 14,4 °C 76 % 1009,1 hPa 0,0 l/m² 6,4 km/h (2 Bft) W-SW 247 ° 0,000 mm 10,2 °C 14,4 °C 16,1 km/h (3 Bft) 100,00 %
06.05.2026 00:19 14,4 °C 76 % 1009,2 hPa 0,0 l/m² 8,0 km/h (2 Bft) SW 225 ° 0,000 mm 10,2 °C 13,5 °C 12,9 km/h (3 Bft) 100,00 %
06.05.2026 00:18 14,4 °C 76 % 1009,2 hPa 0,0 l/m² 6,4 km/h (2 Bft) W-SW 247 ° 0,000 mm 10,2 °C 14,4 °C 16,1 km/h (3 Bft) 100,00 %
06.05.2026 00:17 14,4 °C 76 % 1009,1 hPa 0,0 l/m² 4,8 km/h (1 Bft) SW 225 ° 0,000 mm 10,2 °C 14,4 °C 8,0 km/h (2 Bft) 100,00 %
06.05.2026 00:16 14,4 °C 76 % 1009,2 hPa 0,0 l/m² 6,4 km/h (2 Bft) W-SW 247 ° 0,000 mm 10,2 °C 14,4 °C 11,3 km/h (2 Bft) 100,00 %
06.05.2026 00:15 14,4 °C 75 % 1009,1 hPa 0,0 l/m² 6,4 km/h (2 Bft) W-SW 247 ° 0,000 mm 10,0 °C 14,4 °C 14,5 km/h (3 Bft) 100,00 %
06.05.2026 00:14 14,4 °C 75 % 1009,2 hPa 0,0 l/m² 8,0 km/h (2 Bft) SW 225 ° 0,000 mm 10,0 °C 13,5 °C 9,7 km/h (2 Bft) 100,00 %
06.05.2026 00:13 14,4 °C 75 % 1009,3 hPa 0,0 l/m² 4,8 km/h (1 Bft) W-SW 247 ° 0,000 mm 10,0 °C 14,4 °C 9,7 km/h (2 Bft) 100,00 %
06.05.2026 00:12 14,4 °C 75 % 1009,2 hPa 0,0 l/m² 6,4 km/h (2 Bft) SW 225 ° 0,000 mm 10,0 °C 14,4 °C 11,3 km/h (2 Bft) 100,00 %
06.05.2026 00:11 14,4 °C 75 % 1009,1 hPa 0,0 l/m² 6,4 km/h (2 Bft) SW 225 ° 0,000 mm 10,0 °C 14,4 °C 9,7 km/h (2 Bft) 100,00 %
06.05.2026 00:10 14,4 °C 75 % 1009,2 hPa 0,0 l/m² 6,4 km/h (2 Bft) SW 225 ° 0,000 mm 10,0 °C 14,4 °C 12,9 km/h (3 Bft) 100,00 %
06.05.2026 00:09 14,5 °C 74 % 1009,2 hPa 0,0 l/m² 6,4 km/h (2 Bft) W-SW 247 ° 0,000 mm 9,9 °C 14,5 °C 11,3 km/h (2 Bft) 100,00 %
06.05.2026 00:08 14,4 °C 74 % 1009,2 hPa 0,0 l/m² 6,4 km/h (2 Bft) SW 225 ° 0,000 mm 9,8 °C 14,4 °C 14,5 km/h (3 Bft) 95,65 %
06.05.2026 00:07 14,5 °C 74 % 1009,1 hPa 0,0 l/m² 6,4 km/h (2 Bft) W-SW 247 ° 0,000 mm 9,9 °C 14,5 °C 9,7 km/h (2 Bft) 100,00 %
06.05.2026 00:06 14,6 °C 73 % 1009,1 hPa 0,0 l/m² 6,4 km/h (2 Bft) W-SW 247 ° 0,000 mm 9,8 °C 14,6 °C 9,7 km/h (2 Bft) 100,00 %
06.05.2026 00:05 14,6 °C 73 % 1009,0 hPa 0,0 l/m² 4,8 km/h (1 Bft) W-SW 247 ° 0,000 mm 9,8 °C 14,6 °C 9,7 km/h (2 Bft) 100,00 %
06.05.2026 00:04 14,6 °C 73 % 1009,1 hPa 0,0 l/m² 8,0 km/h (2 Bft) W-SW 247 ° 0,000 mm 9,8 °C 13,7 °C 11,3 km/h (2 Bft) 100,00 %
06.05.2026 00:03 14,6 °C 73 % 1009,0 hPa 0,0 l/m² 6,4 km/h (2 Bft) W-SW 247 ° 0,000 mm 9,8 °C 14,6 °C 9,7 km/h (2 Bft) 100,00 %
06.05.2026 00:02 14,7 °C 72 % 1009,0 hPa 0,0 l/m² 1,6 km/h (1 Bft) W-SW 247 ° 0,000 mm 9,7 °C 14,7 °C 3,2 km/h (1 Bft) 100,00 %
06.05.2026 00:01 14,7 °C 72 % 1008,9 hPa 0,0 l/m² 0,0 km/h (0 Bft) W-SW 247 ° 0,000 mm 9,7 °C 14,7 °C 1,6 km/h (1 Bft) 100,00 %
06.05.2026 00:00 14,8 °C 72 % 1009,0 hPa 0,0 l/m² 1,6 km/h (1 Bft) W-SW 247 ° 0,000 mm 9,8 °C 14,8 °C 4,8 km/h (1 Bft) 95,65 %
05.05.2026 23:59 14,8 °C 72 % 1008,8 hPa 0,0 l/m² 3,2 km/h (1 Bft) W 270 ° 0,000 mm 9,8 °C 14,8 °C 4,8 km/h (1 Bft) 100,00 %
05.05.2026 23:58 14,8 °C 72 % 1008,9 hPa 0,0 l/m² 1,6 km/h (1 Bft) W 270 ° 0,000 mm 9,8 °C 14,8 °C 3,2 km/h (1 Bft) 100,00 %
05.05.2026 23:57 14,8 °C 72 % 1008,9 hPa 0,0 l/m² 0,0 km/h (0 Bft) W-SW 247 ° 0,000 mm 9,8 °C 14,8 °C 3,2 km/h (1 Bft) 95,65 %
05.05.2026 23:56 14,8 °C 72 % 1008,8 hPa 0,0 l/m² 0,0 km/h (0 Bft) W-SW 247 ° 0,000 mm 9,8 °C 14,8 °C 1,6 km/h (1 Bft) 100,00 %
05.05.2026 23:55 14,9 °C 72 % 1008,8 hPa 0,0 l/m² 1,6 km/h (1 Bft) W 270 ° 0,000 mm 9,9 °C 14,9 °C 3,2 km/h (1 Bft) 95,65 %
05.05.2026 23:54 14,9 °C 71 % 1008,8 hPa 0,0 l/m² 0,0 km/h (0 Bft) W 270 ° 0,000 mm 9,7 °C 14,9 °C 1,6 km/h (1 Bft) 100,00 %
05.05.2026 23:53 14,9 °C 71 % 1008,8 hPa 0,0 l/m² 1,6 km/h (1 Bft) W 270 ° 0,000 mm 9,7 °C 14,9 °C 3,2 km/h (1 Bft) 100,00 %
05.05.2026 23:52 15,0 °C 71 % 1008,7 hPa 0,0 l/m² 1,6 km/h (1 Bft) W 270 ° 0,000 mm 9,8 °C 15,0 °C 3,2 km/h (1 Bft) 95,65 %
05.05.2026 23:51 15,1 °C 71 % 1008,7 hPa 0,0 l/m² 0,0 km/h (0 Bft) W-SW 247 ° 0,000 mm 9,9 °C 15,1 °C 1,6 km/h (1 Bft) 100,00 %
05.05.2026 23:50 15,1 °C 71 % 1008,7 hPa 0,0 l/m² 0,0 km/h (0 Bft) W-SW 247 ° 0,000 mm 9,9 °C 15,1 °C 1,6 km/h (1 Bft) 100,00 %
05.05.2026 23:49 15,1 °C 71 % 1008,7 hPa 0,0 l/m² 1,6 km/h (1 Bft) W-SW 247 ° 0,000 mm 9,9 °C 15,1 °C 3,2 km/h (1 Bft) 100,00 %
05.05.2026 23:48 15,2 °C 70 % 1008,7 hPa 0,0 l/m² 0,0 km/h (0 Bft) W 270 ° 0,000 mm 9,8 °C 15,2 °C 1,6 km/h (1 Bft) 100,00 %
05.05.2026 23:47 15,2 °C 70 % 1008,7 hPa 0,0 l/m² 1,6 km/h (1 Bft) W-SW 247 ° 0,000 mm 9,8 °C 15,2 °C 3,2 km/h (1 Bft) 95,65 %
05.05.2026 23:46 15,2 °C 70 % 1008,7 hPa 0,0 l/m² 1,6 km/h (1 Bft) W-SW 247 ° 0,000 mm 9,8 °C 15,2 °C 3,2 km/h (1 Bft) 100,00 %
05.05.2026 23:45 15,3 °C 70 % 1008,7 hPa 0,0 l/m² 1,6 km/h (1 Bft) W-SW 247 ° 0,000 mm 9,9 °C 15,3 °C 3,2 km/h (1 Bft) 95,65 %
05.05.2026 23:44 15,3 °C 70 % 1008,6 hPa 0,0 l/m² 1,6 km/h (1 Bft) W-SW 247 ° 0,000 mm 9,9 °C 15,3 °C 3,2 km/h (1 Bft) 100,00 %
05.05.2026 23:43 15,3 °C 70 % 1008,6 hPa 0,0 l/m² 1,6 km/h (1 Bft) W-SW 247 ° 0,000 mm 9,9 °C 15,3 °C 3,2 km/h (1 Bft) 100,00 %
05.05.2026 23:42 15,3 °C 70 % 1008,6 hPa 0,0 l/m² 1,6 km/h (1 Bft) W-SW 247 ° 0,000 mm 9,9 °C 15,3 °C 3,2 km/h (1 Bft) 100,00 %
05.05.2026 23:41 15,3 °C 70 % 1008,5 hPa 0,0 l/m² 1,6 km/h (1 Bft) W-SW 247 ° 0,000 mm 9,9 °C 15,3 °C 3,2 km/h (1 Bft) 100,00 %
05.05.2026 23:40 15,3 °C 70 % 1008,6 hPa 0,0 l/m² 1,6 km/h (1 Bft) W-SW 247 ° 0,000 mm 9,9 °C 15,3 °C 3,2 km/h (1 Bft) 100,00 %
05.05.2026 23:39 15,3 °C 70 % 1008,7 hPa 0,0 l/m² 1,6 km/h (1 Bft) W-SW 247 ° 0,000 mm 9,9 °C 15,3 °C 3,2 km/h (1 Bft) 100,00 %
05.05.2026 23:38 15,3 °C 70 % 1008,6 hPa 0,0 l/m² 0,0 km/h (0 Bft) W-SW 247 ° 0,000 mm 9,9 °C 15,3 °C 1,6 km/h (1 Bft) 100,00 %
05.05.2026 23:37 15,3 °C 70 % 1008,6 hPa 0,0 l/m² 1,6 km/h (1 Bft) W-SW 247 ° 0,000 mm 9,9 °C 15,3 °C 3,2 km/h (1 Bft) 100,00 %
05.05.2026 23:36 15,4 °C 70 % 1008,5 hPa 0,0 l/m² 1,6 km/h (1 Bft) W-SW 247 ° 0,000 mm 10,0 °C 15,4 °C 4,8 km/h (1 Bft) 95,65 %
05.05.2026 23:35 15,4 °C 70 % 1008,5 hPa 0,0 l/m² 3,2 km/h (1 Bft) W-SW 247 ° 0,000 mm 10,0 °C 15,4 °C 6,4 km/h (2 Bft) 100,00 %
05.05.2026 23:34 15,3 °C 70 % 1008,5 hPa 0,0 l/m² 1,6 km/h (1 Bft) W-SW 247 ° 0,000 mm 9,9 °C 15,3 °C 4,8 km/h (1 Bft) 100,00 %
05.05.2026 23:33 15,3 °C 70 % 1008,6 hPa 0,0 l/m² 3,2 km/h (1 Bft) W-SW 247 ° 0,000 mm 9,9 °C 15,3 °C 4,8 km/h (1 Bft) 100,00 %
05.05.2026 23:32 15,3 °C 70 % 1008,6 hPa 0,0 l/m² 4,8 km/h (1 Bft) W-SW 247 ° 0,000 mm 9,9 °C 15,3 °C 6,4 km/h (2 Bft) 100,00 %
05.05.2026 23:31 15,3 °C 70 % 1008,6 hPa 0,0 l/m² 3,2 km/h (1 Bft) W-SW 247 ° 0,000 mm 9,9 °C 15,3 °C 4,8 km/h (1 Bft) 100,00 %
05.05.2026 23:30 15,3 °C 70 % 1008,5 hPa 0,0 l/m² 3,2 km/h (1 Bft) W-SW 247 ° 0,000 mm 9,9 °C 15,3 °C 6,4 km/h (2 Bft) 100,00 %
05.05.2026 23:29 15,3 °C 70 % 1008,6 hPa 0,0 l/m² 1,6 km/h (1 Bft) W-SW 247 ° 0,000 mm 9,9 °C 15,3 °C 3,2 km/h (1 Bft) 100,00 %
05.05.2026 23:28 15,3 °C 70 % 1008,5 hPa 0,0 l/m² 1,6 km/h (1 Bft) W-SW 247 ° 0,000 mm 9,9 °C 15,3 °C 4,8 km/h (1 Bft) 95,65 %
05.05.2026 23:27 15,3 °C 70 % 1008,6 hPa 0,0 l/m² 3,2 km/h (1 Bft) W-SW 247 ° 0,000 mm 9,9 °C 15,3 °C 4,8 km/h (1 Bft) 100,00 %
05.05.2026 23:26 15,3 °C 70 % 1008,5 hPa 0,0 l/m² 3,2 km/h (1 Bft) W-SW 247 ° 0,000 mm 9,9 °C 15,3 °C 4,8 km/h (1 Bft) 100,00 %
05.05.2026 23:25 15,3 °C 70 % 1008,5 hPa 0,0 l/m² 1,6 km/h (1 Bft) W-SW 247 ° 0,000 mm 9,9 °C 15,3 °C 3,2 km/h (1 Bft) 95,65 %
05.05.2026 23:24 15,3 °C 70 % 1008,5 hPa 0,0 l/m² 1,6 km/h (1 Bft) W-SW 247 ° 0,000 mm 9,9 °C 15,3 °C 3,2 km/h (1 Bft) 100,00 %
05.05.2026 23:23 15,3 °C 70 % 1008,5 hPa 0,0 l/m² 1,6 km/h (1 Bft) W-SW 247 ° 0,000 mm 9,9 °C 15,3 °C 3,2 km/h (1 Bft) 100,00 %
05.05.2026 23:22 15,3 °C 70 % 1008,5 hPa 0,0 l/m² 0,0 km/h (0 Bft) W-SW 247 ° 0,000 mm 9,9 °C 15,3 °C 3,2 km/h (1 Bft) 100,00 %
05.05.2026 23:21 15,3 °C 70 % 1008,5 hPa 0,0 l/m² 0,0 km/h (0 Bft) W-SW 247 ° 0,000 mm 9,9 °C 15,3 °C 1,6 km/h (1 Bft) 100,00 %
05.05.2026 23:20 15,3 °C 70 % 1008,5 hPa 0,0 l/m² 1,6 km/h (1 Bft) W-SW 247 ° 0,000 mm 9,9 °C 15,3 °C 3,2 km/h (1 Bft) 100,00 %
05.05.2026 23:19 15,3 °C 70 % 1008,6 hPa 0,0 l/m² 0,0 km/h (0 Bft) W-SW 247 ° 0,000 mm 9,9 °C 15,3 °C 1,6 km/h (1 Bft) 100,00 %
05.05.2026 23:18 15,3 °C 70 % 1008,5 hPa 0,0 l/m² 1,6 km/h (1 Bft) W-SW 247 ° 0,000 mm 9,9 °C 15,3 °C 4,8 km/h (1 Bft) 100,00 %
05.05.2026 23:17 15,3 °C 70 % 1008,5 hPa 0,0 l/m² 3,2 km/h (1 Bft) W-SW 247 ° 0,000 mm 9,9 °C 15,3 °C 6,4 km/h (2 Bft) 100,00 %
05.05.2026 23:16 15,3 °C 70 % 1008,5 hPa 0,0 l/m² 1,6 km/h (1 Bft) W 270 ° 0,000 mm 9,9 °C 15,3 °C 4,8 km/h (1 Bft) 100,00 %
05.05.2026 23:15 15,3 °C 70 % 1008,5 hPa 0,0 l/m² 1,6 km/h (1 Bft) W 270 ° 0,000 mm 9,9 °C 15,3 °C 1,6 km/h (1 Bft) 100,00 %
05.05.2026 23:14 15,4 °C 70 % 1008,6 hPa 0,0 l/m² 0,0 km/h (0 Bft) W 270 ° 0,000 mm 10,0 °C 15,4 °C 1,6 km/h (1 Bft) 100,00 %
05.05.2026 23:13 15,4 °C 70 % 1008,6 hPa 0,0 l/m² 1,6 km/h (1 Bft) W 270 ° 0,000 mm 10,0 °C 15,4 °C 4,8 km/h (1 Bft) 100,00 %
05.05.2026 23:12 15,4 °C 70 % 1008,5 hPa 0,0 l/m² 1,6 km/h (1 Bft) W 270 ° 0,000 mm 10,0 °C 15,4 °C 4,8 km/h (1 Bft) 100,00 %
05.05.2026 23:11 15,4 °C 70 % 1008,6 hPa 0,0 l/m² 1,6 km/h (1 Bft) W 270 ° 0,000 mm 10,0 °C 15,4 °C 4,8 km/h (1 Bft) 100,00 %
05.05.2026 23:10 15,5 °C 70 % 1008,5 hPa 0,0 l/m² 1,6 km/h (1 Bft) W 270 ° 0,000 mm 10,1 °C 15,5 °C 3,2 km/h (1 Bft) 100,00 %
05.05.2026 23:09 15,6 °C 70 % 1008,5 hPa 0,0 l/m² 1,6 km/h (1 Bft) W 270 ° 0,000 mm 10,1 °C 15,6 °C 3,2 km/h (1 Bft) 100,00 %
05.05.2026 23:08 15,6 °C 69 % 1008,4 hPa 0,0 l/m² 1,6 km/h (1 Bft) W 270 ° 0,000 mm 9,9 °C 15,6 °C 3,2 km/h (1 Bft) 100,00 %
05.05.2026 23:07 15,7 °C 69 % 1008,4 hPa 0,0 l/m² 1,6 km/h (1 Bft) W 270 ° 0,000 mm 10,0 °C 15,7 °C 4,8 km/h (1 Bft) 95,65 %
05.05.2026 23:06 15,7 °C 69 % 1008,3 hPa 0,0 l/m² 1,6 km/h (1 Bft) W 270 ° 0,000 mm 10,0 °C 15,7 °C 3,2 km/h (1 Bft) 100,00 %
05.05.2026 23:05 15,7 °C 69 % 1008,4 hPa 0,0 l/m² 1,6 km/h (1 Bft) W 270 ° 0,000 mm 10,0 °C 15,7 °C 3,2 km/h (1 Bft) 100,00 %
05.05.2026 23:04 15,7 °C 69 % 1008,3 hPa 0,0 l/m² 4,8 km/h (1 Bft) W-SW 247 ° 0,000 mm 10,0 °C 15,7 °C 8,0 km/h (2 Bft) 95,65 %
05.05.2026 23:03 15,7 °C 69 % 1008,2 hPa 0,0 l/m² 1,6 km/h (1 Bft) W-SW 247 ° 0,000 mm 10,0 °C 15,7 °C 3,2 km/h (1 Bft) 100,00 %
05.05.2026 23:02 15,7 °C 69 % 1008,3 hPa 0,0 l/m² 1,6 km/h (1 Bft) W-SW 247 ° 0,000 mm 10,0 °C 15,7 °C 4,8 km/h (1 Bft) 95,65 %
05.05.2026 23:01 15,7 °C 69 % 1008,2 hPa 0,0 l/m² 0,0 km/h (0 Bft) W-SW 247 ° 0,000 mm 10,0 °C 15,7 °C 1,6 km/h (1 Bft) 100,00 %
05.05.2026 23:00 15,7 °C 69 % 1008,2 hPa 0,0 l/m² 3,2 km/h (1 Bft) W-SW 247 ° 0,000 mm 10,0 °C 15,7 °C 6,4 km/h (2 Bft) 100,00 %
05.05.2026 22:59 15,7 °C 69 % 1008,2 hPa 0,0 l/m² 1,6 km/h (1 Bft) W-SW 247 ° 0,000 mm 10,0 °C 15,7 °C 4,8 km/h (1 Bft) 95,65 %
05.05.2026 22:58 15,7 °C 69 % 1008,2 hPa 0,0 l/m² 1,6 km/h (1 Bft) W-SW 247 ° 0,000 mm 10,0 °C 15,7 °C 3,2 km/h (1 Bft) 100,00 %
05.05.2026 22:57 15,7 °C 69 % 1008,2 hPa 0,0 l/m² 3,2 km/h (1 Bft) W-SW 247 ° 0,000 mm 10,0 °C 15,7 °C 8,0 km/h (2 Bft) 100,00 %
05.05.2026 22:56 15,8 °C 69 % 1008,2 hPa 0,0 l/m² 4,8 km/h (1 Bft) W-SW 247 ° 0,000 mm 10,1 °C 15,8 °C 8,0 km/h (2 Bft) 100,00 %
05.05.2026 22:55 15,8 °C 69 % 1008,2 hPa 0,0 l/m² 4,8 km/h (1 Bft) W-SW 247 ° 0,000 mm 10,1 °C 15,8 °C 8,0 km/h (2 Bft) 100,00 %
05.05.2026 22:54 15,8 °C 69 % 1008,3 hPa 0,0 l/m² 1,6 km/h (1 Bft) W-SW 247 ° 0,000 mm 10,1 °C 15,8 °C 6,4 km/h (2 Bft) 95,65 %
05.05.2026 22:53 15,8 °C 69 % 1008,2 hPa 0,0 l/m² 3,2 km/h (1 Bft) W-SW 247 ° 0,000 mm 10,1 °C 15,8 °C 4,8 km/h (1 Bft) 100,00 %
05.05.2026 22:52 15,8 °C 69 % 1008,1 hPa 0,0 l/m² 4,8 km/h (1 Bft) W-SW 247 ° 0,000 mm 10,1 °C 15,8 °C 8,0 km/h (2 Bft) 100,00 %
05.05.2026 22:51 15,9 °C 69 % 1008,2 hPa 0,0 l/m² 6,4 km/h (2 Bft) W-SW 247 ° 0,000 mm 10,2 °C 15,9 °C 8,0 km/h (2 Bft) 100,00 %
05.05.2026 22:50 15,9 °C 69 % 1008,1 hPa 0,0 l/m² 4,8 km/h (1 Bft) SW 225 ° 0,000 mm 10,2 °C 15,9 °C 9,7 km/h (2 Bft) 100,00 %
05.05.2026 22:49 15,9 °C 69 % 1008,2 hPa 0,0 l/m² 4,8 km/h (1 Bft) W-SW 247 ° 0,000 mm 10,2 °C 15,9 °C 8,0 km/h (2 Bft) 100,00 %
05.05.2026 22:48 15,9 °C 69 % 1008,0 hPa 0,0 l/m² 4,8 km/h (1 Bft) W-SW 247 ° 0,000 mm 10,2 °C 15,9 °C 9,7 km/h (2 Bft) 100,00 %
05.05.2026 22:47 15,9 °C 69 % 1008,1 hPa 0,0 l/m² 3,2 km/h (1 Bft) W-SW 247 ° 0,000 mm 10,2 °C 15,9 °C 6,4 km/h (2 Bft) 95,65 %
05.05.2026 22:46 15,9 °C 69 % 1008,1 hPa 0,0 l/m² 4,8 km/h (1 Bft) W-SW 247 ° 0,000 mm 10,2 °C 15,9 °C 9,7 km/h (2 Bft) 100,00 %
05.05.2026 22:45 15,9 °C 69 % 1008,0 hPa 0,0 l/m² 6,4 km/h (2 Bft) W-SW 247 ° 0,000 mm 10,2 °C 15,9 °C 9,7 km/h (2 Bft) 95,65 %
05.05.2026 22:44 15,9 °C 69 % 1008,0 hPa 0,0 l/m² 6,4 km/h (2 Bft) SW 225 ° 0,000 mm 10,2 °C 15,9 °C 9,7 km/h (2 Bft) 100,00 %
05.05.2026 22:43 15,9 °C 69 % 1007,9 hPa 0,0 l/m² 4,8 km/h (1 Bft) W-SW 247 ° 0,000 mm 10,2 °C 15,9 °C 9,7 km/h (2 Bft) 100,00 %
05.05.2026 22:42 15,9 °C 69 % 1007,9 hPa 0,0 l/m² 6,4 km/h (2 Bft) W-SW 247 ° 0,000 mm 10,2 °C 15,9 °C 9,7 km/h (2 Bft) 100,00 %
05.05.2026 22:41 15,9 °C 69 % 1007,9 hPa 0,0 l/m² 6,4 km/h (2 Bft) W-SW 247 ° 0,000 mm 10,2 °C 15,9 °C 9,7 km/h (2 Bft) 100,00 %
05.05.2026 22:40 15,9 °C 69 % 1007,9 hPa 0,0 l/m² 4,8 km/h (1 Bft) W-SW 247 ° 0,000 mm 10,2 °C 15,9 °C 9,7 km/h (2 Bft) 100,00 %
05.05.2026 22:39 15,9 °C 69 % 1007,9 hPa 0,0 l/m² 4,8 km/h (1 Bft) W-SW 247 ° 0,000 mm 10,2 °C 15,9 °C 9,7 km/h (2 Bft) 100,00 %
05.05.2026 22:38 15,9 °C 69 % 1008,0 hPa 0,0 l/m² 6,4 km/h (2 Bft) W-SW 247 ° 0,000 mm 10,2 °C 15,9 °C 12,9 km/h (3 Bft) 100,00 %
05.05.2026 22:37 15,9 °C 69 % 1007,9 hPa 0,0 l/m² 6,4 km/h (2 Bft) W-SW 247 ° 0,000 mm 10,2 °C 15,9 °C 11,3 km/h (2 Bft) 95,65 %
05.05.2026 22:36 15,9 °C 69 % 1007,9 hPa 0,0 l/m² 8,0 km/h (2 Bft) W-SW 247 ° 0,000 mm 10,2 °C 15,0 °C 9,7 km/h (2 Bft) 100,00 %
05.05.2026 22:35 15,9 °C 69 % 1007,9 hPa 0,0 l/m² 6,4 km/h (2 Bft) W-SW 247 ° 0,000 mm 10,2 °C 15,9 °C 11,3 km/h (2 Bft) 100,00 %
05.05.2026 22:34 16,0 °C 69 % 1007,9 hPa 0,0 l/m² 6,4 km/h (2 Bft) W-SW 247 ° 0,000 mm 10,3 °C 16,0 °C 8,0 km/h (2 Bft) 100,00 %
05.05.2026 22:33 15,9 °C 69 % 1007,9 hPa 0,0 l/m² 6,4 km/h (2 Bft) W-SW 247 ° 0,000 mm 10,2 °C 15,9 °C 11,3 km/h (2 Bft) 95,65 %
05.05.2026 22:32 16,0 °C 69 % 1007,9 hPa 0,0 l/m² 3,2 km/h (1 Bft) W-SW 247 ° 0,000 mm 10,3 °C 16,0 °C 6,4 km/h (2 Bft) 100,00 %
05.05.2026 22:31 16,0 °C 69 % 1007,9 hPa 0,0 l/m² 8,0 km/h (2 Bft) W-SW 247 ° 0,000 mm 10,3 °C 15,2 °C 12,9 km/h (3 Bft) 100,00 %
05.05.2026 22:30 16,1 °C 69 % 1007,9 hPa 0,0 l/m² 8,0 km/h (2 Bft) W-SW 247 ° 0,000 mm 10,4 °C 15,3 °C 16,1 km/h (3 Bft) 100,00 %
05.05.2026 22:29 16,1 °C 69 % 1007,9 hPa 0,0 l/m² 3,2 km/h (1 Bft) W-SW 247 ° 0,000 mm 10,4 °C 16,1 °C 11,3 km/h (2 Bft) 100,00 %
05.05.2026 22:28 16,1 °C 69 % 1007,8 hPa 0,0 l/m² 8,0 km/h (2 Bft) W-SW 247 ° 0,000 mm 10,4 °C 15,3 °C 11,3 km/h (2 Bft) 100,00 %
05.05.2026 22:27 16,1 °C 69 % 1007,8 hPa 0,0 l/m² 4,8 km/h (1 Bft) W-SW 247 ° 0,000 mm 10,4 °C 16,1 °C 11,3 km/h (2 Bft) 100,00 %
05.05.2026 22:26 16,1 °C 69 % 1007,8 hPa 0,0 l/m² 6,4 km/h (2 Bft) W-SW 247 ° 0,000 mm 10,4 °C 16,1 °C 11,3 km/h (2 Bft) 100,00 %
05.05.2026 22:25 16,1 °C 69 % 1007,8 hPa 0,0 l/m² 8,0 km/h (2 Bft) W-SW 247 ° 0,000 mm 10,4 °C 15,3 °C 11,3 km/h (2 Bft) 100,00 %
05.05.2026 22:24 16,1 °C 69 % 1007,8 hPa 0,0 l/m² 8,0 km/h (2 Bft) W-SW 247 ° 0,000 mm 10,4 °C 15,3 °C 12,9 km/h (3 Bft) 100,00 %
05.05.2026 22:23 16,1 °C 69 % 1007,9 hPa 0,0 l/m² 6,4 km/h (2 Bft) W-SW 247 ° 0,000 mm 10,4 °C 16,1 °C 9,7 km/h (2 Bft) 100,00 %
05.05.2026 22:22 16,1 °C 69 % 1007,8 hPa 0,0 l/m² 8,0 km/h (2 Bft) SW 225 ° 0,000 mm 10,4 °C 15,3 °C 12,9 km/h (3 Bft) 100,00 %
05.05.2026 22:21 16,1 °C 69 % 1007,8 hPa 0,0 l/m² 6,4 km/h (2 Bft) W-SW 247 ° 0,000 mm 10,4 °C 16,1 °C 12,9 km/h (3 Bft) 100,00 %
05.05.2026 22:20 16,1 °C 69 % 1007,8 hPa 0,0 l/m² 6,4 km/h (2 Bft) SW 225 ° 0,000 mm 10,4 °C 16,1 °C 9,7 km/h (2 Bft) 100,00 %
05.05.2026 22:19 16,1 °C 69 % 1007,8 hPa 0,0 l/m² 3,2 km/h (1 Bft) SW 225 ° 0,000 mm 10,4 °C 16,1 °C 4,8 km/h (1 Bft) 100,00 %
05.05.2026 22:18 16,1 °C 69 % 1007,8 hPa 0,0 l/m² 6,4 km/h (2 Bft) SW 225 ° 0,000 mm 10,4 °C 16,1 °C 8,0 km/h (2 Bft) 100,00 %
05.05.2026 22:17 16,1 °C 70 % 1007,8 hPa 0,0 l/m² 4,8 km/h (1 Bft) SW 225 ° 0,000 mm 10,6 °C 16,1 °C 9,7 km/h (2 Bft) 100,00 %
05.05.2026 22:16 16,1 °C 70 % 1007,8 hPa 0,0 l/m² 4,8 km/h (1 Bft) SW 225 ° 0,000 mm 10,6 °C 16,1 °C 6,4 km/h (2 Bft) 100,00 %
05.05.2026 22:15 16,1 °C 70 % 1007,8 hPa 0,0 l/m² 6,4 km/h (2 Bft) W-SW 247 ° 0,000 mm 10,6 °C 16,1 °C 8,0 km/h (2 Bft) 100,00 %
05.05.2026 22:14 16,1 °C 70 % 1007,8 hPa 0,0 l/m² 4,8 km/h (1 Bft) W-SW 247 ° 0,000 mm 10,6 °C 16,1 °C 8,0 km/h (2 Bft) 95,65 %
05.05.2026 22:13 16,0 °C 70 % 1007,7 hPa 0,0 l/m² 4,8 km/h (1 Bft) SW 225 ° 0,000 mm 10,5 °C 16,0 °C 8,0 km/h (2 Bft) 100,00 %
05.05.2026 22:12 15,9 °C 70 % 1007,7 hPa 0,0 l/m² 3,2 km/h (1 Bft) W-SW 247 ° 0,000 mm 10,4 °C 15,9 °C 6,4 km/h (2 Bft) 100,00 %
05.05.2026 22:11 16,0 °C 71 % 1007,7 hPa 0,0 l/m² 3,2 km/h (1 Bft) W-SW 247 ° 0,000 mm 10,7 °C 16,0 °C 3,2 km/h (1 Bft) 100,00 %
05.05.2026 22:10 15,9 °C 70 % 1007,6 hPa 0,0 l/m² 4,8 km/h (1 Bft) W-SW 247 ° 0,000 mm 10,4 °C 15,9 °C 9,7 km/h (2 Bft) 100,00 %
05.05.2026 22:09 16,0 °C 71 % 1007,6 hPa 0,0 l/m² 3,2 km/h (1 Bft) SW 225 ° 0,000 mm 10,7 °C 16,0 °C 4,8 km/h (1 Bft) 100,00 %
05.05.2026 22:08 16,0 °C 71 % 1007,5 hPa 0,0 l/m² 3,2 km/h (1 Bft) W-SW 247 ° 0,000 mm 10,7 °C 16,0 °C 4,8 km/h (1 Bft) 100,00 %
05.05.2026 22:07 16,0 °C 70 % 1007,6 hPa 0,0 l/m² 4,8 km/h (1 Bft) SW 225 ° 0,000 mm 10,5 °C 16,0 °C 8,0 km/h (2 Bft) 100,00 %
05.05.2026 22:06 16,0 °C 71 % 1007,6 hPa 0,0 l/m² 6,4 km/h (2 Bft) S-SW 202 ° 0,000 mm 10,7 °C 16,0 °C 9,7 km/h (2 Bft) 100,00 %
05.05.2026 22:05 16,1 °C 71 % 1007,5 hPa 0,0 l/m² 4,8 km/h (1 Bft) SW 225 ° 0,000 mm 10,8 °C 16,1 °C 9,7 km/h (2 Bft) 100,00 %
05.05.2026 22:04 16,1 °C 71 % 1007,4 hPa 0,0 l/m² 4,8 km/h (1 Bft) SW 225 ° 0,000 mm 10,8 °C 16,1 °C 6,4 km/h (2 Bft) 95,65 %
05.05.2026 22:03 16,1 °C 70 % 1007,4 hPa 0,0 l/m² 6,4 km/h (2 Bft) W-SW 247 ° 0,000 mm 10,6 °C 16,1 °C 8,0 km/h (2 Bft) 100,00 %
05.05.2026 22:02 16,1 °C 71 % 1007,5 hPa 0,0 l/m² 4,8 km/h (1 Bft) W-SW 247 ° 0,000 mm 10,8 °C 16,1 °C 9,7 km/h (2 Bft) 100,00 %
05.05.2026 22:01 16,1 °C 70 % 1007,5 hPa 0,0 l/m² 4,8 km/h (1 Bft) W-SW 247 ° 0,000 mm 10,6 °C 16,1 °C 8,0 km/h (2 Bft) 100,00 %
05.05.2026 22:00 16,1 °C 70 % 1007,6 hPa 0,0 l/m² 8,0 km/h (2 Bft) SW 225 ° 0,000 mm 10,6 °C 15,3 °C 11,3 km/h (2 Bft) 100,00 %
05.05.2026 21:59 16,1 °C 71 % 1007,6 hPa 0,0 l/m² 4,8 km/h (1 Bft) W-SW 247 ° 0,000 mm 10,8 °C 16,1 °C 9,7 km/h (2 Bft) 100,00 %
05.05.2026 21:58 16,1 °C 70 % 1007,5 hPa 0,0 l/m² 6,4 km/h (2 Bft) SW 225 ° 0,000 mm 10,6 °C 16,1 °C 8,0 km/h (2 Bft) 100,00 %
05.05.2026 21:57 16,1 °C 71 % 1007,5 hPa 0,0 l/m² 4,8 km/h (1 Bft) SW 225 ° 0,000 mm 10,8 °C 16,1 °C 6,4 km/h (2 Bft) 100,00 %
05.05.2026 21:56 16,1 °C 71 % 1007,6 hPa 0,0 l/m² 4,8 km/h (1 Bft) SW 225 ° 0,000 mm 10,8 °C 16,1 °C 8,0 km/h (2 Bft) 100,00 %
05.05.2026 21:55 16,1 °C 71 % 1007,6 hPa 0,0 l/m² 6,4 km/h (2 Bft) SW 225 ° 0,000 mm 10,8 °C 16,1 °C 8,0 km/h (2 Bft) 100,00 %
05.05.2026 21:54 16,1 °C 71 % 1007,6 hPa 0,0 l/m² 4,8 km/h (1 Bft) W-SW 247 ° 0,000 mm 10,8 °C 16,1 °C 6,4 km/h (2 Bft) 95,65 %
05.05.2026 21:53 16,1 °C 71 % 1007,5 hPa 0,0 l/m² 4,8 km/h (1 Bft) SW 225 ° 0,000 mm 10,8 °C 16,1 °C 8,0 km/h (2 Bft) 100,00 %
05.05.2026 21:52 16,1 °C 71 % 1007,5 hPa 0,0 l/m² 3,2 km/h (1 Bft) W-SW 247 ° 0,000 mm 10,8 °C 16,1 °C 6,4 km/h (2 Bft) 100,00 %
05.05.2026 21:51 16,1 °C 71 % 1007,5 hPa 0,0 l/m² 3,2 km/h (1 Bft) W 270 ° 0,000 mm 10,8 °C 16,1 °C 6,4 km/h (2 Bft) 100,00 %
05.05.2026 21:50 16,1 °C 71 % 1007,5 hPa 0,0 l/m² 3,2 km/h (1 Bft) SW 225 ° 0,000 mm 10,8 °C 16,1 °C 8,0 km/h (2 Bft) 100,00 %
05.05.2026 21:49 16,1 °C 71 % 1007,4 hPa 0,0 l/m² 4,8 km/h (1 Bft) W-SW 247 ° 0,000 mm 10,8 °C 16,1 °C 6,4 km/h (2 Bft) 95,65 %
05.05.2026 21:48 16,2 °C 71 % 1007,4 hPa 0,0 l/m² 4,8 km/h (1 Bft) W-SW 247 ° 0,000 mm 10,9 °C 16,2 °C 6,4 km/h (2 Bft) 100,00 %
05.05.2026 21:47 16,2 °C 71 % 1007,3 hPa 0,0 l/m² 4,8 km/h (1 Bft) SW 225 ° 0,000 mm 10,9 °C 16,2 °C 6,4 km/h (2 Bft) 100,00 %
05.05.2026 21:46 16,2 °C 71 % 1007,4 hPa 0,0 l/m² 4,8 km/h (1 Bft) SW 225 ° 0,000 mm 10,9 °C 16,2 °C 8,0 km/h (2 Bft) 100,00 %
05.05.2026 21:45 16,2 °C 71 % 1007,5 hPa 0,0 l/m² 4,8 km/h (1 Bft) SW 225 ° 0,000 mm 10,9 °C 16,2 °C 6,4 km/h (2 Bft) 100,00 %
05.05.2026 21:44 16,2 °C 71 % 1007,4 hPa 0,0 l/m² 3,2 km/h (1 Bft) W-SW 247 ° 0,000 mm 10,9 °C 16,2 °C 3,2 km/h (1 Bft) 95,65 %
05.05.2026 21:43 16,3 °C 71 % 1007,3 hPa 0,0 l/m² 4,8 km/h (1 Bft) SW 225 ° 0,000 mm 11,0 °C 16,3 °C 8,0 km/h (2 Bft) 100,00 %
05.05.2026 21:42 16,3 °C 70 % 1007,3 hPa 0,0 l/m² 4,8 km/h (1 Bft) W-SW 247 ° 0,000 mm 10,8 °C 16,3 °C 6,4 km/h (2 Bft) 100,00 %
05.05.2026 21:41 16,3 °C 70 % 1007,3 hPa 0,0 l/m² 3,2 km/h (1 Bft) SW 225 ° 0,000 mm 10,8 °C 16,3 °C 6,4 km/h (2 Bft) 100,00 %
05.05.2026 21:40 16,2 °C 70 % 1007,3 hPa 0,0 l/m² 4,8 km/h (1 Bft) S-SW 202 ° 0,000 mm 10,7 °C 16,2 °C 6,4 km/h (2 Bft) 95,65 %
05.05.2026 21:39 16,2 °C 70 % 1007,3 hPa 0,0 l/m² 4,8 km/h (1 Bft) W-SW 247 ° 0,000 mm 10,7 °C 16,2 °C 6,4 km/h (2 Bft) 95,65 %
05.05.2026 21:38 16,2 °C 70 % 1007,3 hPa 0,0 l/m² 6,4 km/h (2 Bft) SW 225 ° 0,000 mm 10,7 °C 16,2 °C 9,7 km/h (2 Bft) 100,00 %
05.05.2026 21:37 16,2 °C 70 % 1007,2 hPa 0,0 l/m² 6,4 km/h (2 Bft) SW 225 ° 0,000 mm 10,7 °C 16,2 °C 11,3 km/h (2 Bft) 100,00 %
05.05.2026 21:36 16,2 °C 70 % 1007,2 hPa 0,0 l/m² 4,8 km/h (1 Bft) SW 225 ° 0,000 mm 10,7 °C 16,2 °C 6,4 km/h (2 Bft) 100,00 %
05.05.2026 21:35 16,2 °C 70 % 1007,2 hPa 0,0 l/m² 4,8 km/h (1 Bft) W-SW 247 ° 0,000 mm 10,7 °C 16,2 °C 9,7 km/h (2 Bft) 95,65 %
05.05.2026 21:34 16,2 °C 70 % 1007,2 hPa 0,0 l/m² 3,2 km/h (1 Bft) W-SW 247 ° 0,000 mm 10,7 °C 16,2 °C 4,8 km/h (1 Bft) 100,00 %
05.05.2026 21:33 16,2 °C 70 % 1007,1 hPa 0,0 l/m² 1,6 km/h (1 Bft) W-SW 247 ° 0,000 mm 10,7 °C 16,2 °C 4,8 km/h (1 Bft) 95,65 %
05.05.2026 21:32 16,2 °C 70 % 1007,2 hPa 0,0 l/m² 3,2 km/h (1 Bft) W-SW 247 ° 0,000 mm 10,7 °C 16,2 °C 4,8 km/h (1 Bft) 95,65 %
05.05.2026 21:31 16,2 °C 70 % 1007,2 hPa 0,0 l/m² 3,2 km/h (1 Bft) W 270 ° 0,000 mm 10,7 °C 16,2 °C 4,8 km/h (1 Bft) 100,00 %
05.05.2026 21:30 16,2 °C 71 % 1007,2 hPa 0,0 l/m² 4,8 km/h (1 Bft) W-SW 247 ° 0,000 mm 10,9 °C 16,2 °C 6,4 km/h (2 Bft) 95,65 %
05.05.2026 21:29 16,2 °C 71 % 1007,1 hPa 0,0 l/m² 3,2 km/h (1 Bft) SW 225 ° 0,000 mm 10,9 °C 16,2 °C 4,8 km/h (1 Bft) 100,00 %
05.05.2026 21:28 16,2 °C 71 % 1007,1 hPa 0,0 l/m² 0,0 km/h (0 Bft) W-SW 247 ° 0,000 mm 10,9 °C 16,2 °C 1,6 km/h (1 Bft) 100,00 %
05.05.2026 21:27 16,2 °C 71 % 1007,2 hPa 0,0 l/m² 3,2 km/h (1 Bft) SW 225 ° 0,000 mm 10,9 °C 16,2 °C 4,8 km/h (1 Bft) 100,00 %
05.05.2026 21:26 16,2 °C 71 % 1007,1 hPa 0,0 l/m² 3,2 km/h (1 Bft) SW 225 ° 0,000 mm 10,9 °C 16,2 °C 4,8 km/h (1 Bft) 100,00 %
05.05.2026 21:25 16,2 °C 70 % 1007,1 hPa 0,0 l/m² 1,6 km/h (1 Bft) SW 225 ° 0,000 mm 10,7 °C 16,2 °C 4,8 km/h (1 Bft) 100,00 %
05.05.2026 21:24 16,2 °C 71 % 1007,1 hPa 0,0 l/m² 1,6 km/h (1 Bft) W-SW 247 ° 0,000 mm 10,9 °C 16,2 °C 3,2 km/h (1 Bft) 100,00 %
05.05.2026 21:23 16,2 °C 71 % 1007,1 hPa 0,0 l/m² 4,8 km/h (1 Bft) W-SW 247 ° 0,000 mm 10,9 °C 16,2 °C 6,4 km/h (2 Bft) 100,00 %
05.05.2026 21:22 16,2 °C 71 % 1007,0 hPa 0,0 l/m² 1,6 km/h (1 Bft) W-SW 247 ° 0,000 mm 10,9 °C 16,2 °C 6,4 km/h (2 Bft) 100,00 %
05.05.2026 21:21 16,2 °C 71 % 1007,0 hPa 0,0 l/m² 6,4 km/h (2 Bft) SW 225 ° 0,000 mm 10,9 °C 16,2 °C 8,0 km/h (2 Bft) 95,65 %
05.05.2026 21:20 16,2 °C 71 % 1007,0 hPa 0,0 l/m² 4,8 km/h (1 Bft) SW 225 ° 0,000 mm 10,9 °C 16,2 °C 8,0 km/h (2 Bft) 100,00 %
05.05.2026 21:19 16,2 °C 71 % 1007,0 hPa 0,0 l/m² 3,2 km/h (1 Bft) S-SW 202 ° 0,000 mm 10,9 °C 16,2 °C 8,0 km/h (2 Bft) 100,00 %
05.05.2026 21:18 16,2 °C 71 % 1007,0 hPa 0,0 l/m² 3,2 km/h (1 Bft) SW 225 ° 0,000 mm 10,9 °C 16,2 °C 4,8 km/h (1 Bft) 100,00 %
05.05.2026 21:17 16,2 °C 71 % 1007,0 hPa 0,0 l/m² 1,6 km/h (1 Bft) SW 225 ° 0,000 mm 10,9 °C 16,2 °C 4,8 km/h (1 Bft) 100,00 %
05.05.2026 21:16 16,2 °C 71 % 1007,1 hPa 0,0 l/m² 3,2 km/h (1 Bft) S-SW 202 ° 0,000 mm 10,9 °C 16,2 °C 4,8 km/h (1 Bft) 100,00 %
05.05.2026 21:15 16,2 °C 71 % 1006,9 hPa 0,0 l/m² 1,6 km/h (1 Bft) SW 225 ° 0,000 mm 10,9 °C 16,2 °C 3,2 km/h (1 Bft) 100,00 %
05.05.2026 21:14 16,2 °C 71 % 1007,0 hPa 0,0 l/m² 8,0 km/h (2 Bft) SW 225 ° 0,000 mm 10,9 °C 15,4 °C 12,9 km/h (3 Bft) 100,00 %
05.05.2026 21:13 16,2 °C 71 % 1006,9 hPa 0,0 l/m² 4,8 km/h (1 Bft) SW 225 ° 0,000 mm 10,9 °C 16,2 °C 11,3 km/h (2 Bft) 100,00 %
05.05.2026 21:12 16,2 °C 71 % 1006,9 hPa 0,0 l/m² 3,2 km/h (1 Bft) S-SW 202 ° 0,000 mm 10,9 °C 16,2 °C 6,4 km/h (2 Bft) 100,00 %
05.05.2026 21:11 16,1 °C 71 % 1006,9 hPa 0,0 l/m² 4,8 km/h (1 Bft) SW 225 ° 0,000 mm 10,8 °C 16,1 °C 6,4 km/h (2 Bft) 95,65 %
05.05.2026 21:10 16,1 °C 72 % 1006,8 hPa 0,0 l/m² 3,2 km/h (1 Bft) SW 225 ° 0,000 mm 11,0 °C 16,1 °C 6,4 km/h (2 Bft) 100,00 %
05.05.2026 21:09 16,1 °C 72 % 1006,8 hPa 0,0 l/m² 1,6 km/h (1 Bft) S-SW 202 ° 0,000 mm 11,0 °C 16,1 °C 6,4 km/h (2 Bft) 100,00 %
05.05.2026 21:08 16,1 °C 72 % 1006,9 hPa 0,0 l/m² 4,8 km/h (1 Bft) S-SW 202 ° 0,000 mm 11,0 °C 16,1 °C 6,4 km/h (2 Bft) 100,00 %
05.05.2026 21:07 16,1 °C 72 % 1006,9 hPa 0,0 l/m² 3,2 km/h (1 Bft) SW 225 ° 0,000 mm 11,0 °C 16,1 °C 3,2 km/h (1 Bft) 100,00 %
05.05.2026 21:06 16,1 °C 72 % 1006,9 hPa 0,0 l/m² 3,2 km/h (1 Bft) W-SW 247 ° 0,000 mm 11,0 °C 16,1 °C 4,8 km/h (1 Bft) 100,00 %
05.05.2026 21:05 16,1 °C 72 % 1006,9 hPa 0,0 l/m² 3,2 km/h (1 Bft) W-SW 247 ° 0,000 mm 11,0 °C 16,1 °C 4,8 km/h (1 Bft) 100,00 %
05.05.2026 21:04 16,1 °C 72 % 1006,9 hPa 0,0 l/m² 3,2 km/h (1 Bft) SW 225 ° 0,000 mm 11,0 °C 16,1 °C 8,0 km/h (2 Bft) 100,00 %
05.05.2026 21:03 16,1 °C 72 % 1006,9 hPa 0,0 l/m² 3,2 km/h (1 Bft) W-SW 247 ° 0,000 mm 11,0 °C 16,1 °C 6,4 km/h (2 Bft) 100,00 %
05.05.2026 21:02 16,1 °C 72 % 1006,9 hPa 0,0 l/m² 4,8 km/h (1 Bft) SW 225 ° 0,000 mm 11,0 °C 16,1 °C 6,4 km/h (2 Bft) 100,00 %
05.05.2026 21:01 16,1 °C 72 % 1006,7 hPa 0,0 l/m² 3,2 km/h (1 Bft) SW 225 ° 0,000 mm 11,0 °C 16,1 °C 6,4 km/h (2 Bft) 100,00 %
05.05.2026 21:00 16,1 °C 73 % 1006,7 hPa 0,0 l/m² 1,6 km/h (1 Bft) SW 225 ° 0,000 mm 11,3 °C 16,1 °C 4,8 km/h (1 Bft) 100,00 %
05.05.2026 20:59 16,0 °C 73 % 1006,7 hPa 0,0 l/m² 1,6 km/h (1 Bft) SW 225 ° 0,000 mm 11,2 °C 16,0 °C 1,6 km/h (1 Bft) 100,00 %
05.05.2026 20:58 16,0 °C 73 % 1006,7 hPa 0,0 l/m² 3,2 km/h (1 Bft) S-SW 202 ° 0,000 mm 11,2 °C 16,0 °C 6,4 km/h (2 Bft) 100,00 %
05.05.2026 20:57 16,0 °C 73 % 1006,7 hPa 0,0 l/m² 4,8 km/h (1 Bft) SW 225 ° 0,000 mm 11,2 °C 16,0 °C 8,0 km/h (2 Bft) 100,00 %
05.05.2026 20:56 16,0 °C 73 % 1006,6 hPa 0,0 l/m² 4,8 km/h (1 Bft) SW 225 ° 0,000 mm 11,2 °C 16,0 °C 6,4 km/h (2 Bft) 100,00 %
05.05.2026 20:55 16,0 °C 73 % 1006,5 hPa 0,0 l/m² 3,2 km/h (1 Bft) SW 225 ° 0,000 mm 11,2 °C 16,0 °C 3,2 km/h (1 Bft) 100,00 %
05.05.2026 20:54 16,0 °C 73 % 1006,6 hPa 0,0 l/m² 3,2 km/h (1 Bft) W-SW 247 ° 0,000 mm 11,2 °C 16,0 °C 8,0 km/h (2 Bft) 100,00 %
05.05.2026 20:53 16,1 °C 73 % 1006,5 hPa 0,0 l/m² 6,4 km/h (2 Bft) SW 225 ° 0,000 mm 11,3 °C 16,1 °C 9,7 km/h (2 Bft) 100,00 %
05.05.2026 20:52 16,1 °C 73 % 1006,5 hPa 0,0 l/m² 4,8 km/h (1 Bft) SW 225 ° 0,000 mm 11,3 °C 16,1 °C 6,4 km/h (2 Bft) 100,00 %
05.05.2026 20:51 16,1 °C 73 % 1006,5 hPa 0,0 l/m² 4,8 km/h (1 Bft) SW 225 ° 0,000 mm 11,3 °C 16,1 °C 4,8 km/h (1 Bft) 95,65 %
05.05.2026 20:50 16,1 °C 73 % 1006,5 hPa 0,0 l/m² 4,8 km/h (1 Bft) SW 225 ° 0,000 mm 11,3 °C 16,1 °C 8,0 km/h (2 Bft) 100,00 %
05.05.2026 20:49 16,1 °C 73 % 1006,6 hPa 0,0 l/m² 9,7 km/h (2 Bft) W-SW 247 ° 0,000 mm 11,3 °C 14,5 °C 12,9 km/h (3 Bft) 100,00 %
05.05.2026 20:48 16,1 °C 73 % 1006,5 hPa 0,0 l/m² 9,7 km/h (2 Bft) W-SW 247 ° 0,000 mm 11,3 °C 14,5 °C 17,7 km/h (3 Bft) 100,00 %
05.05.2026 20:47 16,1 °C 73 % 1006,5 hPa 0,0 l/m² 8,0 km/h (2 Bft) W-SW 247 ° 0,000 mm 11,3 °C 15,3 °C 16,1 km/h (3 Bft) 100,00 %
05.05.2026 20:46 16,1 °C 73 % 1006,4 hPa 0,0 l/m² 3,2 km/h (1 Bft) W-SW 247 ° 0,000 mm 11,3 °C 16,1 °C 8,0 km/h (2 Bft) 100,00 %
05.05.2026 20:45 16,1 °C 73 % 1006,5 hPa 0,0 l/m² 8,0 km/h (2 Bft) SW 225 ° 0,000 mm 11,3 °C 15,3 °C 9,7 km/h (2 Bft) 100,00 %
05.05.2026 20:44 16,1 °C 73 % 1006,5 hPa 0,0 l/m² 6,4 km/h (2 Bft) S-SW 202 ° 0,000 mm 11,3 °C 16,1 °C 12,9 km/h (3 Bft) 100,00 %
05.05.2026 20:43 16,2 °C 73 % 1006,5 hPa 0,0 l/m² 3,2 km/h (1 Bft) SW 225 ° 0,000 mm 11,4 °C 16,2 °C 8,0 km/h (2 Bft) 100,00 %
05.05.2026 20:42 16,2 °C 72 % 1006,3 hPa 0,0 l/m² 4,8 km/h (1 Bft) SW 225 ° 0,000 mm 11,1 °C 16,2 °C 9,7 km/h (2 Bft) 100,00 %
05.05.2026 20:41 16,2 °C 73 % 1006,3 hPa 0,0 l/m² 4,8 km/h (1 Bft) W-SW 247 ° 0,000 mm 11,4 °C 16,2 °C 8,0 km/h (2 Bft) 100,00 %
05.05.2026 20:40 16,2 °C 73 % 1006,3 hPa 0,0 l/m² 4,8 km/h (1 Bft) SW 225 ° 0,000 mm 11,4 °C 16,2 °C 8,0 km/h (2 Bft) 100,00 %
05.05.2026 20:39 16,3 °C 73 % 1006,3 hPa 0,0 l/m² 6,4 km/h (2 Bft) SW 225 ° 0,000 mm 11,4 °C 16,3 °C 9,7 km/h (2 Bft) 100,00 %
05.05.2026 20:38 16,3 °C 73 % 1006,3 hPa 0,0 l/m² 6,4 km/h (2 Bft) W-SW 247 ° 0,000 mm 11,4 °C 16,3 °C 9,7 km/h (2 Bft) 100,00 %
05.05.2026 20:37 16,4 °C 72 % 1006,4 hPa 0,0 l/m² 6,4 km/h (2 Bft) SW 225 ° 0,000 mm 11,3 °C 16,4 °C 8,0 km/h (2 Bft) 100,00 %
05.05.2026 20:36 16,4 °C 72 % 1006,3 hPa 0,0 l/m² 9,7 km/h (2 Bft) SW 225 ° 0,000 mm 11,3 °C 14,8 °C 14,5 km/h (3 Bft) 100,00 %
05.05.2026 20:35 16,6 °C 71 % 1006,2 hPa 0,0 l/m² 8,0 km/h (2 Bft) SW 225 ° 0,000 mm 11,3 °C 15,8 °C 12,9 km/h (3 Bft) 95,65 %
05.05.2026 20:34 16,6 °C 71 % 1006,2 hPa 0,0 l/m² 8,0 km/h (2 Bft) SW 225 ° 0,000 mm 11,3 °C 15,8 °C 14,5 km/h (3 Bft) 100,00 %
05.05.2026 20:33 16,7 °C 71 % 1006,2 hPa 0,0 l/m² 1,6 km/h (1 Bft) SW 225 ° 0,000 mm 11,4 °C 16,7 °C 9,7 km/h (2 Bft) 100,00 %
05.05.2026 20:32 16,7 °C 71 % 1006,2 hPa 0,0 l/m² 6,4 km/h (2 Bft) W-SW 247 ° 0,000 mm 11,4 °C 16,7 °C 11,3 km/h (2 Bft) 100,00 %
05.05.2026 20:31 16,8 °C 70 % 1006,1 hPa 0,0 l/m² 8,0 km/h (2 Bft) SW 225 ° 0,000 mm 11,3 °C 16,0 °C 12,9 km/h (3 Bft) 100,00 %
05.05.2026 20:30 16,9 °C 69 % 1006,1 hPa 0,0 l/m² 6,4 km/h (2 Bft) SW 225 ° 0,000 mm 11,2 °C 16,9 °C 12,9 km/h (3 Bft) 100,00 %
05.05.2026 20:29 16,9 °C 69 % 1006,1 hPa 0,0 l/m² 8,0 km/h (2 Bft) W-SW 247 ° 0,000 mm 11,2 °C 16,1 °C 14,5 km/h (3 Bft) 100,00 %
05.05.2026 20:28 17,0 °C 69 % 1006,0 hPa 0,0 l/m² 4,8 km/h (1 Bft) W-SW 247 ° 0,000 mm 11,3 °C 17,0 °C 8,0 km/h (2 Bft) 100,00 %
05.05.2026 20:27 17,1 °C 68 % 1006,0 hPa 0,0 l/m² 6,4 km/h (2 Bft) W-SW 247 ° 0,000 mm 11,1 °C 17,1 °C 9,7 km/h (2 Bft) 100,00 %
05.05.2026 20:26 17,1 °C 68 % 1006,0 hPa 0,0 l/m² 8,0 km/h (2 Bft) SW 225 ° 0,000 mm 11,1 °C 16,3 °C 12,9 km/h (3 Bft) 100,00 %
05.05.2026 20:25 17,2 °C 67 % 1006,0 hPa 0,0 l/m² 9,7 km/h (2 Bft) SW 225 ° 0,000 mm 11,0 °C 15,7 °C 16,1 km/h (3 Bft) 100,00 %
05.05.2026 20:24 17,2 °C 67 % 1005,9 hPa 0,0 l/m² 6,4 km/h (2 Bft) SW 225 ° 0,000 mm 11,0 °C 17,2 °C 11,3 km/h (2 Bft) 100,00 %
05.05.2026 20:23 17,2 °C 66 % 1006,0 hPa 0,0 l/m² 6,4 km/h (2 Bft) W-SW 247 ° 0,000 mm 10,8 °C 17,2 °C 9,7 km/h (2 Bft) 95,65 %
05.05.2026 20:22 17,3 °C 66 % 1005,9 hPa 0,0 l/m² 6,4 km/h (2 Bft) W-SW 247 ° 0,000 mm 10,9 °C 17,3 °C 9,7 km/h (2 Bft) 100,00 %
05.05.2026 20:21 17,3 °C 66 % 1005,9 hPa 0,0 l/m² 9,7 km/h (2 Bft) SW 225 ° 0,000 mm 10,9 °C 15,8 °C 14,5 km/h (3 Bft) 100,00 %
05.05.2026 20:20 17,4 °C 65 % 1005,9 hPa 0,0 l/m² 12,9 km/h (3 Bft) W-SW 247 ° 0,000 mm 10,8 °C 14,7 °C 19,3 km/h (3 Bft) 100,00 %
05.05.2026 20:19 17,4 °C 65 % 1005,8 hPa 0,0 l/m² 6,4 km/h (2 Bft) W-SW 247 ° 0,000 mm 10,8 °C 17,4 °C 12,9 km/h (3 Bft) 100,00 %
05.05.2026 20:18 17,4 °C 65 % 1005,9 hPa 0,0 l/m² 9,7 km/h (2 Bft) W-SW 247 ° 0,000 mm 10,8 °C 15,9 °C 14,5 km/h (3 Bft) 100,00 %
05.05.2026 20:17 17,5 °C 64 % 1005,9 hPa 0,0 l/m² 9,7 km/h (2 Bft) W-SW 247 ° 0,000 mm 10,6 °C 16,0 °C 14,5 km/h (3 Bft) 95,65 %
05.05.2026 20:16 17,5 °C 64 % 1005,8 hPa 0,0 l/m² 9,7 km/h (2 Bft) W-SW 247 ° 0,000 mm 10,6 °C 16,0 °C 14,5 km/h (3 Bft) 100,00 %
05.05.2026 20:15 17,6 °C 64 % 1005,8 hPa 0,0 l/m² 11,3 km/h (2 Bft) SW 225 ° 0,000 mm 10,7 °C 15,5 °C 20,9 km/h (4 Bft) 95,65 %
05.05.2026 20:14 17,6 °C 64 % 1005,8 hPa 0,0 l/m² 11,3 km/h (2 Bft) SW 225 ° 0,000 mm 10,7 °C 15,5 °C 22,5 km/h (4 Bft) 100,00 %
05.05.2026 20:13 17,7 °C 63 % 1005,7 hPa 0,0 l/m² 11,3 km/h (2 Bft) W-SW 247 ° 0,000 mm 10,6 °C 15,6 °C 19,3 km/h (3 Bft) 100,00 %
05.05.2026 20:12 17,8 °C 63 % 1005,6 hPa 0,0 l/m² 11,3 km/h (2 Bft) SW 225 ° 0,000 mm 10,7 °C 15,7 °C 17,7 km/h (3 Bft) 100,00 %
05.05.2026 20:11 17,8 °C 63 % 1005,7 hPa 0,0 l/m² 12,9 km/h (3 Bft) W-SW 247 ° 0,000 mm 10,7 °C 15,2 °C 19,3 km/h (3 Bft) 100,00 %
05.05.2026 20:10 17,9 °C 62 % 1005,8 hPa 0,0 l/m² 8,0 km/h (2 Bft) W 270 ° 0,000 mm 10,5 °C 17,1 °C 12,9 km/h (3 Bft) 95,65 %
05.05.2026 20:09 18,0 °C 62 % 1005,8 hPa 0,0 l/m² 8,0 km/h (2 Bft) SW 225 ° 0,000 mm 10,6 °C 17,3 °C 14,5 km/h (3 Bft) 100,00 %
05.05.2026 20:08 18,1 °C 61 % 1005,8 hPa 0,0 l/m² 8,0 km/h (2 Bft) W-SW 247 ° 0,000 mm 10,5 °C 17,4 °C 14,5 km/h (3 Bft) 100,00 %
05.05.2026 20:07 18,1 °C 61 % 1005,7 hPa 0,0 l/m² 4,8 km/h (1 Bft) SW 225 ° 0,000 mm 10,5 °C 18,1 °C 8,0 km/h (2 Bft) 100,00 %
05.05.2026 20:06 18,1 °C 61 % 1005,7 hPa 0,0 l/m² 8,0 km/h (2 Bft) W-SW 247 ° 0,000 mm 10,5 °C 17,4 °C 12,9 km/h (3 Bft) 95,65 %
05.05.2026 20:05 18,2 °C 61 % 1005,7 hPa 0,0 l/m² 9,7 km/h (2 Bft) SW 225 ° 0,000 mm 10,6 °C 16,8 °C 16,1 km/h (3 Bft) 100,00 %
05.05.2026 20:04 18,2 °C 61 % 1005,7 hPa 0,0 l/m² 12,9 km/h (3 Bft) SW 225 ° 0,000 mm 10,6 °C 15,7 °C 20,9 km/h (4 Bft) 100,00 %
05.05.2026 20:03 18,3 °C 60 % 1005,6 hPa 0,0 l/m² 11,3 km/h (2 Bft) W-SW 247 ° 0,000 mm 10,4 °C 16,3 °C 22,5 km/h (4 Bft) 100,00 %
05.05.2026 20:02 18,3 °C 60 % 1005,6 hPa 0,0 l/m² 16,1 km/h (3 Bft) W-SW 247 ° 0,000 mm 10,4 °C 14,9 °C 22,5 km/h (4 Bft) 100,00 %
05.05.2026 20:01 18,4 °C 59 % 1005,5 hPa 0,0 l/m² 14,5 km/h (3 Bft) W-SW 247 ° 0,000 mm 10,2 °C 15,4 °C 25,7 km/h (4 Bft) 100,00 %
05.05.2026 20:00 18,5 °C 59 % 1005,5 hPa 0,0 l/m² 16,1 km/h (3 Bft) W-SW 247 ° 0,000 mm 10,3 °C 15,1 °C 25,7 km/h (4 Bft) 100,00 %
05.05.2026 19:59 18,6 °C 59 % 1005,5 hPa 0,0 l/m² 22,5 km/h (4 Bft) W-SW 247 ° 0,000 mm 10,4 °C 13,9 °C 30,6 km/h (5 Bft) 100,00 %
05.05.2026 19:58 18,7 °C 58 % 1005,4 hPa 0,0 l/m² 12,9 km/h (3 Bft) SW 225 ° 0,000 mm 10,3 °C 16,3 °C 24,1 km/h (4 Bft) 100,00 %
05.05.2026 19:57 18,8 °C 58 % 1005,5 hPa 0,0 l/m² 17,7 km/h (3 Bft) S-SW 202 ° 0,000 mm 10,4 °C 15,1 °C 30,6 km/h (5 Bft) 100,00 %
05.05.2026 19:56 18,9 °C 58 % 1005,3 hPa 0,0 l/m² 17,7 km/h (3 Bft) W-SW 247 ° 0,000 mm 10,5 °C 15,3 °C 25,7 km/h (4 Bft) 95,65 %
05.05.2026 19:55 19,0 °C 57 % 1005,3 hPa 0,0 l/m² 19,3 km/h (3 Bft) W-SW 247 ° 0,000 mm 10,3 °C 15,1 °C 29,0 km/h (5 Bft) 100,00 %
05.05.2026 19:54 19,1 °C 57 % 1005,2 hPa 0,0 l/m² 20,9 km/h (4 Bft) W-SW 247 ° 0,000 mm 10,4 °C 14,9 °C 29,0 km/h (5 Bft) 95,65 %
05.05.2026 19:53 19,2 °C 57 % 1005,2 hPa 0,0 l/m² 20,9 km/h (4 Bft) SW 225 ° 0,000 mm 10,5 °C 15,0 °C 33,8 km/h (5 Bft) 100,00 %
05.05.2026 19:52 19,3 °C 56 % 1005,3 hPa 0,0 l/m² 19,3 km/h (3 Bft) SW 225 ° 0,000 mm 10,3 °C 15,4 °C 29,0 km/h (5 Bft) 100,00 %
05.05.2026 19:51 19,4 °C 56 % 1005,2 hPa 0,0 l/m² 19,3 km/h (3 Bft) W-SW 247 ° 0,000 mm 10,4 °C 15,6 °C 32,2 km/h (5 Bft) 100,00 %
05.05.2026 19:50 19,6 °C 55 % 1005,4 hPa 0,0 l/m² 16,1 km/h (3 Bft) W-SW 247 ° 0,000 mm 10,3 °C 16,5 °C 27,4 km/h (4 Bft) 100,00 %
05.05.2026 19:49 19,7 °C 55 % 1005,4 hPa 0,0 l/m² 14,5 km/h (3 Bft) W-SW 247 ° 0,000 mm 10,4 °C 17,0 °C 25,7 km/h (4 Bft) 100,00 %
05.05.2026 19:48 19,8 °C 55 % 1005,2 hPa 0,0 l/m² 9,7 km/h (2 Bft) W-SW 247 ° 0,000 mm 10,5 °C 18,5 °C 12,9 km/h (3 Bft) 100,00 %
05.05.2026 19:47 19,9 °C 55 % 1005,2 hPa 0,0 l/m² 14,5 km/h (3 Bft) W-SW 247 ° 0,000 mm 10,6 °C 17,3 °C 24,1 km/h (4 Bft) 100,00 %
05.05.2026 19:46 20,1 °C 54 % 1005,4 hPa 0,0 l/m² 14,5 km/h (3 Bft) SW 225 ° 0,000 mm 10,5 °C 17,5 °C 24,1 km/h (4 Bft) 100,00 %
05.05.2026 19:45 20,2 °C 54 % 1005,2 hPa 0,0 l/m² 20,9 km/h (4 Bft) SW 225 ° 0,000 mm 10,6 °C 16,3 °C 40,2 km/h (6 Bft) 100,00 %
05.05.2026 19:44 20,4 °C 53 % 1005,2 hPa 0,0 l/m² 25,7 km/h (4 Bft) W-SW 247 ° 0,000 mm 10,5 °C 15,8 °C 43,5 km/h (6 Bft) 95,65 %
05.05.2026 19:43 20,7 °C 52 % 1005,0 hPa 0,0 l/m² 27,4 km/h (4 Bft) W-SW 247 ° 0,000 mm 10,5 °C 16,0 °C 43,5 km/h (6 Bft) 100,00 %
05.05.2026 19:42 21,1 °C 51 % 1005,1 hPa 0,0 l/m² 22,5 km/h (4 Bft) SW 225 ° 0,000 mm 10,6 °C 17,2 °C 32,2 km/h (5 Bft) 100,00 %
05.05.2026 19:41 21,4 °C 50 % 1005,0 hPa 0,0 l/m² 20,9 km/h (4 Bft) W-SW 247 ° 0,000 mm 10,5 °C 17,9 °C 37,0 km/h (5 Bft) 100,00 %
05.05.2026 19:40 21,8 °C 49 % 1004,9 hPa 0,0 l/m² 17,7 km/h (3 Bft) W-SW 247 ° 0,000 mm 10,6 °C 18,9 °C 29,0 km/h (5 Bft) 100,00 %
05.05.2026 19:39 22,3 °C 46 % 1005,0 hPa 0,0 l/m² 16,1 km/h (3 Bft) W-SW 247 ° 0,000 mm 10,1 °C 19,8 °C 29,0 km/h (5 Bft) 100,00 %
05.05.2026 19:38 22,7 °C 45 % 1004,8 hPa 0,0 l/m² 17,7 km/h (3 Bft) W-SW 247 ° 0,000 mm 10,1 °C 20,0 °C 30,6 km/h (5 Bft) 100,00 %
05.05.2026 19:37 23,0 °C 43 % 1004,7 hPa 0,0 l/m² 17,7 km/h (3 Bft) SW 225 ° 0,000 mm 9,7 °C 20,4 °C 30,6 km/h (5 Bft) 100,00 %
05.05.2026 19:36 23,1 °C 43 % 1004,4 hPa 0,0 l/m² 9,7 km/h (2 Bft) W-SW 247 ° 0,000 mm 9,8 °C 22,1 °C 14,5 km/h (3 Bft) 100,00 %
05.05.2026 19:35 23,1 °C 44 % 1004,2 hPa 0,0 l/m² 3,2 km/h (1 Bft) W 270 ° 0,000 mm 10,2 °C 23,1 °C 6,4 km/h (2 Bft) 100,00 %
05.05.2026 19:34 23,2 °C 44 % 1004,1 hPa 0,0 l/m² 3,2 km/h (1 Bft) W 270 ° 0,000 mm 10,3 °C 23,2 °C 4,8 km/h (1 Bft) 100,00 %
05.05.2026 19:33 23,2 °C 41 % 1004,1 hPa 0,0 l/m² 3,2 km/h (1 Bft) W 270 ° 0,000 mm 9,2 °C 23,2 °C 4,8 km/h (1 Bft) 100,00 %
05.05.2026 19:32 23,3 °C 41 % 1004,1 hPa 0,0 l/m² 3,2 km/h (1 Bft) W 270 ° 0,000 mm 9,3 °C 23,3 °C 4,8 km/h (1 Bft) 100,00 %
05.05.2026 19:31 23,3 °C 41 % 1004,1 hPa 0,0 l/m² 3,2 km/h (1 Bft) W 270 ° 0,000 mm 9,3 °C 23,3 °C 3,2 km/h (1 Bft) 100,00 %
05.05.2026 19:30 23,3 °C 41 % 1004,0 hPa 0,0 l/m² 3,2 km/h (1 Bft) W 270 ° 0,000 mm 9,3 °C 23,3 °C 3,2 km/h (1 Bft) 95,65 %
05.05.2026 19:29 23,3 °C 41 % 1004,0 hPa 0,0 l/m² 3,2 km/h (1 Bft) W 270 ° 0,000 mm 9,3 °C 23,3 °C 3,2 km/h (1 Bft) 100,00 %
05.05.2026 19:28 23,2 °C 41 % 1003,9 hPa 0,0 l/m² 3,2 km/h (1 Bft) W 270 ° 0,000 mm 9,2 °C 23,2 °C 4,8 km/h (1 Bft) 100,00 %
05.05.2026 19:27 23,2 °C 42 % 1004,1 hPa 0,0 l/m² 3,2 km/h (1 Bft) W 270 ° 0,000 mm 9,6 °C 23,2 °C 3,2 km/h (1 Bft) 95,65 %
05.05.2026 19:26 23,3 °C 42 % 1004,0 hPa 0,0 l/m² 1,6 km/h (1 Bft) W 270 ° 0,000 mm 9,7 °C 23,3 °C 1,6 km/h (1 Bft) 100,00 %
05.05.2026 19:25 23,3 °C 42 % 1003,9 hPa 0,0 l/m² 1,6 km/h (1 Bft) W 270 ° 0,000 mm 9,7 °C 23,3 °C 3,2 km/h (1 Bft) 100,00 %
05.05.2026 19:24 23,3 °C 41 % 1003,9 hPa 0,0 l/m² 3,2 km/h (1 Bft) W 270 ° 0,000 mm 9,3 °C 23,3 °C 3,2 km/h (1 Bft) 95,65 %
05.05.2026 19:23 23,3 °C 43 % 1003,9 hPa 0,0 l/m² 1,6 km/h (1 Bft) W 270 ° 0,000 mm 10,0 °C 23,3 °C 3,2 km/h (1 Bft) 100,00 %
05.05.2026 19:22 23,3 °C 42 % 1003,9 hPa 0,0 l/m² 3,2 km/h (1 Bft) W 270 ° 0,000 mm 9,7 °C 23,3 °C 3,2 km/h (1 Bft) 100,00 %
05.05.2026 19:21 23,3 °C 41 % 1003,9 hPa 0,0 l/m² 1,6 km/h (1 Bft) W 270 ° 0,000 mm 9,3 °C 23,3 °C 3,2 km/h (1 Bft) 100,00 %
05.05.2026 19:20 23,3 °C 42 % 1003,9 hPa 0,0 l/m² 0,0 km/h (0 Bft) N 0 ° 0,000 mm 9,7 °C 23,3 °C 0,0 km/h (0 Bft) 100,00 %
05.05.2026 19:19 23,3 °C 42 % 1003,9 hPa 0,0 l/m² 0,0 km/h (0 Bft) N 0 ° 0,000 mm 9,7 °C 23,3 °C 0,0 km/h (0 Bft) 100,00 %
05.05.2026 19:18 23,4 °C 42 % 1003,9 hPa 0,0 l/m² 0,0 km/h (0 Bft) N 0 ° 0,000 mm 9,7 °C 23,4 °C 0,0 km/h (0 Bft) 100,00 %
05.05.2026 19:17 23,4 °C 42 % 1003,9 hPa 0,0 l/m² 0,0 km/h (0 Bft) N 0 ° 0,000 mm 9,7 °C 23,4 °C 0,0 km/h (0 Bft) 100,00 %
05.05.2026 19:16 23,4 °C 42 % 1003,9 hPa 0,0 l/m² 0,0 km/h (0 Bft) N 0 ° 0,000 mm 9,7 °C 23,4 °C 0,0 km/h (0 Bft) 100,00 %
05.05.2026 19:15 23,4 °C 42 % 1003,9 hPa 0,0 l/m² 0,0 km/h (0 Bft) N 0 ° 0,000 mm 9,7 °C 23,4 °C 0,0 km/h (0 Bft) 100,00 %
05.05.2026 19:14 23,6 °C 43 % 1004,0 hPa 0,0 l/m² 0,0 km/h (0 Bft) N 0 ° 0,000 mm 10,3 °C 23,6 °C 0,0 km/h (0 Bft) 100,00 %
05.05.2026 19:13 23,5 °C 42 % 1003,9 hPa 0,0 l/m² 0,0 km/h (0 Bft) W 270 ° 0,000 mm 9,8 °C 23,5 °C 1,6 km/h (1 Bft) 100,00 %
05.05.2026 19:12 23,6 °C 41 % 1004,0 hPa 0,0 l/m² 1,6 km/h (1 Bft) W 270 ° 0,000 mm 9,6 °C 23,6 °C 1,6 km/h (1 Bft) 100,00 %
05.05.2026 19:11 23,6 °C 41 % 1003,9 hPa 0,0 l/m² 1,6 km/h (1 Bft) W 270 ° 0,000 mm 9,6 °C 23,6 °C 1,6 km/h (1 Bft) 100,00 %
05.05.2026 19:10 23,6 °C 42 % 1003,9 hPa 0,0 l/m² 0,0 km/h (0 Bft) W 270 ° 0,000 mm 9,9 °C 23,6 °C 1,6 km/h (1 Bft) 100,00 %
05.05.2026 19:09 23,7 °C 40 % 1003,9 hPa 0,0 l/m² 1,6 km/h (1 Bft) W 270 ° 0,000 mm 9,3 °C 23,7 °C 3,2 km/h (1 Bft) 100,00 %
05.05.2026 19:08 23,7 °C 40 % 1004,0 hPa 0,0 l/m² 1,6 km/h (1 Bft) W 270 ° 0,000 mm 9,3 °C 23,7 °C 3,2 km/h (1 Bft) 95,65 %
05.05.2026 19:07 23,7 °C 41 % 1003,9 hPa 0,0 l/m² 0,0 km/h (0 Bft) W-NW 292 ° 0,000 mm 9,7 °C 23,7 °C 1,6 km/h (1 Bft) 100,00 %
05.05.2026 19:06 23,8 °C 42 % 1003,9 hPa 0,0 l/m² 0,0 km/h (0 Bft) N 0 ° 0,000 mm 10,1 °C 23,8 °C 0,0 km/h (0 Bft) 100,00 %
05.05.2026 19:05 23,8 °C 41 % 1004,0 hPa 0,0 l/m² 0,0 km/h (0 Bft) N 0 ° 0,000 mm 9,7 °C 23,8 °C 0,0 km/h (0 Bft) 95,65 %
05.05.2026 19:04 23,8 °C 41 % 1003,9 hPa 0,0 l/m² 0,0 km/h (0 Bft) N 0 ° 0,000 mm 9,7 °C 23,8 °C 0,0 km/h (0 Bft) 100,00 %
05.05.2026 19:03 23,9 °C 41 % 1004,0 hPa 0,0 l/m² 0,0 km/h (0 Bft) N 0 ° 0,000 mm 9,8 °C 23,9 °C 0,0 km/h (0 Bft) 100,00 %
05.05.2026 19:02 23,9 °C 41 % 1003,9 hPa 0,0 l/m² 0,0 km/h (0 Bft) W-NW 292 ° 0,000 mm 9,8 °C 23,9 °C 1,6 km/h (1 Bft) 100,00 %
05.05.2026 19:01 24,0 °C 41 % 1004,0 hPa 0,0 l/m² 0,0 km/h (0 Bft) N 0 ° 0,000 mm 9,9 °C 24,0 °C 0,0 km/h (0 Bft) 100,00 %
05.05.2026 19:00 24,0 °C 41 % 1003,9 hPa 0,0 l/m² 0,0 km/h (0 Bft) N 0 ° 0,000 mm 9,9 °C 24,0 °C 0,0 km/h (0 Bft) 100,00 %
05.05.2026 18:59 24,0 °C 41 % 1004,0 hPa 0,0 l/m² 0,0 km/h (0 Bft) W-NW 292 ° 0,000 mm 9,9 °C 24,0 °C 1,6 km/h (1 Bft) 100,00 %
05.05.2026 18:58 24,1 °C 41 % 1003,9 hPa 0,0 l/m² 0,0 km/h (0 Bft) N 0 ° 0,000 mm 10,0 °C 24,1 °C 0,0 km/h (0 Bft) 100,00 %
05.05.2026 18:57 24,1 °C 40 % 1004,0 hPa 0,0 l/m² 0,0 km/h (0 Bft) N 0 ° 0,000 mm 9,6 °C 24,1 °C 0,0 km/h (0 Bft) 100,00 %
05.05.2026 18:56 24,1 °C 39 % 1003,9 hPa 0,0 l/m² 0,0 km/h (0 Bft) W-NW 292 ° 0,000 mm 9,3 °C 24,1 °C 1,6 km/h (1 Bft) 100,00 %
05.05.2026 18:55 24,2 °C 40 % 1004,0 hPa 0,0 l/m² 0,0 km/h (0 Bft) W-NW 292 ° 0,000 mm 9,7 °C 24,2 °C 1,6 km/h (1 Bft) 100,00 %
05.05.2026 18:54 24,2 °C 40 % 1004,0 hPa 0,0 l/m² 0,0 km/h (0 Bft) N 0 ° 0,000 mm 9,7 °C 24,2 °C 0,0 km/h (0 Bft) 100,00 %
05.05.2026 18:53 24,2 °C 40 % 1003,9 hPa 0,0 l/m² 0,0 km/h (0 Bft) W-NW 292 ° 0,000 mm 9,7 °C 24,2 °C 1,6 km/h (1 Bft) 100,00 %
05.05.2026 18:52 24,2 °C 39 % 1004,0 hPa 0,0 l/m² 0,0 km/h (0 Bft) W-NW 292 ° 0,000 mm 9,4 °C 24,2 °C 1,6 km/h (1 Bft) 100,00 %
05.05.2026 18:51 24,2 °C 39 % 1004,0 hPa 0,0 l/m² 0,0 km/h (0 Bft) W-NW 292 ° 0,000 mm 9,4 °C 24,2 °C 1,6 km/h (1 Bft) 100,00 %
05.05.2026 18:50 24,2 °C 38 % 1004,0 hPa 0,0 l/m² 0,0 km/h (0 Bft) W-NW 292 ° 0,000 mm 9,0 °C 24,2 °C 1,6 km/h (1 Bft) 100,00 %
05.05.2026 18:49 24,2 °C 38 % 1004,0 hPa 0,0 l/m² 1,6 km/h (1 Bft) W-NW 292 ° 0,000 mm 9,0 °C 24,2 °C 1,6 km/h (1 Bft) 100,00 %
05.05.2026 18:48 24,2 °C 38 % 1004,0 hPa 0,0 l/m² 1,6 km/h (1 Bft) W-NW 292 ° 0,000 mm 9,0 °C 24,2 °C 3,2 km/h (1 Bft) 100,00 %
05.05.2026 18:47 24,2 °C 38 % 1003,9 hPa 0,0 l/m² 0,0 km/h (0 Bft) W-NW 292 ° 0,000 mm 9,0 °C 24,2 °C 1,6 km/h (1 Bft) 100,00 %
05.05.2026 18:46 24,2 °C 38 % 1004,0 hPa 0,0 l/m² 1,6 km/h (1 Bft) W-NW 292 ° 0,000 mm 9,0 °C 24,2 °C 1,6 km/h (1 Bft) 100,00 %
05.05.2026 18:45 24,2 °C 38 % 1004,1 hPa 0,0 l/m² 1,6 km/h (1 Bft) W-NW 292 ° 0,000 mm 9,0 °C 24,2 °C 3,2 km/h (1 Bft) 100,00 %
05.05.2026 18:44 24,2 °C 37 % 1004,1 hPa 0,0 l/m² 1,6 km/h (1 Bft) W-NW 292 ° 0,000 mm 8,6 °C 24,2 °C 3,2 km/h (1 Bft) 100,00 %
05.05.2026 18:43 24,2 °C 37 % 1004,0 hPa 0,0 l/m² 1,6 km/h (1 Bft) W-NW 292 ° 0,000 mm 8,6 °C 24,2 °C 1,6 km/h (1 Bft) 100,00 %
05.05.2026 18:42 24,3 °C 37 % 1004,0 hPa 0,0 l/m² 1,6 km/h (1 Bft) W-NW 292 ° 0,000 mm 8,7 °C 24,3 °C 3,2 km/h (1 Bft) 100,00 %
05.05.2026 18:41 24,3 °C 38 % 1004,1 hPa 0,0 l/m² 1,6 km/h (1 Bft) W-NW 292 ° 0,000 mm 9,1 °C 24,3 °C 3,2 km/h (1 Bft) 100,00 %
05.05.2026 18:40 24,3 °C 37 % 1004,0 hPa 0,0 l/m² 1,6 km/h (1 Bft) W-NW 292 ° 0,000 mm 8,7 °C 24,3 °C 1,6 km/h (1 Bft) 100,00 %
05.05.2026 18:39 24,3 °C 37 % 1004,0 hPa 0,0 l/m² 0,0 km/h (0 Bft) W-NW 292 ° 0,000 mm 8,7 °C 24,3 °C 1,6 km/h (1 Bft) 95,65 %
05.05.2026 18:38 24,3 °C 38 % 1004,0 hPa 0,0 l/m² 0,0 km/h (0 Bft) W-NW 292 ° 0,000 mm 9,1 °C 24,3 °C 1,6 km/h (1 Bft) 100,00 %
05.05.2026 18:37 24,3 °C 38 % 1004,0 hPa 0,0 l/m² 0,0 km/h (0 Bft) W-NW 292 ° 0,000 mm 9,1 °C 24,3 °C 1,6 km/h (1 Bft) 100,00 %
05.05.2026 18:36 24,3 °C 38 % 1004,0 hPa 0,0 l/m² 0,0 km/h (0 Bft) W-NW 292 ° 0,000 mm 9,1 °C 24,3 °C 1,6 km/h (1 Bft) 100,00 %
05.05.2026 18:35 24,3 °C 38 % 1004,1 hPa 0,0 l/m² 0,0 km/h (0 Bft) N 0 ° 0,000 mm 9,1 °C 24,3 °C 0,0 km/h (0 Bft) 100,00 %
05.05.2026 18:34 24,3 °C 38 % 1004,1 hPa 0,0 l/m² 0,0 km/h (0 Bft) N 0 ° 0,000 mm 9,1 °C 24,3 °C 0,0 km/h (0 Bft) 95,65 %
05.05.2026 18:33 24,4 °C 38 % 1004,1 hPa 0,0 l/m² 0,0 km/h (0 Bft) W-NW 292 ° 0,000 mm 9,2 °C 24,4 °C 1,6 km/h (1 Bft) 100,00 %
05.05.2026 18:32 24,4 °C 38 % 1004,1 hPa 0,0 l/m² 0,0 km/h (0 Bft) N 0 ° 0,000 mm 9,2 °C 24,4 °C 0,0 km/h (0 Bft) 100,00 %
05.05.2026 18:31 24,4 °C 38 % 1004,0 hPa 0,0 l/m² 0,0 km/h (0 Bft) W-NW 292 ° 0,000 mm 9,2 °C 24,4 °C 1,6 km/h (1 Bft) 95,65 %
05.05.2026 18:30 24,4 °C 37 % 1004,1 hPa 0,0 l/m² 0,0 km/h (0 Bft) W-NW 292 ° 0,000 mm 8,8 °C 24,4 °C 1,6 km/h (1 Bft) 100,00 %
05.05.2026 18:29 24,4 °C 38 % 1004,1 hPa 0,0 l/m² 0,0 km/h (0 Bft) N 0 ° 0,000 mm 9,2 °C 24,4 °C 0,0 km/h (0 Bft) 100,00 %
05.05.2026 18:28 24,4 °C 37 % 1004,1 hPa 0,0 l/m² 0,0 km/h (0 Bft) N 0 ° 0,000 mm 8,8 °C 24,4 °C 0,0 km/h (0 Bft) 100,00 %
05.05.2026 18:27 24,4 °C 37 % 1004,1 hPa 0,0 l/m² 0,0 km/h (0 Bft) N 0 ° 0,000 mm 8,8 °C 24,4 °C 0,0 km/h (0 Bft) 100,00 %
05.05.2026 18:26 24,4 °C 38 % 1004,0 hPa 0,0 l/m² 0,0 km/h (0 Bft) N 0 ° 0,000 mm 9,2 °C 24,4 °C 0,0 km/h (0 Bft) 100,00 %
05.05.2026 18:25 24,4 °C 38 % 1004,1 hPa 0,0 l/m² 0,0 km/h (0 Bft) N 0 ° 0,000 mm 9,2 °C 24,4 °C 0,0 km/h (0 Bft) 100,00 %
05.05.2026 18:24 24,5 °C 38 % 1004,1 hPa 0,0 l/m² 0,0 km/h (0 Bft) N 0 ° 0,000 mm 9,2 °C 24,5 °C 0,0 km/h (0 Bft) 100,00 %
05.05.2026 18:23 24,5 °C 38 % 1004,1 hPa 0,0 l/m² 0,0 km/h (0 Bft) N 0 ° 0,000 mm 9,2 °C 24,5 °C 0,0 km/h (0 Bft) 100,00 %
05.05.2026 18:22 24,6 °C 38 % 1004,1 hPa 0,0 l/m² 0,0 km/h (0 Bft) N 0 ° 0,000 mm 9,3 °C 24,6 °C 0,0 km/h (0 Bft) 100,00 %
05.05.2026 18:21 24,6 °C 38 % 1004,2 hPa 0,0 l/m² 0,0 km/h (0 Bft) N 0 ° 0,000 mm 9,3 °C 24,6 °C 0,0 km/h (0 Bft) 100,00 %
05.05.2026 18:20 24,6 °C 38 % 1004,1 hPa 0,0 l/m² 0,0 km/h (0 Bft) N 0 ° 0,000 mm 9,3 °C 24,6 °C 0,0 km/h (0 Bft) 95,65 %
05.05.2026 18:19 24,6 °C 38 % 1004,2 hPa 0,0 l/m² 0,0 km/h (0 Bft) N 0 ° 0,000 mm 9,3 °C 24,6 °C 0,0 km/h (0 Bft) 100,00 %
05.05.2026 18:18 24,6 °C 38 % 1004,3 hPa 0,0 l/m² 0,0 km/h (0 Bft) W-NW 292 ° 0,000 mm 9,3 °C 24,6 °C 1,6 km/h (1 Bft) 100,00 %
05.05.2026 18:17 24,7 °C 37 % 1004,2 hPa 0,0 l/m² 0,0 km/h (0 Bft) W-NW 292 ° 0,000 mm 9,0 °C 24,7 °C 1,6 km/h (1 Bft) 100,00 %
05.05.2026 18:16 24,7 °C 38 % 1004,2 hPa 0,0 l/m² 0,0 km/h (0 Bft) W-NW 292 ° 0,000 mm 9,4 °C 24,7 °C 3,2 km/h (1 Bft) 100,00 %
05.05.2026 18:15 24,8 °C 38 % 1004,3 hPa 0,0 l/m² 0,0 km/h (0 Bft) W-NW 292 ° 0,000 mm 9,5 °C 24,8 °C 1,6 km/h (1 Bft) 100,00 %
05.05.2026 18:14 24,9 °C 38 % 1004,2 hPa 0,0 l/m² 0,0 km/h (0 Bft) W-NW 292 ° 0,000 mm 9,6 °C 24,9 °C 1,6 km/h (1 Bft) 95,65 %
05.05.2026 18:13 24,9 °C 37 % 1004,3 hPa 0,0 l/m² 3,2 km/h (1 Bft) NW 315 ° 0,000 mm 9,2 °C 24,9 °C 4,8 km/h (1 Bft) 100,00 %
05.05.2026 18:12 25,0 °C 38 % 1004,3 hPa 0,0 l/m² 1,6 km/h (1 Bft) W-NW 292 ° 0,000 mm 9,7 °C 25,0 °C 4,8 km/h (1 Bft) 100,00 %
05.05.2026 18:11 25,1 °C 38 % 1004,2 hPa 0,0 l/m² 1,6 km/h (1 Bft) W-NW 292 ° 0,000 mm 9,8 °C 25,1 °C 3,2 km/h (1 Bft) 100,00 %
05.05.2026 18:10 25,2 °C 36 % 1004,3 hPa 0,0 l/m² 1,6 km/h (1 Bft) W 270 ° 0,000 mm 9,1 °C 25,2 °C 1,6 km/h (1 Bft) 100,00 %
05.05.2026 18:09 25,2 °C 36 % 1004,4 hPa 0,0 l/m² 0,0 km/h (0 Bft) W 270 ° 0,000 mm 9,1 °C 25,2 °C 1,6 km/h (1 Bft) 100,00 %
05.05.2026 18:08 25,2 °C 36 % 1004,3 hPa 0,0 l/m² 0,0 km/h (0 Bft) N 0 ° 0,000 mm 9,1 °C 25,2 °C 0,0 km/h (0 Bft) 95,65 %
05.05.2026 18:07 25,3 °C 36 % 1004,3 hPa 0,0 l/m² 0,0 km/h (0 Bft) W 270 ° 0,000 mm 9,1 °C 25,3 °C 1,6 km/h (1 Bft) 100,00 %
05.05.2026 18:06 25,3 °C 36 % 1004,3 hPa 0,0 l/m² 0,0 km/h (0 Bft) W 270 ° 0,000 mm 9,1 °C 25,3 °C 1,6 km/h (1 Bft) 100,00 %
05.05.2026 18:05 25,3 °C 36 % 1004,3 hPa 0,0 l/m² 0,0 km/h (0 Bft) N 0 ° 0,000 mm 9,1 °C 25,3 °C 0,0 km/h (0 Bft) 95,65 %
05.05.2026 18:04 25,4 °C 36 % 1004,3 hPa 0,0 l/m² 0,0 km/h (0 Bft) W-NW 292 ° 0,000 mm 9,2 °C 25,4 °C 1,6 km/h (1 Bft) 100,00 %
05.05.2026 18:03 25,5 °C 35 % 1004,3 hPa 0,0 l/m² 1,6 km/h (1 Bft) NW 315 ° 0,000 mm 8,9 °C 25,5 °C 3,2 km/h (1 Bft) 100,00 %
05.05.2026 18:02 25,6 °C 35 % 1004,3 hPa 0,0 l/m² 0,0 km/h (0 Bft) N 0 ° 0,000 mm 9,0 °C 25,6 °C 0,0 km/h (0 Bft) 100,00 %
05.05.2026 18:01 25,6 °C 35 % 1004,4 hPa 0,0 l/m² 0,0 km/h (0 Bft) W 270 ° 0,000 mm 9,0 °C 25,6 °C 1,6 km/h (1 Bft) 100,00 %
05.05.2026 18:00 25,6 °C 35 % 1004,4 hPa 0,0 l/m² 0,0 km/h (0 Bft) W 270 ° 0,000 mm 9,0 °C 25,6 °C 1,6 km/h (1 Bft) 100,00 %
05.05.2026 17:59 25,7 °C 35 % 1004,4 hPa 0,0 l/m² 0,0 km/h (0 Bft) W 270 ° 0,000 mm 9,1 °C 25,7 °C 1,6 km/h (1 Bft) 100,00 %
05.05.2026 17:58 25,7 °C 36 % 1004,4 hPa 0,0 l/m² 0,0 km/h (0 Bft) N 0 ° 0,000 mm 9,5 °C 25,7 °C 0,0 km/h (0 Bft) 100,00 %
05.05.2026 17:57 25,6 °C 35 % 1004,4 hPa 0,0 l/m² 0,0 km/h (0 Bft) N 0 ° 0,000 mm 9,0 °C 25,6 °C 0,0 km/h (0 Bft) 100,00 %
05.05.2026 17:56 25,6 °C 35 % 1004,3 hPa 0,0 l/m² 0,0 km/h (0 Bft) W 270 ° 0,000 mm 9,0 °C 25,6 °C 1,6 km/h (1 Bft) 100,00 %
05.05.2026 17:55 25,6 °C 34 % 1004,3 hPa 0,0 l/m² 0,0 km/h (0 Bft) N 0 ° 0,000 mm 8,6 °C 25,6 °C 0,0 km/h (0 Bft) 100,00 %
05.05.2026 17:54 25,6 °C 35 % 1004,3 hPa 0,0 l/m² 0,0 km/h (0 Bft) N 0 ° 0,000 mm 9,0 °C 25,6 °C 0,0 km/h (0 Bft) 100,00 %
05.05.2026 17:53 25,5 °C 35 % 1004,3 hPa 0,0 l/m² 0,0 km/h (0 Bft) W-SW 247 ° 0,000 mm 8,9 °C 25,5 °C 1,6 km/h (1 Bft) 100,00 %
05.05.2026 17:52 25,4 °C 36 % 1004,4 hPa 0,0 l/m² 0,0 km/h (0 Bft) W-SW 247 ° 0,000 mm 9,2 °C 25,4 °C 1,6 km/h (1 Bft) 100,00 %
05.05.2026 17:51 25,4 °C 35 % 1004,3 hPa 0,0 l/m² 0,0 km/h (0 Bft) N 0 ° 0,000 mm 8,8 °C 25,4 °C 0,0 km/h (0 Bft) 100,00 %
05.05.2026 17:50 25,4 °C 35 % 1004,3 hPa 0,0 l/m² 0,0 km/h (0 Bft) N 0 ° 0,000 mm 8,8 °C 25,4 °C 0,0 km/h (0 Bft) 100,00 %
05.05.2026 17:49 25,6 °C 35 % 1004,4 hPa 0,0 l/m² 1,6 km/h (1 Bft) W-NW 292 ° 0,000 mm 9,0 °C 25,6 °C 1,6 km/h (1 Bft) 100,00 %
05.05.2026 17:48 25,6 °C 35 % 1004,5 hPa 0,0 l/m² 1,6 km/h (1 Bft) W-NW 292 ° 0,000 mm 9,0 °C 25,6 °C 1,6 km/h (1 Bft) 100,00 %
05.05.2026 17:47 25,6 °C 35 % 1004,3 hPa 0,0 l/m² 1,6 km/h (1 Bft) W-NW 292 ° 0,000 mm 9,0 °C 25,6 °C 4,8 km/h (1 Bft) 100,00 %
05.05.2026 17:46 25,7 °C 35 % 1004,3 hPa 0,0 l/m² 1,6 km/h (1 Bft) N 360 ° 0,000 mm 9,1 °C 25,7 °C 4,8 km/h (1 Bft) 95,65 %
05.05.2026 17:45 25,7 °C 34 % 1004,4 hPa 0,0 l/m² 1,6 km/h (1 Bft) N 360 ° 0,000 mm 8,6 °C 25,7 °C 4,8 km/h (1 Bft) 100,00 %
05.05.2026 17:44 25,8 °C 35 % 1004,3 hPa 0,0 l/m² 1,6 km/h (1 Bft) W-NW 292 ° 0,000 mm 9,2 °C 25,8 °C 3,2 km/h (1 Bft) 100,00 %
05.05.2026 17:43 25,9 °C 34 % 1004,5 hPa 0,0 l/m² 4,8 km/h (1 Bft) O-NO 67 ° 0,000 mm 8,8 °C 25,9 °C 8,0 km/h (2 Bft) 100,00 %
05.05.2026 17:42 26,0 °C 34 % 1004,4 hPa 0,0 l/m² 3,2 km/h (1 Bft) N-NW 337 ° 0,000 mm 8,9 °C 26,0 °C 6,4 km/h (2 Bft) 100,00 %
05.05.2026 17:41 26,1 °C 34 % 1004,3 hPa 0,0 l/m² 1,6 km/h (1 Bft) W-NW 292 ° 0,000 mm 9,0 °C 26,1 °C 4,8 km/h (1 Bft) 100,00 %
05.05.2026 17:40 26,2 °C 34 % 1004,3 hPa 0,0 l/m² 3,2 km/h (1 Bft) NW 315 ° 0,000 mm 9,1 °C 26,2 °C 3,2 km/h (1 Bft) 100,00 %
05.05.2026 17:39 26,2 °C 34 % 1004,4 hPa 0,0 l/m² 1,6 km/h (1 Bft) W-NW 292 ° 0,000 mm 9,1 °C 26,2 °C 4,8 km/h (1 Bft) 100,00 %
05.05.2026 17:38 26,3 °C 34 % 1004,4 hPa 0,0 l/m² 1,6 km/h (1 Bft) SW 225 ° 0,000 mm 9,2 °C 26,3 °C 3,2 km/h (1 Bft) 100,00 %
05.05.2026 17:37 26,4 °C 34 % 1004,4 hPa 0,0 l/m² 1,6 km/h (1 Bft) W-NW 292 ° 0,000 mm 9,3 °C 26,4 °C 3,2 km/h (1 Bft) 100,00 %
05.05.2026 17:36 26,4 °C 33 % 1004,5 hPa 0,0 l/m² 1,6 km/h (1 Bft) W-NW 292 ° 0,000 mm 8,8 °C 26,4 °C 1,6 km/h (1 Bft) 100,00 %
05.05.2026 17:35 26,6 °C 33 % 1004,5 hPa 0,0 l/m² 1,6 km/h (1 Bft) W-NW 292 ° 0,000 mm 9,0 °C 26,6 °C 3,2 km/h (1 Bft) 100,00 %
05.05.2026 17:34 26,7 °C 32 % 1004,5 hPa 0,0 l/m² 4,8 km/h (1 Bft) N-NW 337 ° 0,000 mm 8,6 °C 26,7 °C 8,0 km/h (2 Bft) 100,00 %
05.05.2026 17:33 26,8 °C 32 % 1004,4 hPa 0,0 l/m² 1,6 km/h (1 Bft) W 270 ° 0,000 mm 8,7 °C 26,8 °C 3,2 km/h (1 Bft) 95,65 %
05.05.2026 17:32 26,9 °C 32 % 1004,4 hPa 0,0 l/m² 1,6 km/h (1 Bft) NW 315 ° 0,000 mm 8,8 °C 26,9 °C 3,2 km/h (1 Bft) 100,00 %
05.05.2026 17:31 26,9 °C 32 % 1004,4 hPa 0,0 l/m² 0,0 km/h (0 Bft) W-NW 292 ° 0,000 mm 8,8 °C 26,9 °C 1,6 km/h (1 Bft) 100,00 %
05.05.2026 17:30 27,0 °C 33 % 1004,5 hPa 0,0 l/m² 1,6 km/h (1 Bft) NW 315 ° 0,000 mm 9,3 °C 27,0 °C 4,8 km/h (1 Bft) 100,00 %
05.05.2026 17:29 27,0 °C 34 % 1004,4 hPa 0,0 l/m² 0,0 km/h (0 Bft) W 270 ° 0,000 mm 9,8 °C 27,0 °C 1,6 km/h (1 Bft) 100,00 %
05.05.2026 17:28 27,0 °C 34 % 1004,5 hPa 0,0 l/m² 0,0 km/h (0 Bft) W 270 ° 0,000 mm 9,8 °C 27,0 °C 1,6 km/h (1 Bft) 100,00 %
05.05.2026 17:27 26,9 °C 33 % 1004,5 hPa 0,0 l/m² 1,6 km/h (1 Bft) W 270 ° 0,000 mm 9,3 °C 26,9 °C 1,6 km/h (1 Bft) 100,00 %
05.05.2026 17:26 27,0 °C 32 % 1004,5 hPa 0,0 l/m² 1,6 km/h (1 Bft) SW 225 ° 0,000 mm 8,9 °C 27,0 °C 3,2 km/h (1 Bft) 100,00 %
05.05.2026 17:25 27,1 °C 32 % 1004,5 hPa 0,0 l/m² 1,6 km/h (1 Bft) W 270 ° 0,000 mm 9,0 °C 27,1 °C 3,2 km/h (1 Bft) 100,00 %
05.05.2026 17:24 27,2 °C 33 % 1004,5 hPa 0,0 l/m² 1,6 km/h (1 Bft) W-NW 292 ° 0,000 mm 9,5 °C 27,2 °C 3,2 km/h (1 Bft) 100,00 %
05.05.2026 17:23 27,3 °C 32 % 1004,6 hPa 0,0 l/m² 3,2 km/h (1 Bft) O-NO 67 ° 0,000 mm 9,1 °C 27,3 °C 6,4 km/h (2 Bft) 100,00 %
05.05.2026 17:22 27,3 °C 33 % 1004,5 hPa 0,0 l/m² 1,6 km/h (1 Bft) W-NW 292 ° 0,000 mm 9,6 °C 27,3 °C 4,8 km/h (1 Bft) 100,00 %
05.05.2026 17:21 27,2 °C 33 % 1004,5 hPa 0,0 l/m² 0,0 km/h (0 Bft) N 0 ° 0,000 mm 9,5 °C 27,2 °C 0,0 km/h (0 Bft) 100,00 %
05.05.2026 17:20 27,1 °C 32 % 1004,5 hPa 0,0 l/m² 0,0 km/h (0 Bft) N 0 ° 0,000 mm 9,0 °C 27,1 °C 0,0 km/h (0 Bft) 100,00 %
05.05.2026 17:19 27,0 °C 32 % 1004,6 hPa 0,0 l/m² 0,0 km/h (0 Bft) N 0 ° 0,000 mm 8,9 °C 27,0 °C 0,0 km/h (0 Bft) 95,65 %
05.05.2026 17:18 27,1 °C 32 % 1004,6 hPa 0,0 l/m² 1,6 km/h (1 Bft) W-NW 292 ° 0,000 mm 9,0 °C 27,1 °C 3,2 km/h (1 Bft) 100,00 %
05.05.2026 17:17 27,2 °C 32 % 1004,5 hPa 0,0 l/m² 1,6 km/h (1 Bft) W-NW 292 ° 0,000 mm 9,1 °C 27,2 °C 3,2 km/h (1 Bft) 100,00 %
05.05.2026 17:16 27,2 °C 32 % 1004,6 hPa 0,0 l/m² 1,6 km/h (1 Bft) W-NW 292 ° 0,000 mm 9,1 °C 27,2 °C 3,2 km/h (1 Bft) 100,00 %
05.05.2026 17:15 27,2 °C 32 % 1004,6 hPa 0,0 l/m² 1,6 km/h (1 Bft) N-NW 337 ° 0,000 mm 9,1 °C 27,2 °C 3,2 km/h (1 Bft) 100,00 %
05.05.2026 17:14 27,2 °C 31 % 1004,7 hPa 0,0 l/m² 1,6 km/h (1 Bft) W-NW 292 ° 0,000 mm 8,6 °C 27,2 °C 3,2 km/h (1 Bft) 95,65 %
05.05.2026 17:13 27,1 °C 33 % 1004,6 hPa 0,0 l/m² 0,0 km/h (0 Bft) W-SW 247 ° 0,000 mm 9,4 °C 27,1 °C 1,6 km/h (1 Bft) 100,00 %
05.05.2026 17:12 27,1 °C 34 % 1004,6 hPa 0,0 l/m² 1,6 km/h (1 Bft) W-SW 247 ° 0,000 mm 9,9 °C 27,1 °C 4,8 km/h (1 Bft) 100,00 %
05.05.2026 17:11 27,0 °C 34 % 1004,6 hPa 0,0 l/m² 1,6 km/h (1 Bft) W-SW 247 ° 0,000 mm 9,8 °C 27,0 °C 3,2 km/h (1 Bft) 100,00 %
05.05.2026 17:10 26,9 °C 33 % 1004,7 hPa 0,0 l/m² 1,6 km/h (1 Bft) SW 225 ° 0,000 mm 9,3 °C 26,9 °C 3,2 km/h (1 Bft) 95,65 %
05.05.2026 17:09 26,9 °C 33 % 1004,6 hPa 0,0 l/m² 0,0 km/h (0 Bft) SW 225 ° 0,000 mm 9,3 °C 26,9 °C 1,6 km/h (1 Bft) 100,00 %
05.05.2026 17:08 26,9 °C 33 % 1004,6 hPa 0,0 l/m² 3,2 km/h (1 Bft) N-NW 337 ° 0,000 mm 9,3 °C 26,9 °C 4,8 km/h (1 Bft) 100,00 %
05.05.2026 17:07 26,8 °C 33 % 1004,6 hPa 0,0 l/m² 3,2 km/h (1 Bft) W 270 ° 0,000 mm 9,2 °C 26,8 °C 6,4 km/h (2 Bft) 100,00 %
05.05.2026 17:06 26,8 °C 34 % 1004,6 hPa 0,0 l/m² 3,2 km/h (1 Bft) N 360 ° 0,000 mm 9,6 °C 26,8 °C 6,4 km/h (2 Bft) 100,00 %
05.05.2026 17:05 26,8 °C 34 % 1004,7 hPa 0,0 l/m² 0,0 km/h (0 Bft) NW 315 ° 0,000 mm 9,6 °C 26,8 °C 3,2 km/h (1 Bft) 100,00 %
05.05.2026 17:04 26,7 °C 34 % 1004,6 hPa 0,0 l/m² 3,2 km/h (1 Bft) O 90 ° 0,000 mm 9,5 °C 26,7 °C 4,8 km/h (1 Bft) 100,00 %
05.05.2026 17:03 26,8 °C 33 % 1004,7 hPa 0,0 l/m² 3,2 km/h (1 Bft) NO 45 ° 0,000 mm 9,2 °C 26,8 °C 6,4 km/h (2 Bft) 100,00 %
05.05.2026 17:02 26,7 °C 34 % 1004,6 hPa 0,0 l/m² 3,2 km/h (1 Bft) S 180 ° 0,000 mm 9,5 °C 26,7 °C 4,8 km/h (1 Bft) 100,00 %
05.05.2026 17:01 26,7 °C 34 % 1004,7 hPa 0,0 l/m² 4,8 km/h (1 Bft) S-SO 157 ° 0,000 mm 9,5 °C 26,7 °C 9,7 km/h (2 Bft) 100,00 %
05.05.2026 17:00 26,7 °C 35 % 1004,7 hPa 0,0 l/m² 3,2 km/h (1 Bft) NO 45 ° 0,000 mm 10,0 °C 26,7 °C 9,7 km/h (2 Bft) 95,65 %
05.05.2026 16:59 26,6 °C 34 % 1004,6 hPa 0,0 l/m² 1,6 km/h (1 Bft) W 270 ° 0,000 mm 9,4 °C 26,6 °C 4,8 km/h (1 Bft) 100,00 %
05.05.2026 16:58 26,6 °C 35 % 1004,6 hPa 0,0 l/m² 1,6 km/h (1 Bft) O 90 ° 0,000 mm 9,9 °C 26,6 °C 3,2 km/h (1 Bft) 100,00 %
05.05.2026 16:57 26,6 °C 34 % 1004,7 hPa 0,0 l/m² 3,2 km/h (1 Bft) N-NO 22 ° 0,000 mm 9,4 °C 26,6 °C 6,4 km/h (2 Bft) 100,00 %
05.05.2026 16:56 26,6 °C 34 % 1004,6 hPa 0,0 l/m² 3,2 km/h (1 Bft) NO 45 ° 0,000 mm 9,4 °C 26,6 °C 4,8 km/h (1 Bft) 100,00 %
05.05.2026 16:55 26,7 °C 35 % 1004,7 hPa 0,0 l/m² 1,6 km/h (1 Bft) O-NO 67 ° 0,000 mm 10,0 °C 26,7 °C 4,8 km/h (1 Bft) 95,65 %
05.05.2026 16:54 26,7 °C 34 % 1004,7 hPa 0,0 l/m² 3,2 km/h (1 Bft) W-NW 292 ° 0,000 mm 9,5 °C 26,7 °C 6,4 km/h (2 Bft) 100,00 %
05.05.2026 16:53 26,7 °C 34 % 1004,7 hPa 0,0 l/m² 3,2 km/h (1 Bft) W-NW 292 ° 0,000 mm 9,5 °C 26,7 °C 6,4 km/h (2 Bft) 100,00 %
05.05.2026 16:52 26,7 °C 33 % 1004,7 hPa 0,0 l/m² 0,0 km/h (0 Bft) W-SW 247 ° 0,000 mm 9,1 °C 26,7 °C 1,6 km/h (1 Bft) 100,00 %
05.05.2026 16:51 26,6 °C 32 % 1004,7 hPa 0,0 l/m² 1,6 km/h (1 Bft) W 270 ° 0,000 mm 8,5 °C 26,6 °C 3,2 km/h (1 Bft) 100,00 %
05.05.2026 16:50 26,7 °C 33 % 1004,8 hPa 0,0 l/m² 1,6 km/h (1 Bft) W 270 ° 0,000 mm 9,1 °C 26,7 °C 3,2 km/h (1 Bft) 100,00 %
05.05.2026 16:49 26,7 °C 35 % 1004,8 hPa 0,0 l/m² 1,6 km/h (1 Bft) NW 315 ° 0,000 mm 10,0 °C 26,7 °C 4,8 km/h (1 Bft) 100,00 %
05.05.2026 16:48 26,6 °C 34 % 1004,7 hPa 0,0 l/m² 1,6 km/h (1 Bft) W-SW 247 ° 0,000 mm 9,4 °C 26,6 °C 3,2 km/h (1 Bft) 100,00 %
05.05.2026 16:47 26,5 °C 33 % 1004,8 hPa 0,0 l/m² 1,6 km/h (1 Bft) W 270 ° 0,000 mm 8,9 °C 26,5 °C 3,2 km/h (1 Bft) 100,00 %
05.05.2026 16:46 26,4 °C 33 % 1004,8 hPa 0,0 l/m² 0,0 km/h (0 Bft) N 0 ° 0,000 mm 8,8 °C 26,4 °C 0,0 km/h (0 Bft) 100,00 %
05.05.2026 16:45 26,4 °C 33 % 1004,9 hPa 0,0 l/m² 0,0 km/h (0 Bft) N 0 ° 0,000 mm 8,8 °C 26,4 °C 0,0 km/h (0 Bft) 100,00 %
05.05.2026 16:44 26,4 °C 32 % 1004,8 hPa 0,0 l/m² 0,0 km/h (0 Bft) S-SW 202 ° 0,000 mm 8,4 °C 26,4 °C 1,6 km/h (1 Bft) 100,00 %
05.05.2026 16:43 26,4 °C 32 % 1004,8 hPa 0,0 l/m² 1,6 km/h (1 Bft) S-SW 202 ° 0,000 mm 8,4 °C 26,4 °C 1,6 km/h (1 Bft) 100,00 %
05.05.2026 16:42 26,5 °C 33 % 1004,9 hPa 0,0 l/m² 1,6 km/h (1 Bft) S-SW 202 ° 0,000 mm 8,9 °C 26,5 °C 4,8 km/h (1 Bft) 100,00 %
05.05.2026 16:41 26,5 °C 33 % 1004,9 hPa 0,0 l/m² 4,8 km/h (1 Bft) S 180 ° 0,000 mm 8,9 °C 26,5 °C 8,0 km/h (2 Bft) 100,00 %
05.05.2026 16:40 26,6 °C 32 % 1004,9 hPa 0,0 l/m² 4,8 km/h (1 Bft) S 180 ° 0,000 mm 8,5 °C 26,6 °C 6,4 km/h (2 Bft) 100,00 %
05.05.2026 16:39 26,6 °C 32 % 1004,9 hPa 0,0 l/m² 4,8 km/h (1 Bft) S 180 ° 0,000 mm 8,5 °C 26,6 °C 6,4 km/h (2 Bft) 100,00 %
05.05.2026 16:38 26,6 °C 33 % 1005,0 hPa 0,0 l/m² 4,8 km/h (1 Bft) S-SW 202 ° 0,000 mm 9,0 °C 26,6 °C 8,0 km/h (2 Bft) 100,00 %
05.05.2026 16:37 26,7 °C 32 % 1005,0 hPa 0,0 l/m² 4,8 km/h (1 Bft) S-SO 157 ° 0,000 mm 8,6 °C 26,7 °C 6,4 km/h (2 Bft) 100,00 %
05.05.2026 16:36 26,8 °C 32 % 1005,0 hPa 0,0 l/m² 8,0 km/h (2 Bft) SO 135 ° 0,000 mm 8,7 °C 26,5 °C 11,3 km/h (2 Bft) 100,00 %
05.05.2026 16:35 26,8 °C 33 % 1005,0 hPa 0,0 l/m² 4,8 km/h (1 Bft) S-SO 157 ° 0,000 mm 9,2 °C 26,8 °C 8,0 km/h (2 Bft) 100,00 %
05.05.2026 16:34 26,9 °C 33 % 1005,0 hPa 0,0 l/m² 4,8 km/h (1 Bft) O-SO 112 ° 0,000 mm 9,3 °C 26,9 °C 8,0 km/h (2 Bft) 100,00 %
05.05.2026 16:33 27,0 °C 33 % 1005,0 hPa 0,0 l/m² 3,2 km/h (1 Bft) S-SO 157 ° 0,000 mm 9,3 °C 27,0 °C 6,4 km/h (2 Bft) 100,00 %
05.05.2026 16:32 27,1 °C 32 % 1005,0 hPa 0,0 l/m² 1,6 km/h (1 Bft) W-SW 247 ° 0,000 mm 9,0 °C 27,1 °C 4,8 km/h (1 Bft) 100,00 %
05.05.2026 16:31 27,1 °C 32 % 1004,9 hPa 0,0 l/m² 1,6 km/h (1 Bft) NW 315 ° 0,000 mm 9,0 °C 27,1 °C 3,2 km/h (1 Bft) 100,00 %
05.05.2026 16:30 27,2 °C 31 % 1005,0 hPa 0,0 l/m² 1,6 km/h (1 Bft) W-NW 292 ° 0,000 mm 8,6 °C 27,2 °C 3,2 km/h (1 Bft) 100,00 %
05.05.2026 16:29 27,3 °C 32 % 1004,9 hPa 0,0 l/m² 1,6 km/h (1 Bft) SW 225 ° 0,000 mm 9,1 °C 27,3 °C 1,6 km/h (1 Bft) 95,65 %
05.05.2026 16:28 27,3 °C 32 % 1005,1 hPa 0,0 l/m² 3,2 km/h (1 Bft) S-SW 202 ° 0,000 mm 9,1 °C 27,3 °C 4,8 km/h (1 Bft) 100,00 %
05.05.2026 16:27 27,4 °C 31 % 1005,1 hPa 0,0 l/m² 4,8 km/h (1 Bft) S 180 ° 0,000 mm 8,8 °C 27,4 °C 4,8 km/h (1 Bft) 100,00 %
05.05.2026 16:26 27,4 °C 32 % 1005,0 hPa 0,0 l/m² 3,2 km/h (1 Bft) S 180 ° 0,000 mm 9,2 °C 27,4 °C 4,8 km/h (1 Bft) 100,00 %
05.05.2026 16:25 27,4 °C 32 % 1005,0 hPa 0,0 l/m² 1,6 km/h (1 Bft) SW 225 ° 0,000 mm 9,2 °C 27,4 °C 4,8 km/h (1 Bft) 100,00 %
05.05.2026 16:24 27,3 °C 32 % 1005,0 hPa 0,0 l/m² 0,0 km/h (0 Bft) NO 45 ° 0,000 mm 9,1 °C 27,3 °C 3,2 km/h (1 Bft) 100,00 %
05.05.2026 16:23 27,3 °C 32 % 1005,0 hPa 0,0 l/m² 0,0 km/h (0 Bft) NO 45 ° 0,000 mm 9,1 °C 27,3 °C 1,6 km/h (1 Bft) 100,00 %
05.05.2026 16:22 27,3 °C 32 % 1005,1 hPa 0,0 l/m² 3,2 km/h (1 Bft) NO 45 ° 0,000 mm 9,1 °C 27,3 °C 3,2 km/h (1 Bft) 95,65 %
05.05.2026 16:21 27,3 °C 32 % 1005,1 hPa 0,0 l/m² 1,6 km/h (1 Bft) W-NW 292 ° 0,000 mm 9,1 °C 27,3 °C 4,8 km/h (1 Bft) 100,00 %
05.05.2026 16:20 27,4 °C 32 % 1005,1 hPa 0,0 l/m² 1,6 km/h (1 Bft) SW 225 ° 0,000 mm 9,2 °C 27,4 °C 4,8 km/h (1 Bft) 100,00 %
05.05.2026 16:19 27,4 °C 31 % 1005,1 hPa 0,0 l/m² 3,2 km/h (1 Bft) O 90 ° 0,000 mm 8,8 °C 27,4 °C 6,4 km/h (2 Bft) 100,00 %
05.05.2026 16:18 27,4 °C 33 % 1005,2 hPa 0,0 l/m² 3,2 km/h (1 Bft) S-SW 202 ° 0,000 mm 9,7 °C 27,4 °C 6,4 km/h (2 Bft) 100,00 %
05.05.2026 16:17 27,4 °C 33 % 1005,3 hPa 0,0 l/m² 1,6 km/h (1 Bft) O-NO 67 ° 0,000 mm 9,7 °C 27,4 °C 4,8 km/h (1 Bft) 100,00 %
05.05.2026 16:16 27,3 °C 33 % 1005,2 hPa 0,0 l/m² 1,6 km/h (1 Bft) W 270 ° 0,000 mm 9,6 °C 27,3 °C 3,2 km/h (1 Bft) 100,00 %
05.05.2026 16:15 27,3 °C 33 % 1005,3 hPa 0,0 l/m² 3,2 km/h (1 Bft) S-SW 202 ° 0,000 mm 9,6 °C 27,3 °C 4,8 km/h (1 Bft) 100,00 %
05.05.2026 16:14 27,2 °C 34 % 1005,2 hPa 0,0 l/m² 1,6 km/h (1 Bft) SW 225 ° 0,000 mm 10,0 °C 27,2 °C 4,8 km/h (1 Bft) 95,65 %
05.05.2026 16:13 27,2 °C 33 % 1005,2 hPa 0,0 l/m² 1,6 km/h (1 Bft) W 270 ° 0,000 mm 9,5 °C 27,2 °C 4,8 km/h (1 Bft) 100,00 %
05.05.2026 16:12 27,2 °C 32 % 1005,4 hPa 0,0 l/m² 4,8 km/h (1 Bft) NO 45 ° 0,000 mm 9,1 °C 27,2 °C 6,4 km/h (2 Bft) 100,00 %
05.05.2026 16:11 27,2 °C 33 % 1005,3 hPa 0,0 l/m² 1,6 km/h (1 Bft) W 270 ° 0,000 mm 9,5 °C 27,2 °C 4,8 km/h (1 Bft) 100,00 %
05.05.2026 16:10 27,1 °C 33 % 1005,3 hPa 0,0 l/m² 1,6 km/h (1 Bft) W 270 ° 0,000 mm 9,4 °C 27,1 °C 1,6 km/h (1 Bft) 100,00 %
05.05.2026 16:09 27,0 °C 32 % 1005,3 hPa 0,0 l/m² 0,0 km/h (0 Bft) W-NW 292 ° 0,000 mm 8,9 °C 27,0 °C 1,6 km/h (1 Bft) 100,00 %
05.05.2026 16:08 26,9 °C 33 % 1005,3 hPa 0,0 l/m² 3,2 km/h (1 Bft) S-SW 202 ° 0,000 mm 9,3 °C 26,9 °C 4,8 km/h (1 Bft) 100,00 %
05.05.2026 16:07 26,9 °C 34 % 1005,3 hPa 0,0 l/m² 3,2 km/h (1 Bft) S-SW 202 ° 0,000 mm 9,7 °C 26,9 °C 6,4 km/h (2 Bft) 95,65 %
05.05.2026 16:06 26,9 °C 32 % 1005,4 hPa 0,0 l/m² 6,4 km/h (2 Bft) O-SO 112 ° 0,000 mm 8,8 °C 26,9 °C 8,0 km/h (2 Bft) 100,00 %
05.05.2026 16:05 26,8 °C 32 % 1005,3 hPa 0,0 l/m² 4,8 km/h (1 Bft) SW 225 ° 0,000 mm 8,7 °C 26,8 °C 8,0 km/h (2 Bft) 95,65 %
05.05.2026 16:04 26,9 °C 32 % 1005,5 hPa 0,0 l/m² 3,2 km/h (1 Bft) SW 225 ° 0,000 mm 8,8 °C 26,9 °C 4,8 km/h (1 Bft) 100,00 %
05.05.2026 16:03 27,0 °C 32 % 1005,5 hPa 0,0 l/m² 3,2 km/h (1 Bft) SW 225 ° 0,000 mm 8,9 °C 27,0 °C 6,4 km/h (2 Bft) 100,00 %
05.05.2026 16:02 27,1 °C 32 % 1005,4 hPa 0,0 l/m² 4,8 km/h (1 Bft) SW 225 ° 0,000 mm 9,0 °C 27,1 °C 6,4 km/h (2 Bft) 100,00 %
05.05.2026 16:01 27,1 °C 33 % 1005,5 hPa 0,0 l/m² 1,6 km/h (1 Bft) SW 225 ° 0,000 mm 9,4 °C 27,1 °C 4,8 km/h (1 Bft) 100,00 %
05.05.2026 16:00 27,2 °C 33 % 1005,5 hPa 0,0 l/m² 3,2 km/h (1 Bft) SW 225 ° 0,000 mm 9,5 °C 27,2 °C 6,4 km/h (2 Bft) 100,00 %
05.05.2026 15:59 27,2 °C 33 % 1005,5 hPa 0,0 l/m² 3,2 km/h (1 Bft) W 270 ° 0,000 mm 9,5 °C 27,2 °C 4,8 km/h (1 Bft) 100,00 %
05.05.2026 15:58 27,1 °C 33 % 1005,5 hPa 0,0 l/m² 3,2 km/h (1 Bft) W-SW 247 ° 0,000 mm 9,4 °C 27,1 °C 4,8 km/h (1 Bft) 100,00 %
05.05.2026 15:57 26,8 °C 33 % 1005,5 hPa 0,0 l/m² 0,0 km/h (0 Bft) W-SW 247 ° 0,000 mm 9,2 °C 26,8 °C 3,2 km/h (1 Bft) 100,00 %
05.05.2026 15:56 26,6 °C 33 % 1005,5 hPa 0,0 l/m² 0,0 km/h (0 Bft) W 270 ° 0,000 mm 9,0 °C 26,6 °C 1,6 km/h (1 Bft) 100,00 %
05.05.2026 15:55 26,6 °C 32 % 1005,5 hPa 0,0 l/m² 0,0 km/h (0 Bft) W 270 ° 0,000 mm 8,5 °C 26,6 °C 1,6 km/h (1 Bft) 95,65 %
05.05.2026 15:54 26,6 °C 32 % 1005,6 hPa 0,0 l/m² 3,2 km/h (1 Bft) W-SW 247 ° 0,000 mm 8,5 °C 26,6 °C 3,2 km/h (1 Bft) 100,00 %
05.05.2026 15:53 26,6 °C 32 % 1005,6 hPa 0,0 l/m² 0,0 km/h (0 Bft) W-SW 247 ° 0,000 mm 8,5 °C 26,6 °C 1,6 km/h (1 Bft) 100,00 %
05.05.2026 15:52 26,5 °C 32 % 1005,5 hPa 0,0 l/m² 1,6 km/h (1 Bft) W-SW 247 ° 0,000 mm 8,4 °C 26,5 °C 3,2 km/h (1 Bft) 95,65 %
05.05.2026 15:51 26,5 °C 32 % 1005,6 hPa 0,0 l/m² 3,2 km/h (1 Bft) W-SW 247 ° 0,000 mm 8,4 °C 26,5 °C 4,8 km/h (1 Bft) 100,00 %
05.05.2026 15:50 26,4 °C 32 % 1005,6 hPa 0,0 l/m² 0,0 km/h (0 Bft) W-SW 247 ° 0,000 mm 8,4 °C 26,4 °C 3,2 km/h (1 Bft) 100,00 %
05.05.2026 15:49 26,3 °C 32 % 1005,6 hPa 0,0 l/m² 0,0 km/h (0 Bft) W-SW 247 ° 0,000 mm 8,3 °C 26,3 °C 3,2 km/h (1 Bft) 100,00 %
05.05.2026 15:48 26,2 °C 33 % 1005,6 hPa 0,0 l/m² 1,6 km/h (1 Bft) W-SW 247 ° 0,000 mm 8,6 °C 26,2 °C 4,8 km/h (1 Bft) 100,00 %
05.05.2026 15:47 26,2 °C 33 % 1005,6 hPa 0,0 l/m² 0,0 km/h (0 Bft) SW 225 ° 0,000 mm 8,6 °C 26,2 °C 1,6 km/h (1 Bft) 100,00 %
05.05.2026 15:46 26,0 °C 33 % 1005,6 hPa 0,0 l/m² 1,6 km/h (1 Bft) SW 225 ° 0,000 mm 8,5 °C 26,0 °C 1,6 km/h (1 Bft) 100,00 %
05.05.2026 15:45 25,9 °C 33 % 1005,6 hPa 0,0 l/m² 1,6 km/h (1 Bft) S-SW 202 ° 0,000 mm 8,4 °C 25,9 °C 4,8 km/h (1 Bft) 100,00 %
05.05.2026 15:44 25,8 °C 33 % 1005,6 hPa 0,0 l/m² 1,6 km/h (1 Bft) W-NW 292 ° 0,000 mm 8,3 °C 25,8 °C 3,2 km/h (1 Bft) 100,00 %
05.05.2026 15:43 25,8 °C 34 % 1005,6 hPa 0,0 l/m² 3,2 km/h (1 Bft) N-NW 337 ° 0,000 mm 8,7 °C 25,8 °C 4,8 km/h (1 Bft) 100,00 %
05.05.2026 15:42 25,9 °C 33 % 1005,6 hPa 0,0 l/m² 3,2 km/h (1 Bft) N-NW 337 ° 0,000 mm 8,4 °C 25,9 °C 4,8 km/h (1 Bft) 100,00 %
05.05.2026 15:41 26,1 °C 33 % 1005,6 hPa 0,0 l/m² 6,4 km/h (2 Bft) NO 45 ° 0,000 mm 8,6 °C 26,1 °C 8,0 km/h (2 Bft) 100,00 %
05.05.2026 15:40 26,1 °C 33 % 1005,6 hPa 0,0 l/m² 4,8 km/h (1 Bft) NO 45 ° 0,000 mm 8,6 °C 26,1 °C 8,0 km/h (2 Bft) 100,00 %
05.05.2026 15:39 26,0 °C 34 % 1005,6 hPa 0,0 l/m² 3,2 km/h (1 Bft) W-NW 292 ° 0,000 mm 8,9 °C 26,0 °C 4,8 km/h (1 Bft) 100,00 %
05.05.2026 15:38 26,0 °C 34 % 1005,6 hPa 0,0 l/m² 1,6 km/h (1 Bft) W-NW 292 ° 0,000 mm 8,9 °C 26,0 °C 3,2 km/h (1 Bft) 100,00 %
05.05.2026 15:37 25,9 °C 33 % 1005,7 hPa 0,0 l/m² 3,2 km/h (1 Bft) W 270 ° 0,000 mm 8,4 °C 25,9 °C 6,4 km/h (2 Bft) 100,00 %
05.05.2026 15:36 25,9 °C 33 % 1005,7 hPa 0,0 l/m² 1,6 km/h (1 Bft) W-NW 292 ° 0,000 mm 8,4 °C 25,9 °C 3,2 km/h (1 Bft) 95,65 %
05.05.2026 15:35 25,9 °C 34 % 1005,6 hPa 0,0 l/m² 3,2 km/h (1 Bft) W-NW 292 ° 0,000 mm 8,8 °C 25,9 °C 4,8 km/h (1 Bft) 95,65 %
05.05.2026 15:34 25,9 °C 33 % 1005,7 hPa 0,0 l/m² 4,8 km/h (1 Bft) NW 315 ° 0,000 mm 8,4 °C 25,9 °C 6,4 km/h (2 Bft) 100,00 %
05.05.2026 15:33 25,9 °C 33 % 1005,8 hPa 0,0 l/m² 3,2 km/h (1 Bft) W-SW 247 ° 0,000 mm 8,4 °C 25,9 °C 4,8 km/h (1 Bft) 100,00 %
05.05.2026 15:32 25,9 °C 34 % 1005,7 hPa 0,0 l/m² 3,2 km/h (1 Bft) W-NW 292 ° 0,000 mm 8,8 °C 25,9 °C 8,0 km/h (2 Bft) 100,00 %
05.05.2026 15:31 25,9 °C 33 % 1005,7 hPa 0,0 l/m² 1,6 km/h (1 Bft) W-NW 292 ° 0,000 mm 8,4 °C 25,9 °C 4,8 km/h (1 Bft) 100,00 %
05.05.2026 15:30 25,8 °C 35 % 1005,7 hPa 0,0 l/m² 1,6 km/h (1 Bft) W 270 ° 0,000 mm 9,2 °C 25,8 °C 4,8 km/h (1 Bft) 100,00 %
05.05.2026 15:29 25,8 °C 35 % 1005,8 hPa 0,0 l/m² 1,6 km/h (1 Bft) W-NW 292 ° 0,000 mm 9,2 °C 25,8 °C 3,2 km/h (1 Bft) 100,00 %
05.05.2026 15:28 25,8 °C 34 % 1005,8 hPa 0,0 l/m² 1,6 km/h (1 Bft) W-NW 292 ° 0,000 mm 8,7 °C 25,8 °C 3,2 km/h (1 Bft) 100,00 %
05.05.2026 15:27 25,7 °C 34 % 1005,8 hPa 0,0 l/m² 3,2 km/h (1 Bft) W 270 ° 0,000 mm 8,6 °C 25,7 °C 4,8 km/h (1 Bft) 100,00 %
05.05.2026 15:26 25,7 °C 34 % 1005,8 hPa 0,0 l/m² 1,6 km/h (1 Bft) W-NW 292 ° 0,000 mm 8,6 °C 25,7 °C 3,2 km/h (1 Bft) 100,00 %
05.05.2026 15:25 25,8 °C 34 % 1005,8 hPa 0,0 l/m² 3,2 km/h (1 Bft) W-NW 292 ° 0,000 mm 8,7 °C 25,8 °C 4,8 km/h (1 Bft) 100,00 %
05.05.2026 15:24 25,8 °C 34 % 1005,9 hPa 0,0 l/m² 4,8 km/h (1 Bft) NW 315 ° 0,000 mm 8,7 °C 25,8 °C 6,4 km/h (2 Bft) 100,00 %
05.05.2026 15:23 25,9 °C 33 % 1005,8 hPa 0,0 l/m² 3,2 km/h (1 Bft) W-NW 292 ° 0,000 mm 8,4 °C 25,9 °C 4,8 km/h (1 Bft) 100,00 %
05.05.2026 15:22 26,1 °C 33 % 1005,8 hPa 0,0 l/m² 4,8 km/h (1 Bft) NW 315 ° 0,000 mm 8,6 °C 26,1 °C 6,4 km/h (2 Bft) 100,00 %
05.05.2026 15:21 26,2 °C 34 % 1005,9 hPa 0,0 l/m² 4,8 km/h (1 Bft) W-NW 292 ° 0,000 mm 9,1 °C 26,2 °C 6,4 km/h (2 Bft) 95,65 %
05.05.2026 15:20 26,3 °C 34 % 1005,8 hPa 0,0 l/m² 6,4 km/h (2 Bft) NW 315 ° 0,000 mm 9,2 °C 26,3 °C 9,7 km/h (2 Bft) 100,00 %
05.05.2026 15:19 26,4 °C 33 % 1005,9 hPa 0,0 l/m² 8,0 km/h (2 Bft) N-NO 22 ° 0,000 mm 8,8 °C 26,1 °C 12,9 km/h (3 Bft) 100,00 %
05.05.2026 15:18 26,7 °C 33 % 1005,8 hPa 0,0 l/m² 6,4 km/h (2 Bft) N-NO 22 ° 0,000 mm 9,1 °C 26,7 °C 11,3 km/h (2 Bft) 100,00 %
05.05.2026 15:17 26,7 °C 35 % 1005,8 hPa 0,0 l/m² 4,8 km/h (1 Bft) NW 315 ° 0,000 mm 10,0 °C 26,7 °C 9,7 km/h (2 Bft) 100,00 %
05.05.2026 15:16 26,6 °C 35 % 1005,8 hPa 0,0 l/m² 1,6 km/h (1 Bft) W 270 ° 0,000 mm 9,9 °C 26,6 °C 4,8 km/h (1 Bft) 100,00 %
05.05.2026 15:15 26,4 °C 34 % 1005,8 hPa 0,0 l/m² 1,6 km/h (1 Bft) W-SW 247 ° 0,000 mm 9,3 °C 26,4 °C 3,2 km/h (1 Bft) 100,00 %
05.05.2026 15:14 26,4 °C 34 % 1005,8 hPa 0,0 l/m² 3,2 km/h (1 Bft) NO 45 ° 0,000 mm 9,3 °C 26,4 °C 4,8 km/h (1 Bft) 95,65 %
05.05.2026 15:13 26,5 °C 33 % 1005,8 hPa 0,0 l/m² 6,4 km/h (2 Bft) O-NO 67 ° 0,000 mm 8,9 °C 26,5 °C 8,0 km/h (2 Bft) 100,00 %
05.05.2026 15:12 26,6 °C 34 % 1005,8 hPa 0,0 l/m² 3,2 km/h (1 Bft) N-NW 337 ° 0,000 mm 9,4 °C 26,6 °C 8,0 km/h (2 Bft) 100,00 %
05.05.2026 15:11 26,6 °C 33 % 1005,9 hPa 0,0 l/m² 1,6 km/h (1 Bft) N-NW 337 ° 0,000 mm 9,0 °C 26,6 °C 4,8 km/h (1 Bft) 95,65 %
05.05.2026 15:10 26,6 °C 33 % 1005,9 hPa 0,0 l/m² 1,6 km/h (1 Bft) W-NW 292 ° 0,000 mm 9,0 °C 26,6 °C 6,4 km/h (2 Bft) 100,00 %
05.05.2026 15:09 26,3 °C 36 % 1005,9 hPa 0,0 l/m² 0,0 km/h (0 Bft) N 0 ° 0,000 mm 10,0 °C 26,3 °C 0,0 km/h (0 Bft) 100,00 %
05.05.2026 15:08 26,1 °C 35 % 1005,9 hPa 0,0 l/m² 0,0 km/h (0 Bft) W 270 ° 0,000 mm 9,4 °C 26,1 °C 1,6 km/h (1 Bft) 100,00 %
05.05.2026 15:07 25,9 °C 35 % 1005,9 hPa 0,0 l/m² 0,0 km/h (0 Bft) N 0 ° 0,000 mm 9,3 °C 25,9 °C 0,0 km/h (0 Bft) 100,00 %
05.05.2026 15:06 25,8 °C 35 % 1005,9 hPa 0,0 l/m² 0,0 km/h (0 Bft) N 0 ° 0,000 mm 9,2 °C 25,8 °C 0,0 km/h (0 Bft) 100,00 %
05.05.2026 15:05 25,7 °C 34 % 1006,0 hPa 0,0 l/m² 1,6 km/h (1 Bft) W-NW 292 ° 0,000 mm 8,6 °C 25,7 °C 1,6 km/h (1 Bft) 100,00 %
05.05.2026 15:04 25,7 °C 35 % 1006,0 hPa 0,0 l/m² 1,6 km/h (1 Bft) W-NW 292 ° 0,000 mm 9,1 °C 25,7 °C 3,2 km/h (1 Bft) 100,00 %
05.05.2026 15:03 25,7 °C 36 % 1006,0 hPa 0,0 l/m² 1,6 km/h (1 Bft) W-NW 292 ° 0,000 mm 9,5 °C 25,7 °C 3,2 km/h (1 Bft) 100,00 %
05.05.2026 15:02 25,7 °C 37 % 1006,1 hPa 0,0 l/m² 1,6 km/h (1 Bft) W-NW 292 ° 0,000 mm 9,9 °C 25,7 °C 3,2 km/h (1 Bft) 95,65 %
05.05.2026 15:01 25,6 °C 36 % 1006,1 hPa 0,0 l/m² 1,6 km/h (1 Bft) W 270 ° 0,000 mm 9,4 °C 25,6 °C 4,8 km/h (1 Bft) 100,00 %
05.05.2026 15:00 25,4 °C 35 % 1006,1 hPa 0,0 l/m² 1,6 km/h (1 Bft) W 270 ° 0,000 mm 8,8 °C 25,4 °C 3,2 km/h (1 Bft) 100,00 %
05.05.2026 14:59 25,5 °C 36 % 1006,1 hPa 0,0 l/m² 1,6 km/h (1 Bft) W 270 ° 0,000 mm 9,3 °C 25,5 °C 3,2 km/h (1 Bft) 100,00 %
05.05.2026 14:58 25,4 °C 35 % 1006,2 hPa 0,0 l/m² 3,2 km/h (1 Bft) W 270 ° 0,000 mm 8,8 °C 25,4 °C 4,8 km/h (1 Bft) 100,00 %
05.05.2026 14:57 25,4 °C 36 % 1006,1 hPa 0,0 l/m² 4,8 km/h (1 Bft) W 270 ° 0,000 mm 9,2 °C 25,4 °C 6,4 km/h (2 Bft) 95,65 %
05.05.2026 14:56 25,4 °C 35 % 1006,1 hPa 0,0 l/m² 3,2 km/h (1 Bft) NW 315 ° 0,000 mm 8,8 °C 25,4 °C 4,8 km/h (1 Bft) 100,00 %
05.05.2026 14:55 25,4 °C 36 % 1006,1 hPa 0,0 l/m² 3,2 km/h (1 Bft) NW 315 ° 0,000 mm 9,2 °C 25,4 °C 4,8 km/h (1 Bft) 100,00 %
05.05.2026 14:54 25,4 °C 36 % 1006,2 hPa 0,0 l/m² 3,2 km/h (1 Bft) W 270 ° 0,000 mm 9,2 °C 25,4 °C 4,8 km/h (1 Bft) 100,00 %
05.05.2026 14:53 25,4 °C 36 % 1006,1 hPa 0,0 l/m² 1,6 km/h (1 Bft) W 270 ° 0,000 mm 9,2 °C 25,4 °C 3,2 km/h (1 Bft) 100,00 %
05.05.2026 14:52 25,4 °C 34 % 1006,3 hPa 0,0 l/m² 3,2 km/h (1 Bft) W-NW 292 ° 0,000 mm 8,4 °C 25,4 °C 4,8 km/h (1 Bft) 100,00 %
05.05.2026 14:51 25,4 °C 35 % 1006,2 hPa 0,0 l/m² 3,2 km/h (1 Bft) SW 225 ° 0,000 mm 8,8 °C 25,4 °C 4,8 km/h (1 Bft) 100,00 %
05.05.2026 14:50 25,4 °C 34 % 1006,2 hPa 0,0 l/m² 3,2 km/h (1 Bft) W-SW 247 ° 0,000 mm 8,4 °C 25,4 °C 4,8 km/h (1 Bft) 100,00 %
05.05.2026 14:49 25,5 °C 34 % 1006,2 hPa 0,0 l/m² 4,8 km/h (1 Bft) NW 315 ° 0,000 mm 8,5 °C 25,5 °C 8,0 km/h (2 Bft) 100,00 %
05.05.2026 14:48 25,6 °C 34 % 1006,2 hPa 0,0 l/m² 4,8 km/h (1 Bft) NW 315 ° 0,000 mm 8,6 °C 25,6 °C 9,7 km/h (2 Bft) 95,65 %
05.05.2026 14:47 25,6 °C 35 % 1006,3 hPa 0,0 l/m² 3,2 km/h (1 Bft) W 270 ° 0,000 mm 9,0 °C 25,6 °C 4,8 km/h (1 Bft) 100,00 %
05.05.2026 14:46 25,5 °C 34 % 1006,3 hPa 0,0 l/m² 1,6 km/h (1 Bft) W-SW 247 ° 0,000 mm 8,5 °C 25,5 °C 4,8 km/h (1 Bft) 100,00 %
05.05.2026 14:45 25,6 °C 35 % 1006,4 hPa 0,0 l/m² 4,8 km/h (1 Bft) N-NW 337 ° 0,000 mm 9,0 °C 25,6 °C 6,4 km/h (2 Bft) 100,00 %
05.05.2026 14:44 25,6 °C 33 % 1006,2 hPa 0,0 l/m² 3,2 km/h (1 Bft) W-NW 292 ° 0,000 mm 8,1 °C 25,6 °C 6,4 km/h (2 Bft) 100,00 %
05.05.2026 14:43 25,7 °C 33 % 1006,4 hPa 0,0 l/m² 1,6 km/h (1 Bft) W-NW 292 ° 0,000 mm 8,2 °C 25,7 °C 1,6 km/h (1 Bft) 100,00 %
05.05.2026 14:42 25,8 °C 33 % 1006,4 hPa 0,0 l/m² 4,8 km/h (1 Bft) W-NW 292 ° 0,000 mm 8,3 °C 25,8 °C 4,8 km/h (1 Bft) 100,00 %
05.05.2026 14:41 25,9 °C 33 % 1006,4 hPa 0,0 l/m² 4,8 km/h (1 Bft) NW 315 ° 0,000 mm 8,4 °C 25,9 °C 6,4 km/h (2 Bft) 100,00 %
05.05.2026 14:40 25,9 °C 35 % 1006,5 hPa 0,0 l/m² 4,8 km/h (1 Bft) W 270 ° 0,000 mm 9,3 °C 25,9 °C 6,4 km/h (2 Bft) 100,00 %
05.05.2026 14:39 26,0 °C 34 % 1006,5 hPa 0,0 l/m² 3,2 km/h (1 Bft) W-NW 292 ° 0,000 mm 8,9 °C 26,0 °C 6,4 km/h (2 Bft) 100,00 %
05.05.2026 14:38 26,1 °C 33 % 1006,5 hPa 0,0 l/m² 4,8 km/h (1 Bft) N-NW 337 ° 0,000 mm 8,6 °C 26,1 °C 8,0 km/h (2 Bft) 95,65 %
05.05.2026 14:37 26,1 °C 34 % 1006,4 hPa 0,0 l/m² 3,2 km/h (1 Bft) W-NW 292 ° 0,000 mm 9,0 °C 26,1 °C 4,8 km/h (1 Bft) 95,65 %
05.05.2026 14:36 26,1 °C 34 % 1006,5 hPa 0,0 l/m² 1,6 km/h (1 Bft) NW 315 ° 0,000 mm 9,0 °C 26,1 °C 3,2 km/h (1 Bft) 100,00 %
05.05.2026 14:35 25,9 °C 36 % 1006,5 hPa 0,0 l/m² 0,0 km/h (0 Bft) W-SW 247 ° 0,000 mm 9,7 °C 25,9 °C 3,2 km/h (1 Bft) 100,00 %
05.05.2026 14:34 25,7 °C 34 % 1006,5 hPa 0,0 l/m² 0,0 km/h (0 Bft) N 0 ° 0,000 mm 8,6 °C 25,7 °C 0,0 km/h (0 Bft) 100,00 %
05.05.2026 14:33 25,7 °C 34 % 1006,4 hPa 0,0 l/m² 0,0 km/h (0 Bft) W-SW 247 ° 0,000 mm 8,6 °C 25,7 °C 1,6 km/h (1 Bft) 100,00 %
05.05.2026 14:32 25,7 °C 35 % 1006,4 hPa 0,0 l/m² 1,6 km/h (1 Bft) W-SW 247 ° 0,000 mm 9,1 °C 25,7 °C 3,2 km/h (1 Bft) 100,00 %
05.05.2026 14:31 25,8 °C 34 % 1006,5 hPa 0,0 l/m² 3,2 km/h (1 Bft) SW 225 ° 0,000 mm 8,7 °C 25,8 °C 4,8 km/h (1 Bft) 100,00 %
05.05.2026 14:30 25,9 °C 35 % 1006,4 hPa 0,0 l/m² 3,2 km/h (1 Bft) W-NW 292 ° 0,000 mm 9,3 °C 25,9 °C 4,8 km/h (1 Bft) 100,00 %
05.05.2026 14:29 25,9 °C 35 % 1006,6 hPa 0,0 l/m² 4,8 km/h (1 Bft) W 270 ° 0,000 mm 9,3 °C 25,9 °C 9,7 km/h (2 Bft) 100,00 %
05.05.2026 14:28 26,1 °C 34 % 1006,5 hPa 0,0 l/m² 6,4 km/h (2 Bft) N 360 ° 0,000 mm 9,0 °C 26,1 °C 9,7 km/h (2 Bft) 100,00 %
05.05.2026 14:27 26,1 °C 34 % 1006,4 hPa 0,0 l/m² 4,8 km/h (1 Bft) N-NW 337 ° 0,000 mm 9,0 °C 26,1 °C 8,0 km/h (2 Bft) 100,00 %
05.05.2026 14:26 26,2 °C 35 % 1006,5 hPa 0,0 l/m² 3,2 km/h (1 Bft) W 270 ° 0,000 mm 9,5 °C 26,2 °C 6,4 km/h (2 Bft) 95,65 %
05.05.2026 14:25 26,2 °C 36 % 1006,5 hPa 0,0 l/m² 3,2 km/h (1 Bft) W-NW 292 ° 0,000 mm 9,9 °C 26,2 °C 4,8 km/h (1 Bft) 100,00 %
05.05.2026 14:24 26,2 °C 35 % 1006,5 hPa 0,0 l/m² 1,6 km/h (1 Bft) W-SW 247 ° 0,000 mm 9,5 °C 26,2 °C 4,8 km/h (1 Bft) 100,00 %
05.05.2026 14:23 26,2 °C 34 % 1006,6 hPa 0,0 l/m² 3,2 km/h (1 Bft) N-NO 22 ° 0,000 mm 9,1 °C 26,2 °C 6,4 km/h (2 Bft) 100,00 %
05.05.2026 14:22 26,2 °C 36 % 1006,6 hPa 0,0 l/m² 3,2 km/h (1 Bft) NO 45 ° 0,000 mm 9,9 °C 26,2 °C 6,4 km/h (2 Bft) 100,00 %
05.05.2026 14:21 26,3 °C 35 % 1006,5 hPa 0,0 l/m² 4,8 km/h (1 Bft) W-NW 292 ° 0,000 mm 9,6 °C 26,3 °C 6,4 km/h (2 Bft) 95,65 %
05.05.2026 14:20 26,3 °C 35 % 1006,6 hPa 0,0 l/m² 4,8 km/h (1 Bft) N-NW 337 ° 0,000 mm 9,6 °C 26,3 °C 6,4 km/h (2 Bft) 100,00 %
05.05.2026 14:19 26,2 °C 36 % 1006,5 hPa 0,0 l/m² 1,6 km/h (1 Bft) W 270 ° 0,000 mm 9,9 °C 26,2 °C 3,2 km/h (1 Bft) 100,00 %
05.05.2026 14:18 26,1 °C 36 % 1006,6 hPa 0,0 l/m² 1,6 km/h (1 Bft) W-NW 292 ° 0,000 mm 9,8 °C 26,1 °C 6,4 km/h (2 Bft) 95,65 %
05.05.2026 14:17 26,1 °C 35 % 1006,7 hPa 0,0 l/m² 1,6 km/h (1 Bft) W-SW 247 ° 0,000 mm 9,4 °C 26,1 °C 3,2 km/h (1 Bft) 100,00 %
05.05.2026 14:16 26,0 °C 35 % 1006,6 hPa 0,0 l/m² 3,2 km/h (1 Bft) W 270 ° 0,000 mm 9,3 °C 26,0 °C 4,8 km/h (1 Bft) 100,00 %
05.05.2026 14:15 25,9 °C 35 % 1006,6 hPa 0,0 l/m² 1,6 km/h (1 Bft) SW 225 ° 0,000 mm 9,3 °C 25,9 °C 3,2 km/h (1 Bft) 100,00 %
05.05.2026 14:14 25,8 °C 34 % 1006,6 hPa 0,0 l/m² 1,6 km/h (1 Bft) W-NW 292 ° 0,000 mm 8,7 °C 25,8 °C 3,2 km/h (1 Bft) 100,00 %
05.05.2026 14:13 25,8 °C 34 % 1006,7 hPa 0,0 l/m² 1,6 km/h (1 Bft) O 90 ° 0,000 mm 8,7 °C 25,8 °C 6,4 km/h (2 Bft) 100,00 %
05.05.2026 14:12 25,7 °C 34 % 1006,7 hPa 0,0 l/m² 1,6 km/h (1 Bft) NW 315 ° 0,000 mm 8,6 °C 25,7 °C 3,2 km/h (1 Bft) 100,00 %
05.05.2026 14:11 25,5 °C 36 % 1006,7 hPa 0,0 l/m² 1,6 km/h (1 Bft) W-NW 292 ° 0,000 mm 9,3 °C 25,5 °C 1,6 km/h (1 Bft) 100,00 %
05.05.2026 14:10 25,3 °C 36 % 1006,8 hPa 0,0 l/m² 3,2 km/h (1 Bft) SW 225 ° 0,000 mm 9,1 °C 25,3 °C 3,2 km/h (1 Bft) 100,00 %
05.05.2026 14:09 25,2 °C 36 % 1006,9 hPa 0,0 l/m² 3,2 km/h (1 Bft) W-SW 247 ° 0,000 mm 9,1 °C 25,2 °C 4,8 km/h (1 Bft) 95,65 %
05.05.2026 14:08 25,2 °C 35 % 1006,9 hPa 0,0 l/m² 3,2 km/h (1 Bft) SW 225 ° 0,000 mm 8,6 °C 25,2 °C 6,4 km/h (2 Bft) 100,00 %
05.05.2026 14:07 25,1 °C 36 % 1006,9 hPa 0,0 l/m² 6,4 km/h (2 Bft) S-SW 202 ° 0,000 mm 9,0 °C 25,1 °C 8,0 km/h (2 Bft) 100,00 %
05.05.2026 14:06 24,9 °C 38 % 1006,9 hPa 0,0 l/m² 4,8 km/h (1 Bft) S-SW 202 ° 0,000 mm 9,6 °C 24,9 °C 6,4 km/h (2 Bft) 100,00 %
05.05.2026 14:05 24,8 °C 36 % 1006,8 hPa 0,0 l/m² 3,2 km/h (1 Bft) SW 225 ° 0,000 mm 8,7 °C 24,8 °C 4,8 km/h (1 Bft) 100,00 %
05.05.2026 14:04 24,6 °C 38 % 1006,8 hPa 0,0 l/m² 1,6 km/h (1 Bft) W 270 ° 0,000 mm 9,3 °C 24,6 °C 4,8 km/h (1 Bft) 100,00 %
05.05.2026 14:03 24,6 °C 36 % 1006,9 hPa 0,0 l/m² 3,2 km/h (1 Bft) W 270 ° 0,000 mm 8,5 °C 24,6 °C 4,8 km/h (1 Bft) 100,00 %
05.05.2026 14:02 24,4 °C 38 % 1007,0 hPa 0,0 l/m² 4,8 km/h (1 Bft) W 270 ° 0,000 mm 9,2 °C 24,4 °C 8,0 km/h (2 Bft) 100,00 %
05.05.2026 14:01 24,4 °C 37 % 1006,9 hPa 0,0 l/m² 4,8 km/h (1 Bft) W 270 ° 0,000 mm 8,8 °C 24,4 °C 6,4 km/h (2 Bft) 100,00 %
05.05.2026 14:00 24,4 °C 38 % 1006,9 hPa 0,0 l/m² 3,2 km/h (1 Bft) W 270 ° 0,000 mm 9,2 °C 24,4 °C 6,4 km/h (2 Bft) 100,00 %
05.05.2026 13:59 24,4 °C 37 % 1007,0 hPa 0,0 l/m² 3,2 km/h (1 Bft) W 270 ° 0,000 mm 8,8 °C 24,4 °C 4,8 km/h (1 Bft) 100,00 %
05.05.2026 13:58 24,4 °C 39 % 1007,0 hPa 0,0 l/m² 3,2 km/h (1 Bft) W 270 ° 0,000 mm 9,5 °C 24,4 °C 8,0 km/h (2 Bft) 100,00 %
05.05.2026 13:57 24,3 °C 39 % 1006,9 hPa 0,0 l/m² 3,2 km/h (1 Bft) W-NW 292 ° 0,000 mm 9,4 °C 24,3 °C 6,4 km/h (2 Bft) 95,65 %
05.05.2026 13:56 24,3 °C 37 % 1006,9 hPa 0,0 l/m² 4,8 km/h (1 Bft) NW 315 ° 0,000 mm 8,7 °C 24,3 °C 6,4 km/h (2 Bft) 100,00 %
05.05.2026 13:55 24,4 °C 38 % 1006,9 hPa 0,0 l/m² 4,8 km/h (1 Bft) N-NW 337 ° 0,000 mm 9,2 °C 24,4 °C 6,4 km/h (2 Bft) 95,65 %
05.05.2026 13:54 24,4 °C 38 % 1007,0 hPa 0,0 l/m² 4,8 km/h (1 Bft) N-NW 337 ° 0,000 mm 9,2 °C 24,4 °C 8,0 km/h (2 Bft) 100,00 %
05.05.2026 13:53 24,4 °C 38 % 1007,0 hPa 0,0 l/m² 1,6 km/h (1 Bft) W 270 ° 0,000 mm 9,2 °C 24,4 °C 3,2 km/h (1 Bft) 100,00 %
05.05.2026 13:52 24,4 °C 38 % 1006,9 hPa 0,0 l/m² 3,2 km/h (1 Bft) W-NW 292 ° 0,000 mm 9,2 °C 24,4 °C 4,8 km/h (1 Bft) 100,00 %
05.05.2026 13:51 24,4 °C 37 % 1006,9 hPa 0,0 l/m² 4,8 km/h (1 Bft) NW 315 ° 0,000 mm 8,8 °C 24,4 °C 6,4 km/h (2 Bft) 100,00 %
05.05.2026 13:50 24,5 °C 38 % 1007,0 hPa 0,0 l/m² 3,2 km/h (1 Bft) W 270 ° 0,000 mm 9,2 °C 24,5 °C 6,4 km/h (2 Bft) 100,00 %
05.05.2026 13:49 24,6 °C 39 % 1006,9 hPa 0,0 l/m² 3,2 km/h (1 Bft) W 270 ° 0,000 mm 9,7 °C 24,6 °C 9,7 km/h (2 Bft) 95,65 %
05.05.2026 13:48 24,6 °C 38 % 1007,0 hPa 0,0 l/m² 1,6 km/h (1 Bft) W 270 ° 0,000 mm 9,3 °C 24,6 °C 3,2 km/h (1 Bft) 100,00 %
05.05.2026 13:47 24,7 °C 37 % 1007,0 hPa 0,0 l/m² 4,8 km/h (1 Bft) W-NW 292 ° 0,000 mm 9,0 °C 24,7 °C 6,4 km/h (2 Bft) 100,00 %
05.05.2026 13:46 24,8 °C 37 % 1007,0 hPa 0,0 l/m² 8,0 km/h (2 Bft) W-NW 292 ° 0,000 mm 9,1 °C 24,4 °C 11,3 km/h (2 Bft) 100,00 %
05.05.2026 13:45 25,0 °C 37 % 1007,0 hPa 0,0 l/m² 3,2 km/h (1 Bft) W-NW 292 ° 0,000 mm 9,3 °C 25,0 °C 6,4 km/h (2 Bft) 100,00 %
05.05.2026 13:44 25,1 °C 36 % 1007,0 hPa 0,0 l/m² 3,2 km/h (1 Bft) W-NW 292 ° 0,000 mm 9,0 °C 25,1 °C 6,4 km/h (2 Bft) 100,00 %
05.05.2026 13:43 25,3 °C 37 % 1007,0 hPa 0,0 l/m² 6,4 km/h (2 Bft) N-NW 337 ° 0,000 mm 9,6 °C 25,3 °C 9,7 km/h (2 Bft) 100,00 %
05.05.2026 13:42 25,3 °C 37 % 1007,1 hPa 0,0 l/m² 3,2 km/h (1 Bft) W 270 ° 0,000 mm 9,6 °C 25,3 °C 9,7 km/h (2 Bft) 100,00 %
05.05.2026 13:41 25,0 °C 36 % 1007,0 hPa 0,0 l/m² 0,0 km/h (0 Bft) W 270 ° 0,000 mm 8,9 °C 25,0 °C 1,6 km/h (1 Bft) 100,00 %
05.05.2026 13:40 24,8 °C 36 % 1007,1 hPa 0,0 l/m² 1,6 km/h (1 Bft) W 270 ° 0,000 mm 8,7 °C 24,8 °C 1,6 km/h (1 Bft) 100,00 %
05.05.2026 13:39 24,8 °C 36 % 1007,1 hPa 0,0 l/m² 3,2 km/h (1 Bft) W-SW 247 ° 0,000 mm 8,7 °C 24,8 °C 6,4 km/h (2 Bft) 100,00 %
05.05.2026 13:38 24,8 °C 35 % 1007,2 hPa 0,0 l/m² 4,8 km/h (1 Bft) W-SW 247 ° 0,000 mm 8,3 °C 24,8 °C 8,0 km/h (2 Bft) 100,00 %
05.05.2026 13:37 24,8 °C 36 % 1007,1 hPa 0,0 l/m² 3,2 km/h (1 Bft) W-SW 247 ° 0,000 mm 8,7 °C 24,8 °C 4,8 km/h (1 Bft) 100,00 %
05.05.2026 13:36 24,7 °C 36 % 1007,1 hPa 0,0 l/m² 1,6 km/h (1 Bft) W-SW 247 ° 0,000 mm 8,6 °C 24,7 °C 3,2 km/h (1 Bft) 100,00 %
05.05.2026 13:35 24,6 °C 36 % 1007,1 hPa 0,0 l/m² 4,8 km/h (1 Bft) W-SW 247 ° 0,000 mm 8,5 °C 24,6 °C 8,0 km/h (2 Bft) 100,00 %
05.05.2026 13:34 24,4 °C 36 % 1007,1 hPa 0,0 l/m² 3,2 km/h (1 Bft) SW 225 ° 0,000 mm 8,4 °C 24,4 °C 9,7 km/h (2 Bft) 100,00 %
05.05.2026 13:33 24,4 °C 36 % 1007,1 hPa 0,0 l/m² 3,2 km/h (1 Bft) W-SW 247 ° 0,000 mm 8,4 °C 24,4 °C 6,4 km/h (2 Bft) 100,00 %
05.05.2026 13:32 24,4 °C 36 % 1007,1 hPa 0,0 l/m² 6,4 km/h (2 Bft) W 270 ° 0,000 mm 8,4 °C 24,4 °C 8,0 km/h (2 Bft) 100,00 %
05.05.2026 13:31 24,4 °C 36 % 1007,2 hPa 0,0 l/m² 6,4 km/h (2 Bft) W 270 ° 0,000 mm 8,4 °C 24,4 °C 8,0 km/h (2 Bft) 100,00 %
05.05.2026 13:30 24,4 °C 38 % 1007,2 hPa 0,0 l/m² 8,0 km/h (2 Bft) W 270 ° 0,000 mm 9,2 °C 24,0 °C 12,9 km/h (3 Bft) 100,00 %
05.05.2026 13:29 24,5 °C 36 % 1007,2 hPa 0,0 l/m² 9,7 km/h (2 Bft) W 270 ° 0,000 mm 8,4 °C 23,7 °C 12,9 km/h (3 Bft) 100,00 %
05.05.2026 13:28 24,5 °C 37 % 1007,2 hPa 0,0 l/m² 8,0 km/h (2 Bft) N-NW 337 ° 0,000 mm 8,8 °C 24,1 °C 12,9 km/h (3 Bft) 100,00 %
05.05.2026 13:27 24,4 °C 40 % 1007,1 hPa 0,0 l/m² 6,4 km/h (2 Bft) W-NW 292 ° 0,000 mm 9,9 °C 24,4 °C 8,0 km/h (2 Bft) 100,00 %
05.05.2026 13:26 24,4 °C 38 % 1007,2 hPa 0,0 l/m² 4,8 km/h (1 Bft) W 270 ° 0,000 mm 9,2 °C 24,4 °C 8,0 km/h (2 Bft) 100,00 %
05.05.2026 13:25 24,4 °C 37 % 1007,3 hPa 0,0 l/m² 6,4 km/h (2 Bft) W 270 ° 0,000 mm 8,8 °C 24,4 °C 12,9 km/h (3 Bft) 95,65 %
05.05.2026 13:24 24,4 °C 37 % 1007,3 hPa 0,0 l/m² 3,2 km/h (1 Bft) W-NW 292 ° 0,000 mm 8,8 °C 24,4 °C 8,0 km/h (2 Bft) 100,00 %
05.05.2026 13:23 24,4 °C 37 % 1007,3 hPa 0,0 l/m² 3,2 km/h (1 Bft) W-NW 292 ° 0,000 mm 8,8 °C 24,4 °C 6,4 km/h (2 Bft) 100,00 %
05.05.2026 13:22 24,4 °C 36 % 1007,3 hPa 0,0 l/m² 6,4 km/h (2 Bft) NW 315 ° 0,000 mm 8,4 °C 24,4 °C 9,7 km/h (2 Bft) 100,00 %
05.05.2026 13:21 24,5 °C 36 % 1007,3 hPa 0,0 l/m² 4,8 km/h (1 Bft) N-NW 337 ° 0,000 mm 8,4 °C 24,5 °C 9,7 km/h (2 Bft) 100,00 %
05.05.2026 13:20 24,5 °C 37 % 1007,3 hPa 0,0 l/m² 8,0 km/h (2 Bft) N-NO 22 ° 0,000 mm 8,8 °C 24,1 °C 11,3 km/h (2 Bft) 100,00 %
05.05.2026 13:19 24,6 °C 36 % 1007,2 hPa 0,0 l/m² 6,4 km/h (2 Bft) NO 45 ° 0,000 mm 8,5 °C 24,6 °C 9,7 km/h (2 Bft) 100,00 %
05.05.2026 13:18 24,6 °C 35 % 1007,3 hPa 0,0 l/m² 6,4 km/h (2 Bft) NO 45 ° 0,000 mm 8,1 °C 24,6 °C 9,7 km/h (2 Bft) 95,65 %
05.05.2026 13:17 24,7 °C 36 % 1007,3 hPa 0,0 l/m² 4,8 km/h (1 Bft) N-NW 337 ° 0,000 mm 8,6 °C 24,7 °C 8,0 km/h (2 Bft) 100,00 %
05.05.2026 13:16 24,6 °C 36 % 1007,3 hPa 0,0 l/m² 6,4 km/h (2 Bft) N-NO 22 ° 0,000 mm 8,5 °C 24,6 °C 11,3 km/h (2 Bft) 95,65 %
05.05.2026 13:15 24,6 °C 36 % 1007,2 hPa 0,0 l/m² 6,4 km/h (2 Bft) N 360 ° 0,000 mm 8,5 °C 24,6 °C 11,3 km/h (2 Bft) 100,00 %
05.05.2026 13:14 24,6 °C 37 % 1007,3 hPa 0,0 l/m² 4,8 km/h (1 Bft) NW 315 ° 0,000 mm 8,9 °C 24,6 °C 11,3 km/h (2 Bft) 100,00 %
05.05.2026 13:13 24,6 °C 37 % 1007,3 hPa 0,0 l/m² 4,8 km/h (1 Bft) N 360 ° 0,000 mm 8,9 °C 24,6 °C 8,0 km/h (2 Bft) 100,00 %
05.05.2026 13:12 24,6 °C 37 % 1007,3 hPa 0,0 l/m² 3,2 km/h (1 Bft) N-NW 337 ° 0,000 mm 8,9 °C 24,6 °C 6,4 km/h (2 Bft) 100,00 %
05.05.2026 13:11 24,5 °C 38 % 1007,3 hPa 0,0 l/m² 1,6 km/h (1 Bft) W-NW 292 ° 0,000 mm 9,2 °C 24,5 °C 4,8 km/h (1 Bft) 95,65 %
05.05.2026 13:10 24,4 °C 36 % 1007,3 hPa 0,0 l/m² 3,2 km/h (1 Bft) NW 315 ° 0,000 mm 8,4 °C 24,4 °C 6,4 km/h (2 Bft) 100,00 %
05.05.2026 13:09 24,4 °C 37 % 1007,4 hPa 0,0 l/m² 3,2 km/h (1 Bft) NW 315 ° 0,000 mm 8,8 °C 24,4 °C 6,4 km/h (2 Bft) 100,00 %
05.05.2026 13:08 24,4 °C 38 % 1007,3 hPa 0,0 l/m² 4,8 km/h (1 Bft) N 360 ° 0,000 mm 9,2 °C 24,4 °C 8,0 km/h (2 Bft) 100,00 %
05.05.2026 13:07 24,4 °C 38 % 1007,3 hPa 0,0 l/m² 4,8 km/h (1 Bft) NW 315 ° 0,000 mm 9,2 °C 24,4 °C 9,7 km/h (2 Bft) 100,00 %
05.05.2026 13:06 24,5 °C 37 % 1007,3 hPa 0,0 l/m² 4,8 km/h (1 Bft) NW 315 ° 0,000 mm 8,8 °C 24,5 °C 9,7 km/h (2 Bft) 100,00 %
05.05.2026 13:05 24,6 °C 39 % 1007,4 hPa 0,0 l/m² 4,8 km/h (1 Bft) N-NW 337 ° 0,000 mm 9,7 °C 24,6 °C 8,0 km/h (2 Bft) 95,65 %
05.05.2026 13:04 24,5 °C 40 % 1007,3 hPa 0,0 l/m² 6,4 km/h (2 Bft) N-NO 22 ° 0,000 mm 10,0 °C 24,5 °C 11,3 km/h (2 Bft) 100,00 %
05.05.2026 13:03 24,4 °C 40 % 1007,3 hPa 0,0 l/m² 1,6 km/h (1 Bft) W 270 ° 0,000 mm 9,9 °C 24,4 °C 4,8 km/h (1 Bft) 100,00 %
05.05.2026 13:02 24,3 °C 40 % 1007,4 hPa 0,0 l/m² 4,8 km/h (1 Bft) N 360 ° 0,000 mm 9,8 °C 24,3 °C 11,3 km/h (2 Bft) 100,00 %
05.05.2026 13:01 24,2 °C 40 % 1007,5 hPa 0,0 l/m² 4,8 km/h (1 Bft) NW 315 ° 0,000 mm 9,7 °C 24,2 °C 8,0 km/h (2 Bft) 95,65 %
05.05.2026 13:00 24,1 °C 39 % 1007,5 hPa 0,0 l/m² 3,2 km/h (1 Bft) W-NW 292 ° 0,000 mm 9,3 °C 24,1 °C 9,7 km/h (2 Bft) 100,00 %
05.05.2026 12:59 24,1 °C 40 % 1007,6 hPa 0,0 l/m² 6,4 km/h (2 Bft) N 360 ° 0,000 mm 9,6 °C 24,1 °C 8,0 km/h (2 Bft) 100,00 %
05.05.2026 12:58 24,2 °C 40 % 1007,5 hPa 0,0 l/m² 3,2 km/h (1 Bft) W 270 ° 0,000 mm 9,7 °C 24,2 °C 6,4 km/h (2 Bft) 100,00 %
05.05.2026 12:57 24,1 °C 39 % 1007,6 hPa 0,0 l/m² 6,4 km/h (2 Bft) W 270 ° 0,000 mm 9,3 °C 24,1 °C 9,7 km/h (2 Bft) 100,00 %
05.05.2026 12:56 24,1 °C 40 % 1007,6 hPa 0,0 l/m² 4,8 km/h (1 Bft) W-NW 292 ° 0,000 mm 9,6 °C 24,1 °C 8,0 km/h (2 Bft) 100,00 %
05.05.2026 12:55 24,1 °C 40 % 1007,5 hPa 0,0 l/m² 4,8 km/h (1 Bft) W 270 ° 0,000 mm 9,6 °C 24,1 °C 8,0 km/h (2 Bft) 100,00 %
05.05.2026 12:54 24,1 °C 41 % 1007,6 hPa 0,0 l/m² 3,2 km/h (1 Bft) W-NW 292 ° 0,000 mm 10,0 °C 24,1 °C 6,4 km/h (2 Bft) 100,00 %
05.05.2026 12:53 24,1 °C 41 % 1007,6 hPa 0,0 l/m² 1,6 km/h (1 Bft) W 270 ° 0,000 mm 10,0 °C 24,1 °C 6,4 km/h (2 Bft) 100,00 %
05.05.2026 12:52 24,1 °C 42 % 1007,6 hPa 0,0 l/m² 3,2 km/h (1 Bft) W 270 ° 0,000 mm 10,4 °C 24,1 °C 8,0 km/h (2 Bft) 100,00 %
05.05.2026 12:51 24,1 °C 41 % 1007,6 hPa 0,0 l/m² 4,8 km/h (1 Bft) W-NW 292 ° 0,000 mm 10,0 °C 24,1 °C 8,0 km/h (2 Bft) 100,00 %
05.05.2026 12:50 24,1 °C 41 % 1007,6 hPa 0,0 l/m² 4,8 km/h (1 Bft) W 270 ° 0,000 mm 10,0 °C 24,1 °C 6,4 km/h (2 Bft) 100,00 %
05.05.2026 12:49 24,1 °C 42 % 1007,7 hPa 0,0 l/m² 4,8 km/h (1 Bft) W-NW 292 ° 0,000 mm 10,4 °C 24,1 °C 8,0 km/h (2 Bft) 100,00 %
05.05.2026 12:48 24,1 °C 42 % 1007,7 hPa 0,0 l/m² 4,8 km/h (1 Bft) NW 315 ° 0,000 mm 10,4 °C 24,1 °C 9,7 km/h (2 Bft) 100,00 %
05.05.2026 12:47 24,1 °C 43 % 1007,7 hPa 0,0 l/m² 3,2 km/h (1 Bft) W 270 ° 0,000 mm 10,7 °C 24,1 °C 6,4 km/h (2 Bft) 100,00 %
05.05.2026 12:46 24,1 °C 42 % 1007,6 hPa 0,0 l/m² 4,8 km/h (1 Bft) W 270 ° 0,000 mm 10,4 °C 24,1 °C 9,7 km/h (2 Bft) 100,00 %
05.05.2026 12:45 24,0 °C 42 % 1007,7 hPa 0,0 l/m² 4,8 km/h (1 Bft) NW 315 ° 0,000 mm 10,3 °C 24,0 °C 8,0 km/h (2 Bft) 100,00 %
05.05.2026 12:44 23,9 °C 42 % 1007,8 hPa 0,0 l/m² 6,4 km/h (2 Bft) O-NO 67 ° 0,000 mm 10,2 °C 23,9 °C 8,0 km/h (2 Bft) 100,00 %
05.05.2026 12:43 23,9 °C 43 % 1007,7 hPa 0,0 l/m² 1,6 km/h (1 Bft) W-NW 292 ° 0,000 mm 10,5 °C 23,9 °C 6,4 km/h (2 Bft) 100,00 %
05.05.2026 12:42 23,9 °C 41 % 1007,8 hPa 0,0 l/m² 3,2 km/h (1 Bft) W-NW 292 ° 0,000 mm 9,8 °C 23,9 °C 4,8 km/h (1 Bft) 100,00 %
05.05.2026 12:41 23,9 °C 42 % 1007,8 hPa 0,0 l/m² 3,2 km/h (1 Bft) W-NW 292 ° 0,000 mm 10,2 °C 23,9 °C 4,8 km/h (1 Bft) 100,00 %
05.05.2026 12:40 23,8 °C 42 % 1007,7 hPa 0,0 l/m² 4,8 km/h (1 Bft) W-NW 292 ° 0,000 mm 10,1 °C 23,8 °C 6,4 km/h (2 Bft) 100,00 %
05.05.2026 12:39 23,8 °C 43 % 1007,8 hPa 0,0 l/m² 1,6 km/h (1 Bft) SW 225 ° 0,000 mm 10,5 °C 23,8 °C 3,2 km/h (1 Bft) 100,00 %
05.05.2026 12:38 23,6 °C 43 % 1007,9 hPa 0,0 l/m² 1,6 km/h (1 Bft) W 270 ° 0,000 mm 10,3 °C 23,6 °C 6,4 km/h (2 Bft) 100,00 %
05.05.2026 12:37 23,6 °C 41 % 1007,8 hPa 0,0 l/m² 1,6 km/h (1 Bft) W-NW 292 ° 0,000 mm 9,6 °C 23,6 °C 3,2 km/h (1 Bft) 100,00 %
05.05.2026 12:36 23,6 °C 41 % 1008,0 hPa 0,0 l/m² 1,6 km/h (1 Bft) W 270 ° 0,000 mm 9,6 °C 23,6 °C 6,4 km/h (2 Bft) 100,00 %
05.05.2026 12:35 23,6 °C 44 % 1007,9 hPa 0,0 l/m² 4,8 km/h (1 Bft) W 270 ° 0,000 mm 10,6 °C 23,6 °C 8,0 km/h (2 Bft) 95,65 %
05.05.2026 12:34 23,5 °C 44 % 1007,9 hPa 0,0 l/m² 3,2 km/h (1 Bft) W 270 ° 0,000 mm 10,5 °C 23,5 °C 6,4 km/h (2 Bft) 100,00 %
05.05.2026 12:33 23,5 °C 43 % 1007,9 hPa 0,0 l/m² 3,2 km/h (1 Bft) W 270 ° 0,000 mm 10,2 °C 23,5 °C 8,0 km/h (2 Bft) 100,00 %
05.05.2026 12:32 23,5 °C 43 % 1008,1 hPa 0,0 l/m² 4,8 km/h (1 Bft) W-NW 292 ° 0,000 mm 10,2 °C 23,5 °C 6,4 km/h (2 Bft) 100,00 %
05.05.2026 12:31 23,6 °C 42 % 1008,1 hPa 0,0 l/m² 6,4 km/h (2 Bft) W-NW 292 ° 0,000 mm 9,9 °C 23,6 °C 8,0 km/h (2 Bft) 100,00 %
05.05.2026 12:30 23,6 °C 43 % 1007,9 hPa 0,0 l/m² 4,8 km/h (1 Bft) W-NW 292 ° 0,000 mm 10,3 °C 23,6 °C 8,0 km/h (2 Bft) 100,00 %
05.05.2026 12:29 23,7 °C 42 % 1008,0 hPa 0,0 l/m² 3,2 km/h (1 Bft) W-NW 292 ° 0,000 mm 10,0 °C 23,7 °C 6,4 km/h (2 Bft) 100,00 %
05.05.2026 12:28 23,6 °C 42 % 1008,1 hPa 0,0 l/m² 3,2 km/h (1 Bft) W-NW 292 ° 0,000 mm 9,9 °C 23,6 °C 6,4 km/h (2 Bft) 100,00 %
05.05.2026 12:27 23,7 °C 42 % 1008,1 hPa 0,0 l/m² 3,2 km/h (1 Bft) NW 315 ° 0,000 mm 10,0 °C 23,7 °C 9,7 km/h (2 Bft) 100,00 %
05.05.2026 12:26 23,7 °C 41 % 1008,1 hPa 0,0 l/m² 8,0 km/h (2 Bft) N-NW 337 ° 0,000 mm 9,7 °C 23,2 °C 9,7 km/h (2 Bft) 100,00 %
05.05.2026 12:25 23,8 °C 43 % 1008,1 hPa 0,0 l/m² 6,4 km/h (2 Bft) W-NW 292 ° 0,000 mm 10,5 °C 23,8 °C 14,5 km/h (3 Bft) 100,00 %
05.05.2026 12:24 23,8 °C 45 % 1008,1 hPa 0,0 l/m² 4,8 km/h (1 Bft) NW 315 ° 0,000 mm 11,1 °C 23,8 °C 12,9 km/h (3 Bft) 100,00 %
05.05.2026 12:23 23,8 °C 43 % 1008,0 hPa 0,0 l/m² 8,0 km/h (2 Bft) W 270 ° 0,000 mm 10,5 °C 23,3 °C 14,5 km/h (3 Bft) 100,00 %
05.05.2026 12:22 23,8 °C 44 % 1008,1 hPa 0,0 l/m² 4,8 km/h (1 Bft) W 270 ° 0,000 mm 10,8 °C 23,8 °C 6,4 km/h (2 Bft) 100,00 %
05.05.2026 12:21 23,8 °C 44 % 1008,0 hPa 0,0 l/m² 1,6 km/h (1 Bft) W 270 ° 0,000 mm 10,8 °C 23,8 °C 4,8 km/h (1 Bft) 100,00 %
05.05.2026 12:20 23,6 °C 44 % 1008,1 hPa 0,0 l/m² 1,6 km/h (1 Bft) W-NW 292 ° 0,000 mm 10,6 °C 23,6 °C 3,2 km/h (1 Bft) 100,00 %
05.05.2026 12:19 23,4 °C 43 % 1008,1 hPa 0,0 l/m² 1,6 km/h (1 Bft) W-SW 247 ° 0,000 mm 10,1 °C 23,4 °C 6,4 km/h (2 Bft) 100,00 %
05.05.2026 12:18 23,4 °C 44 % 1008,2 hPa 0,0 l/m² 3,2 km/h (1 Bft) W-NW 292 ° 0,000 mm 10,4 °C 23,4 °C 4,8 km/h (1 Bft) 95,65 %
05.05.2026 12:17 23,4 °C 43 % 1008,2 hPa 0,0 l/m² 4,8 km/h (1 Bft) N-NW 337 ° 0,000 mm 10,1 °C 23,4 °C 6,4 km/h (2 Bft) 100,00 %
05.05.2026 12:16 23,3 °C 44 % 1008,2 hPa 0,0 l/m² 3,2 km/h (1 Bft) W 270 ° 0,000 mm 10,4 °C 23,3 °C 8,0 km/h (2 Bft) 100,00 %
05.05.2026 12:15 23,3 °C 44 % 1008,2 hPa 0,0 l/m² 1,6 km/h (1 Bft) NW 315 ° 0,000 mm 10,4 °C 23,3 °C 6,4 km/h (2 Bft) 100,00 %
05.05.2026 12:14 23,3 °C 44 % 1008,1 hPa 0,0 l/m² 3,2 km/h (1 Bft) NW 315 ° 0,000 mm 10,4 °C 23,3 °C 4,8 km/h (1 Bft) 100,00 %
05.05.2026 12:13 23,4 °C 43 % 1008,3 hPa 0,0 l/m² 6,4 km/h (2 Bft) NW 315 ° 0,000 mm 10,1 °C 23,4 °C 6,4 km/h (2 Bft) 100,00 %
05.05.2026 12:12 23,6 °C 44 % 1008,2 hPa 0,0 l/m² 6,4 km/h (2 Bft) N-NW 337 ° 0,000 mm 10,6 °C 23,6 °C 11,3 km/h (2 Bft) 100,00 %
05.05.2026 12:11 23,6 °C 45 % 1008,2 hPa 0,0 l/m² 8,0 km/h (2 Bft) N-NW 337 ° 0,000 mm 11,0 °C 23,1 °C 11,3 km/h (2 Bft) 100,00 %
05.05.2026 12:10 23,5 °C 45 % 1008,2 hPa 0,0 l/m² 4,8 km/h (1 Bft) W-NW 292 ° 0,000 mm 10,9 °C 23,5 °C 9,7 km/h (2 Bft) 100,00 %
05.05.2026 12:09 23,4 °C 45 % 1008,2 hPa 0,0 l/m² 3,2 km/h (1 Bft) W-NW 292 ° 0,000 mm 10,8 °C 23,4 °C 6,4 km/h (2 Bft) 100,00 %
05.05.2026 12:08 23,3 °C 46 % 1008,2 hPa 0,0 l/m² 3,2 km/h (1 Bft) W-SW 247 ° 0,000 mm 11,0 °C 23,3 °C 4,8 km/h (1 Bft) 100,00 %
05.05.2026 12:07 23,2 °C 45 % 1008,2 hPa 0,0 l/m² 1,6 km/h (1 Bft) W 270 ° 0,000 mm 10,6 °C 23,2 °C 3,2 km/h (1 Bft) 100,00 %
05.05.2026 12:06 23,2 °C 46 % 1008,3 hPa 0,0 l/m² 3,2 km/h (1 Bft) W 270 ° 0,000 mm 10,9 °C 23,2 °C 4,8 km/h (1 Bft) 95,65 %
05.05.2026 12:05 23,2 °C 46 % 1008,3 hPa 0,0 l/m² 4,8 km/h (1 Bft) W 270 ° 0,000 mm 10,9 °C 23,2 °C 6,4 km/h (2 Bft) 100,00 %
05.05.2026 12:04 23,2 °C 45 % 1008,3 hPa 0,0 l/m² 4,8 km/h (1 Bft) W 270 ° 0,000 mm 10,6 °C 23,2 °C 6,4 km/h (2 Bft) 100,00 %
05.05.2026 12:03 23,2 °C 45 % 1008,3 hPa 0,0 l/m² 4,8 km/h (1 Bft) W-NW 292 ° 0,000 mm 10,6 °C 23,2 °C 8,0 km/h (2 Bft) 95,65 %
05.05.2026 12:02 23,2 °C 45 % 1008,4 hPa 0,0 l/m² 4,8 km/h (1 Bft) W-NW 292 ° 0,000 mm 10,6 °C 23,2 °C 6,4 km/h (2 Bft) 100,00 %
05.05.2026 12:01 23,2 °C 45 % 1008,3 hPa 0,0 l/m² 3,2 km/h (1 Bft) W 270 ° 0,000 mm 10,6 °C 23,2 °C 4,8 km/h (1 Bft) 95,65 %
05.05.2026 12:00 23,2 °C 44 % 1008,3 hPa 0,0 l/m² 3,2 km/h (1 Bft) W 270 ° 0,000 mm 10,3 °C 23,2 °C 4,8 km/h (1 Bft) 100,00 %
05.05.2026 11:59 23,1 °C 45 % 1008,3 hPa 0,0 l/m² 4,8 km/h (1 Bft) NW 315 ° 0,000 mm 10,5 °C 23,1 °C 6,4 km/h (2 Bft) 95,65 %
05.05.2026 11:58 23,1 °C 45 % 1008,4 hPa 0,0 l/m² 4,8 km/h (1 Bft) W-NW 292 ° 0,000 mm 10,5 °C 23,1 °C 6,4 km/h (2 Bft) 100,00 %
05.05.2026 11:57 23,1 °C 44 % 1008,3 hPa 0,0 l/m² 4,8 km/h (1 Bft) W-NW 292 ° 0,000 mm 10,2 °C 23,1 °C 6,4 km/h (2 Bft) 100,00 %
05.05.2026 11:56 23,1 °C 45 % 1008,3 hPa 0,0 l/m² 1,6 km/h (1 Bft) SO 135 ° 0,000 mm 10,5 °C 23,1 °C 6,4 km/h (2 Bft) 100,00 %
05.05.2026 11:55 23,1 °C 45 % 1008,3 hPa 0,0 l/m² 4,8 km/h (1 Bft) NO 45 ° 0,000 mm 10,5 °C 23,1 °C 8,0 km/h (2 Bft) 100,00 %
05.05.2026 11:54 23,1 °C 45 % 1008,4 hPa 0,0 l/m² 4,8 km/h (1 Bft) NO 45 ° 0,000 mm 10,5 °C 23,1 °C 6,4 km/h (2 Bft) 100,00 %
05.05.2026 11:53 23,2 °C 44 % 1008,3 hPa 0,0 l/m² 1,6 km/h (1 Bft) NW 315 ° 0,000 mm 10,3 °C 23,2 °C 3,2 km/h (1 Bft) 100,00 %
05.05.2026 11:52 23,3 °C 44 % 1008,4 hPa 0,0 l/m² 6,4 km/h (2 Bft) NW 315 ° 0,000 mm 10,4 °C 23,3 °C 9,7 km/h (2 Bft) 100,00 %
05.05.2026 11:51 23,3 °C 45 % 1008,4 hPa 0,0 l/m² 3,2 km/h (1 Bft) W 270 ° 0,000 mm 10,7 °C 23,3 °C 6,4 km/h (2 Bft) 95,65 %
05.05.2026 11:50 23,4 °C 44 % 1008,5 hPa 0,0 l/m² 4,8 km/h (1 Bft) W-NW 292 ° 0,000 mm 10,4 °C 23,4 °C 8,0 km/h (2 Bft) 100,00 %
05.05.2026 11:49 23,6 °C 45 % 1008,4 hPa 0,0 l/m² 6,4 km/h (2 Bft) N-NW 337 ° 0,000 mm 11,0 °C 23,6 °C 8,0 km/h (2 Bft) 95,65 %
05.05.2026 11:48 23,6 °C 45 % 1008,4 hPa 0,0 l/m² 4,8 km/h (1 Bft) W-NW 292 ° 0,000 mm 11,0 °C 23,6 °C 8,0 km/h (2 Bft) 100,00 %
05.05.2026 11:47 23,6 °C 45 % 1008,3 hPa 0,0 l/m² 4,8 km/h (1 Bft) W-NW 292 ° 0,000 mm 11,0 °C 23,6 °C 9,7 km/h (2 Bft) 100,00 %
05.05.2026 11:46 23,5 °C 45 % 1008,5 hPa 0,0 l/m² 0,0 km/h (0 Bft) W-NW 292 ° 0,000 mm 10,9 °C 23,5 °C 1,6 km/h (1 Bft) 95,65 %
05.05.2026 11:45 23,3 °C 45 % 1008,4 hPa 0,0 l/m² 0,0 km/h (0 Bft) W-SW 247 ° 0,000 mm 10,7 °C 23,3 °C 1,6 km/h (1 Bft) 100,00 %
05.05.2026 11:44 23,2 °C 45 % 1008,4 hPa 0,0 l/m² 1,6 km/h (1 Bft) W-SW 247 ° 0,000 mm 10,6 °C 23,2 °C 3,2 km/h (1 Bft) 100,00 %
05.05.2026 11:43 23,1 °C 45 % 1008,5 hPa 0,0 l/m² 1,6 km/h (1 Bft) W-SW 247 ° 0,000 mm 10,5 °C 23,1 °C 3,2 km/h (1 Bft) 100,00 %
05.05.2026 11:42 23,0 °C 46 % 1008,5 hPa 0,0 l/m² 1,6 km/h (1 Bft) W 270 ° 0,000 mm 10,7 °C 23,0 °C 3,2 km/h (1 Bft) 100,00 %
05.05.2026 11:41 23,1 °C 45 % 1008,6 hPa 0,0 l/m² 3,2 km/h (1 Bft) W 270 ° 0,000 mm 10,5 °C 23,1 °C 6,4 km/h (2 Bft) 100,00 %
05.05.2026 11:40 23,1 °C 46 % 1008,6 hPa 0,0 l/m² 3,2 km/h (1 Bft) W 270 ° 0,000 mm 10,8 °C 23,1 °C 4,8 km/h (1 Bft) 100,00 %
05.05.2026 11:39 23,1 °C 46 % 1008,6 hPa 0,0 l/m² 3,2 km/h (1 Bft) W 270 ° 0,000 mm 10,8 °C 23,1 °C 4,8 km/h (1 Bft) 100,00 %
05.05.2026 11:38 23,2 °C 47 % 1008,6 hPa 0,0 l/m² 3,2 km/h (1 Bft) W 270 ° 0,000 mm 11,3 °C 23,2 °C 4,8 km/h (1 Bft) 100,00 %
05.05.2026 11:37 23,2 °C 46 % 1008,6 hPa 0,0 l/m² 3,2 km/h (1 Bft) NW 315 ° 0,000 mm 10,9 °C 23,2 °C 4,8 km/h (1 Bft) 100,00 %
05.05.2026 11:36 23,2 °C 46 % 1008,6 hPa 0,0 l/m² 1,6 km/h (1 Bft) W 270 ° 0,000 mm 10,9 °C 23,2 °C 4,8 km/h (1 Bft) 100,00 %
05.05.2026 11:35 23,2 °C 46 % 1008,6 hPa 0,0 l/m² 3,2 km/h (1 Bft) W-NW 292 ° 0,000 mm 10,9 °C 23,2 °C 6,4 km/h (2 Bft) 100,00 %
05.05.2026 11:34 23,3 °C 44 % 1008,6 hPa 0,0 l/m² 4,8 km/h (1 Bft) N 360 ° 0,000 mm 10,4 °C 23,3 °C 8,0 km/h (2 Bft) 100,00 %
05.05.2026 11:33 23,4 °C 45 % 1008,6 hPa 0,0 l/m² 1,6 km/h (1 Bft) W-NW 292 ° 0,000 mm 10,8 °C 23,4 °C 3,2 km/h (1 Bft) 100,00 %
05.05.2026 11:32 23,4 °C 46 % 1008,6 hPa 0,0 l/m² 3,2 km/h (1 Bft) W-NW 292 ° 0,000 mm 11,1 °C 23,4 °C 4,8 km/h (1 Bft) 95,65 %
05.05.2026 11:31 23,4 °C 46 % 1008,6 hPa 0,0 l/m² 1,6 km/h (1 Bft) W 270 ° 0,000 mm 11,1 °C 23,4 °C 3,2 km/h (1 Bft) 100,00 %
05.05.2026 11:30 23,5 °C 45 % 1008,7 hPa 0,0 l/m² 3,2 km/h (1 Bft) W-NW 292 ° 0,000 mm 10,9 °C 23,5 °C 4,8 km/h (1 Bft) 100,00 %
05.05.2026 11:29 23,6 °C 46 % 1008,7 hPa 0,0 l/m² 3,2 km/h (1 Bft) W-NW 292 ° 0,000 mm 11,3 °C 23,6 °C 4,8 km/h (1 Bft) 100,00 %
05.05.2026 11:28 23,4 °C 47 % 1008,7 hPa 0,0 l/m² 1,6 km/h (1 Bft) W-SW 247 ° 0,000 mm 11,4 °C 23,4 °C 3,2 km/h (1 Bft) 100,00 %
05.05.2026 11:27 23,3 °C 47 % 1008,7 hPa 0,0 l/m² 0,0 km/h (0 Bft) W-SW 247 ° 0,000 mm 11,3 °C 23,3 °C 1,6 km/h (1 Bft) 100,00 %
05.05.2026 11:26 23,0 °C 47 % 1008,7 hPa 0,0 l/m² 0,0 km/h (0 Bft) W-SW 247 ° 0,000 mm 11,1 °C 23,0 °C 3,2 km/h (1 Bft) 100,00 %
05.05.2026 11:25 22,8 °C 48 % 1008,6 hPa 0,0 l/m² 0,0 km/h (0 Bft) W-SW 247 ° 0,000 mm 11,2 °C 22,8 °C 1,6 km/h (1 Bft) 100,00 %
05.05.2026 11:24 22,6 °C 48 % 1008,7 hPa 0,0 l/m² 0,0 km/h (0 Bft) W-SW 247 ° 0,000 mm 11,0 °C 22,6 °C 1,6 km/h (1 Bft) 100,00 %
05.05.2026 11:23 22,5 °C 47 % 1008,7 hPa 0,0 l/m² 1,6 km/h (1 Bft) W-SW 247 ° 0,000 mm 10,6 °C 22,5 °C 3,2 km/h (1 Bft) 100,00 %
05.05.2026 11:22 22,4 °C 47 % 1008,6 hPa 0,0 l/m² 3,2 km/h (1 Bft) W-SW 247 ° 0,000 mm 10,5 °C 22,4 °C 3,2 km/h (1 Bft) 100,00 %
05.05.2026 11:21 22,4 °C 47 % 1008,7 hPa 0,0 l/m² 1,6 km/h (1 Bft) W-SW 247 ° 0,000 mm 10,5 °C 22,4 °C 3,2 km/h (1 Bft) 100,00 %
05.05.2026 11:20 22,4 °C 48 % 1008,8 hPa 0,0 l/m² 3,2 km/h (1 Bft) W 270 ° 0,000 mm 10,8 °C 22,4 °C 3,2 km/h (1 Bft) 100,00 %
05.05.2026 11:19 22,4 °C 48 % 1008,7 hPa 0,0 l/m² 1,6 km/h (1 Bft) W-NW 292 ° 0,000 mm 10,8 °C 22,4 °C 3,2 km/h (1 Bft) 100,00 %
05.05.2026 11:18 22,3 °C 49 % 1008,7 hPa 0,0 l/m² 1,6 km/h (1 Bft) W-NW 292 ° 0,000 mm 11,1 °C 22,3 °C 3,2 km/h (1 Bft) 95,65 %
05.05.2026 11:17 22,4 °C 48 % 1008,8 hPa 0,0 l/m² 3,2 km/h (1 Bft) W-NW 292 ° 0,000 mm 10,8 °C 22,4 °C 6,4 km/h (2 Bft) 95,65 %
05.05.2026 11:16 22,4 °C 48 % 1008,7 hPa 0,0 l/m² 6,4 km/h (2 Bft) W-NW 292 ° 0,000 mm 10,8 °C 22,4 °C 9,7 km/h (2 Bft) 100,00 %
05.05.2026 11:15 22,6 °C 48 % 1008,7 hPa 0,0 l/m² 6,4 km/h (2 Bft) W 270 ° 0,000 mm 11,0 °C 22,6 °C 8,0 km/h (2 Bft) 95,65 %
05.05.2026 11:14 22,6 °C 50 % 1008,8 hPa 0,0 l/m² 3,2 km/h (1 Bft) W 270 ° 0,000 mm 11,6 °C 22,6 °C 6,4 km/h (2 Bft) 100,00 %
05.05.2026 11:13 22,5 °C 49 % 1008,8 hPa 0,0 l/m² 1,6 km/h (1 Bft) W 270 ° 0,000 mm 11,2 °C 22,5 °C 3,2 km/h (1 Bft) 100,00 %
05.05.2026 11:12 22,5 °C 49 % 1008,9 hPa 0,0 l/m² 1,6 km/h (1 Bft) W 270 ° 0,000 mm 11,2 °C 22,5 °C 3,2 km/h (1 Bft) 100,00 %
05.05.2026 11:11 22,4 °C 49 % 1008,9 hPa 0,0 l/m² 1,6 km/h (1 Bft) W 270 ° 0,000 mm 11,2 °C 22,4 °C 1,6 km/h (1 Bft) 100,00 %
05.05.2026 11:10 22,4 °C 49 % 1008,8 hPa 0,0 l/m² 3,2 km/h (1 Bft) W 270 ° 0,000 mm 11,2 °C 22,4 °C 3,2 km/h (1 Bft) 100,00 %
05.05.2026 11:09 22,4 °C 49 % 1008,8 hPa 0,0 l/m² 1,6 km/h (1 Bft) W-NW 292 ° 0,000 mm 11,2 °C 22,4 °C 3,2 km/h (1 Bft) 100,00 %
05.05.2026 11:08 22,4 °C 50 % 1008,8 hPa 0,0 l/m² 1,6 km/h (1 Bft) W 270 ° 0,000 mm 11,5 °C 22,4 °C 4,8 km/h (1 Bft) 100,00 %
05.05.2026 11:07 22,3 °C 50 % 1008,8 hPa 0,0 l/m² 1,6 km/h (1 Bft) W-NW 292 ° 0,000 mm 11,4 °C 22,3 °C 3,2 km/h (1 Bft) 100,00 %
05.05.2026 11:06 22,3 °C 49 % 1008,8 hPa 0,0 l/m² 3,2 km/h (1 Bft) W 270 ° 0,000 mm 11,1 °C 22,3 °C 4,8 km/h (1 Bft) 100,00 %
05.05.2026 11:05 22,3 °C 49 % 1008,8 hPa 0,0 l/m² 3,2 km/h (1 Bft) N 360 ° 0,000 mm 11,1 °C 22,3 °C 6,4 km/h (2 Bft) 95,65 %
05.05.2026 11:04 22,3 °C 50 % 1008,8 hPa 0,0 l/m² 0,0 km/h (0 Bft) W 270 ° 0,000 mm 11,4 °C 22,3 °C 1,6 km/h (1 Bft) 100,00 %
05.05.2026 11:03 22,2 °C 51 % 1008,7 hPa 0,0 l/m² 0,0 km/h (0 Bft) W 270 ° 0,000 mm 11,6 °C 22,2 °C 3,2 km/h (1 Bft) 95,65 %
05.05.2026 11:02 22,2 °C 50 % 1008,9 hPa 0,0 l/m² 3,2 km/h (1 Bft) W-NW 292 ° 0,000 mm 11,3 °C 22,2 °C 3,2 km/h (1 Bft) 100,00 %
05.05.2026 11:01 22,3 °C 49 % 1008,9 hPa 0,0 l/m² 3,2 km/h (1 Bft) W-NW 292 ° 0,000 mm 11,1 °C 22,3 °C 4,8 km/h (1 Bft) 100,00 %
05.05.2026 11:00 22,3 °C 49 % 1008,9 hPa 0,0 l/m² 0,0 km/h (0 Bft) W-SW 247 ° 0,000 mm 11,1 °C 22,3 °C 1,6 km/h (1 Bft) 100,00 %
_ Min-Zeit 06:07 16:19 18:47 - 11:00 - - - 13:18 02:25 14:34 00:58
Minimum _ 11,7 °C 31 % 1003,9 hPa - 0,0 km/h (0 Bft) - - - 8,1 °C 11,6 °C 0,0 km/h (0 Bft) 91,30 %
_ Max-Zeit 16:18 06:09 02:56 11:00 19:43 - - 11:00 11:14 16:17 19:43 11:00
Maximum _ 27,5 °C 82 % 1010,4 hPa 0,0 l/m² 27,4 km/h
W-SW (4 Bft)
- - 0,000 mm 11,6 °C 27,4 °C 43,5 km/h
W-SW (6 Bft)
100,00 %
Durchschnitt _ 19,1 °C 58 % 1008,0 hPa #0,0 l/m² 3,2 km/h (1 Bft) W-SW - #0,000 mm 9,9 °C 18,9 °C 5,8 km/h (1 Bft) 99,44 %